<?xml version="1.0" encoding="UTF-8" standalone="no" ?>
<gpx xmlns="http://www.topografix.com/GPX/1/1" xmlns:xsi="http://www.w3.org/2001/XMLSchema-instance" xsi:schemaLocation="http://www.topografix.com/GPX/1/1 http://www.topografix.com/GPX/1/1/gpx.xsd" version="1.1" creator="VisuGPX - https://www.visugpx.com">
  <metadata>
    <name>Rando vallée de Bouguenais </name>
  </metadata>
  <trk>
    <name><![CDATA[2009-03-15T08_1]]></name>
    <trkseg>
      <trkpt lat="47.17441" lon="-1.60452">
        <ele>23.104</ele>
        <time>2009-03-15T08:11:27Z</time>
      </trkpt>
      <trkpt lat="47.17445" lon="-1.60445">
        <ele>18.864</ele>
        <time>2009-03-15T08:11:29Z</time>
      </trkpt>
      <trkpt lat="47.17477" lon="-1.60418">
        <ele>18.22</ele>
        <time>2009-03-15T08:11:40Z</time>
      </trkpt>
      <trkpt lat="47.17511" lon="-1.60401">
        <ele>17.322</ele>
        <time>2009-03-15T08:11:49Z</time>
      </trkpt>
      <trkpt lat="47.17525" lon="-1.60392">
        <ele>17.301</ele>
        <time>2009-03-15T08:11:53Z</time>
      </trkpt>
      <trkpt lat="47.17556" lon="-1.60368">
        <ele>15.741</ele>
        <time>2009-03-15T08:12:03Z</time>
      </trkpt>
      <trkpt lat="47.17573" lon="-1.60373">
        <ele>15.415</ele>
        <time>2009-03-15T08:12:08Z</time>
      </trkpt>
      <trkpt lat="47.17605" lon="-1.60397">
        <ele>14.489</ele>
        <time>2009-03-15T08:12:16Z</time>
      </trkpt>
      <trkpt lat="47.1762" lon="-1.60409">
        <ele>14.181</ele>
        <time>2009-03-15T08:12:20Z</time>
      </trkpt>
      <trkpt lat="47.17624" lon="-1.60412">
        <ele>14.176</ele>
        <time>2009-03-15T08:12:21Z</time>
      </trkpt>
      <trkpt lat="47.17636" lon="-1.60439">
        <ele>14.285</ele>
        <time>2009-03-15T08:12:26Z</time>
      </trkpt>
      <trkpt lat="47.17638" lon="-1.60446">
        <ele>14.298</ele>
        <time>2009-03-15T08:12:27Z</time>
      </trkpt>
      <trkpt lat="47.17643" lon="-1.60471">
        <ele>12.5</ele>
        <time>2009-03-15T08:12:30Z</time>
      </trkpt>
      <trkpt lat="47.17645" lon="-1.60479">
        <ele>11.712</ele>
        <time>2009-03-15T08:12:31Z</time>
      </trkpt>
      <trkpt lat="47.17647" lon="-1.60488">
        <ele>11.466</ele>
        <time>2009-03-15T08:12:32Z</time>
      </trkpt>
      <trkpt lat="47.17662" lon="-1.60545">
        <ele>9.344</ele>
        <time>2009-03-15T08:12:38Z</time>
      </trkpt>
      <trkpt lat="47.17674" lon="-1.60597">
        <ele>7.597</ele>
        <time>2009-03-15T08:12:43Z</time>
      </trkpt>
      <trkpt lat="47.17679" lon="-1.60617">
        <ele>6.35</ele>
        <time>2009-03-15T08:12:45Z</time>
      </trkpt>
      <trkpt lat="47.17701" lon="-1.60634">
        <ele>4.775</ele>
        <time>2009-03-15T08:12:50Z</time>
      </trkpt>
      <trkpt lat="47.17713" lon="-1.6063">
        <ele>4.785</ele>
        <time>2009-03-15T08:12:52Z</time>
      </trkpt>
      <trkpt lat="47.17736" lon="-1.60635">
        <ele>4.363</ele>
        <time>2009-03-15T08:12:56Z</time>
      </trkpt>
      <trkpt lat="47.17759" lon="-1.60647">
        <ele>4.326</ele>
        <time>2009-03-15T08:13:00Z</time>
      </trkpt>
      <trkpt lat="47.17781" lon="-1.60682">
        <ele>2.9</ele>
        <time>2009-03-15T08:13:06Z</time>
      </trkpt>
      <trkpt lat="47.17801" lon="-1.60717">
        <ele>0.549</ele>
        <time>2009-03-15T08:13:11Z</time>
      </trkpt>
      <trkpt lat="47.1781" lon="-1.60767">
        <ele>-0.208</ele>
        <time>2009-03-15T08:13:20Z</time>
      </trkpt>
      <trkpt lat="47.17804" lon="-1.6079">
        <ele>-0.149</ele>
        <time>2009-03-15T08:13:24Z</time>
      </trkpt>
      <trkpt lat="47.17797" lon="-1.60809">
        <ele>-0.193</ele>
        <time>2009-03-15T08:13:27Z</time>
      </trkpt>
      <trkpt lat="47.17793" lon="-1.60814">
        <ele>-0.27</ele>
        <time>2009-03-15T08:13:28Z</time>
      </trkpt>
      <trkpt lat="47.17781" lon="-1.60827">
        <ele>-0.101</ele>
        <time>2009-03-15T08:13:31Z</time>
      </trkpt>
      <trkpt lat="47.17763" lon="-1.60836">
        <ele>0.579</ele>
        <time>2009-03-15T08:13:35Z</time>
      </trkpt>
      <trkpt lat="47.17754" lon="-1.60872">
        <ele>1.698</ele>
        <time>2009-03-15T08:13:42Z</time>
      </trkpt>
      <trkpt lat="47.17758" lon="-1.60887">
        <ele>1.673</ele>
        <time>2009-03-15T08:13:44Z</time>
      </trkpt>
      <trkpt lat="47.17758" lon="-1.60922">
        <ele>1.572</ele>
        <time>2009-03-15T08:13:51Z</time>
      </trkpt>
      <trkpt lat="47.1775" lon="-1.60926">
        <ele>1.582</ele>
        <time>2009-03-15T08:13:53Z</time>
      </trkpt>
      <trkpt lat="47.17739" lon="-1.60938">
        <ele>1.535</ele>
        <time>2009-03-15T08:13:56Z</time>
      </trkpt>
      <trkpt lat="47.17713" lon="-1.60959">
        <ele>1.803</ele>
        <time>2009-03-15T08:14:02Z</time>
      </trkpt>
      <trkpt lat="47.17672" lon="-1.60953">
        <ele>-0.392</ele>
        <time>2009-03-15T08:14:10Z</time>
      </trkpt>
      <trkpt lat="47.17659" lon="-1.60918">
        <ele>-0.666</ele>
        <time>2009-03-15T08:14:16Z</time>
      </trkpt>
      <trkpt lat="47.17616" lon="-1.60907">
        <ele>-0.745</ele>
        <time>2009-03-15T08:14:25Z</time>
      </trkpt>
      <trkpt lat="47.17579" lon="-1.60898">
        <ele>-0.895</ele>
        <time>2009-03-15T08:14:33Z</time>
      </trkpt>
      <trkpt lat="47.17541" lon="-1.60889">
        <ele>-0.916</ele>
        <time>2009-03-15T08:14:41Z</time>
      </trkpt>
      <trkpt lat="47.17527" lon="-1.60882">
        <ele>-0.858</ele>
        <time>2009-03-15T08:14:44Z</time>
      </trkpt>
      <trkpt lat="47.17513" lon="-1.60879">
        <ele>-0.858</ele>
        <time>2009-03-15T08:14:47Z</time>
      </trkpt>
      <trkpt lat="47.17504" lon="-1.60878">
        <ele>-0.746</ele>
        <time>2009-03-15T08:14:49Z</time>
      </trkpt>
      <trkpt lat="47.17488" lon="-1.60872">
        <ele>-1.008</ele>
        <time>2009-03-15T08:14:53Z</time>
      </trkpt>
      <trkpt lat="47.17445" lon="-1.60878">
        <ele>-0.797</ele>
        <time>2009-03-15T08:15:02Z</time>
      </trkpt>
      <trkpt lat="47.17427" lon="-1.60881">
        <ele>-0.451</ele>
        <time>2009-03-15T08:15:06Z</time>
      </trkpt>
      <trkpt lat="47.17411" lon="-1.60909">
        <ele>1.023</ele>
        <time>2009-03-15T08:15:12Z</time>
      </trkpt>
      <trkpt lat="47.1741" lon="-1.60915">
        <ele>1.384</ele>
        <time>2009-03-15T08:15:13Z</time>
      </trkpt>
      <trkpt lat="47.17409" lon="-1.60938">
        <ele>2.38</ele>
        <time>2009-03-15T08:15:17Z</time>
      </trkpt>
      <trkpt lat="47.17415" lon="-1.6096">
        <ele>3.805</ele>
        <time>2009-03-15T08:15:23Z</time>
      </trkpt>
      <trkpt lat="47.17416" lon="-1.60983">
        <ele>4.316</ele>
        <time>2009-03-15T08:15:28Z</time>
      </trkpt>
      <trkpt lat="47.1742" lon="-1.60993">
        <ele>4.413</ele>
        <time>2009-03-15T08:15:30Z</time>
      </trkpt>
      <trkpt lat="47.17422" lon="-1.6102">
        <ele>4.556</ele>
        <time>2009-03-15T08:15:34Z</time>
      </trkpt>
      <trkpt lat="47.17428" lon="-1.61053">
        <ele>5.758</ele>
        <time>2009-03-15T08:15:39Z</time>
      </trkpt>
      <trkpt lat="47.17452" lon="-1.61108">
        <ele>6.812</ele>
        <time>2009-03-15T08:15:50Z</time>
      </trkpt>
      <trkpt lat="47.17472" lon="-1.61156">
        <ele>8.469</ele>
        <time>2009-03-15T08:16:02Z</time>
      </trkpt>
      <trkpt lat="47.1749" lon="-1.61205">
        <ele>9.199</ele>
        <time>2009-03-15T08:16:11Z</time>
      </trkpt>
      <trkpt lat="47.17511" lon="-1.61248">
        <ele>9.2</ele>
        <time>2009-03-15T08:16:18Z</time>
      </trkpt>
      <trkpt lat="47.17525" lon="-1.61271">
        <ele>9.299</ele>
        <time>2009-03-15T08:16:22Z</time>
      </trkpt>
      <trkpt lat="47.17546" lon="-1.61287">
        <ele>9.411</ele>
        <time>2009-03-15T08:16:27Z</time>
      </trkpt>
      <trkpt lat="47.17561" lon="-1.61293">
        <ele>9.179</ele>
        <time>2009-03-15T08:16:30Z</time>
      </trkpt>
      <trkpt lat="47.17611" lon="-1.61305">
        <ele>8.479</ele>
        <time>2009-03-15T08:16:39Z</time>
      </trkpt>
      <trkpt lat="47.17647" lon="-1.61316">
        <ele>6.753</ele>
        <time>2009-03-15T08:16:45Z</time>
      </trkpt>
      <trkpt lat="47.17684" lon="-1.61327">
        <ele>5.573</ele>
        <time>2009-03-15T08:16:51Z</time>
      </trkpt>
      <trkpt lat="47.17705" lon="-1.61296">
        <ele>5.11</ele>
        <time>2009-03-15T08:16:57Z</time>
      </trkpt>
      <trkpt lat="47.17714" lon="-1.61229">
        <ele>4.515</ele>
        <time>2009-03-15T08:17:05Z</time>
      </trkpt>
      <trkpt lat="47.17721" lon="-1.61171">
        <ele>4.007</ele>
        <time>2009-03-15T08:17:14Z</time>
      </trkpt>
      <trkpt lat="47.17725" lon="-1.61137">
        <ele>3.713</ele>
        <time>2009-03-15T08:17:20Z</time>
      </trkpt>
      <trkpt lat="47.17725" lon="-1.61103">
        <ele>3.022</ele>
        <time>2009-03-15T08:17:27Z</time>
      </trkpt>
      <trkpt lat="47.17723" lon="-1.61093">
        <ele>2.589</ele>
        <time>2009-03-15T08:17:32Z</time>
      </trkpt>
      <trkpt lat="47.17726" lon="-1.61087">
        <ele>2.652</ele>
        <time>2009-03-15T08:18:26Z</time>
      </trkpt>
      <trkpt lat="47.17726" lon="-1.61084">
        <ele>2.656</ele>
        <time>2009-03-15T08:18:27Z</time>
      </trkpt>
      <trkpt lat="47.17727" lon="-1.6107">
        <ele>2.977</ele>
        <time>2009-03-15T08:18:30Z</time>
      </trkpt>
      <trkpt lat="47.1773" lon="-1.61045">
        <ele>2.649</ele>
        <time>2009-03-15T08:18:34Z</time>
      </trkpt>
      <trkpt lat="47.17739" lon="-1.61014">
        <ele>2.374</ele>
        <time>2009-03-15T08:18:39Z</time>
      </trkpt>
      <trkpt lat="47.17741" lon="-1.61008">
        <ele>2.215</ele>
        <time>2009-03-15T08:18:40Z</time>
      </trkpt>
      <trkpt lat="47.17776" lon="-1.60977">
        <ele>2.555</ele>
        <time>2009-03-15T08:18:49Z</time>
      </trkpt>
      <trkpt lat="47.17813" lon="-1.60945">
        <ele>1.622</ele>
        <time>2009-03-15T08:18:58Z</time>
      </trkpt>
      <trkpt lat="47.17847" lon="-1.6092">
        <ele>1.469</ele>
        <time>2009-03-15T08:19:06Z</time>
      </trkpt>
      <trkpt lat="47.17851" lon="-1.60917">
        <ele>1.433</ele>
        <time>2009-03-15T08:19:07Z</time>
      </trkpt>
      <trkpt lat="47.17881" lon="-1.60906">
        <ele>1.098</ele>
        <time>2009-03-15T08:19:14Z</time>
      </trkpt>
      <trkpt lat="47.17904" lon="-1.60915">
        <ele>0.588</ele>
        <time>2009-03-15T08:19:19Z</time>
      </trkpt>
      <trkpt lat="47.1792" lon="-1.60936">
        <ele>0.639</ele>
        <time>2009-03-15T08:19:23Z</time>
      </trkpt>
      <trkpt lat="47.17931" lon="-1.6095">
        <ele>0.704</ele>
        <time>2009-03-15T08:19:26Z</time>
      </trkpt>
      <trkpt lat="47.17964" lon="-1.60994">
        <ele>2.025</ele>
        <time>2009-03-15T08:19:36Z</time>
      </trkpt>
      <trkpt lat="47.17967" lon="-1.60998">
        <ele>2.128</ele>
        <time>2009-03-15T08:19:37Z</time>
      </trkpt>
      <trkpt lat="47.18004" lon="-1.61034">
        <ele>2.835</ele>
        <time>2009-03-15T08:19:47Z</time>
      </trkpt>
      <trkpt lat="47.18037" lon="-1.6106">
        <ele>2.908</ele>
        <time>2009-03-15T08:19:55Z</time>
      </trkpt>
      <trkpt lat="47.1806" lon="-1.61084">
        <ele>3.016</ele>
        <time>2009-03-15T08:20:01Z</time>
      </trkpt>
      <trkpt lat="47.18088" lon="-1.61131">
        <ele>2.33</ele>
        <time>2009-03-15T08:20:10Z</time>
      </trkpt>
      <trkpt lat="47.18113" lon="-1.61176">
        <ele>2.172</ele>
        <time>2009-03-15T08:20:19Z</time>
      </trkpt>
      <trkpt lat="47.18141" lon="-1.61215">
        <ele>2.065</ele>
        <time>2009-03-15T08:20:28Z</time>
      </trkpt>
      <trkpt lat="47.1817" lon="-1.61255">
        <ele>1.712</ele>
        <time>2009-03-15T08:20:37Z</time>
      </trkpt>
      <trkpt lat="47.18199" lon="-1.61289">
        <ele>1.736</ele>
        <time>2009-03-15T08:20:45Z</time>
      </trkpt>
      <trkpt lat="47.18234" lon="-1.61318">
        <ele>1.949</ele>
        <time>2009-03-15T08:20:54Z</time>
      </trkpt>
      <trkpt lat="47.18267" lon="-1.6134">
        <ele>2.002</ele>
        <time>2009-03-15T08:21:02Z</time>
      </trkpt>
      <trkpt lat="47.18304" lon="-1.61361">
        <ele>1.981</ele>
        <time>2009-03-15T08:21:11Z</time>
      </trkpt>
      <trkpt lat="47.18341" lon="-1.61378">
        <ele>2.439</ele>
        <time>2009-03-15T08:21:20Z</time>
      </trkpt>
      <trkpt lat="47.18379" lon="-1.61393">
        <ele>2.496</ele>
        <time>2009-03-15T08:21:29Z</time>
      </trkpt>
      <trkpt lat="47.18415" lon="-1.61391">
        <ele>2.733</ele>
        <time>2009-03-15T08:21:40Z</time>
      </trkpt>
      <trkpt lat="47.18424" lon="-1.6134">
        <ele>1.756</ele>
        <time>2009-03-15T08:21:52Z</time>
      </trkpt>
      <trkpt lat="47.18426" lon="-1.61323">
        <ele>1.335</ele>
        <time>2009-03-15T08:21:55Z</time>
      </trkpt>
      <trkpt lat="47.18437" lon="-1.61327">
        <ele>1.003</ele>
        <time>2009-03-15T08:22:03Z</time>
      </trkpt>
      <trkpt lat="47.18438" lon="-1.61336">
        <ele>0.9</ele>
        <time>2009-03-15T08:22:07Z</time>
      </trkpt>
      <trkpt lat="47.18437" lon="-1.61337">
        <ele>1.082</ele>
        <time>2009-03-15T08:22:42Z</time>
      </trkpt>
      <trkpt lat="47.18444" lon="-1.61393">
        <ele>1.297</ele>
        <time>2009-03-15T08:22:57Z</time>
      </trkpt>
      <trkpt lat="47.18448" lon="-1.61445">
        <ele>1.453</ele>
        <time>2009-03-15T08:23:06Z</time>
      </trkpt>
      <trkpt lat="47.18451" lon="-1.61485">
        <ele>1.737</ele>
        <time>2009-03-15T08:23:13Z</time>
      </trkpt>
      <trkpt lat="47.18452" lon="-1.61504">
        <ele>1.774</ele>
        <time>2009-03-15T08:23:16Z</time>
      </trkpt>
      <trkpt lat="47.18456" lon="-1.61563">
        <ele>2.022</ele>
        <time>2009-03-15T08:23:26Z</time>
      </trkpt>
      <trkpt lat="47.18459" lon="-1.61616">
        <ele>2.215</ele>
        <time>2009-03-15T08:23:35Z</time>
      </trkpt>
      <trkpt lat="47.18463" lon="-1.61675">
        <ele>1.966</ele>
        <time>2009-03-15T08:23:44Z</time>
      </trkpt>
      <trkpt lat="47.18466" lon="-1.61715">
        <ele>2.25</ele>
        <time>2009-03-15T08:23:49Z</time>
      </trkpt>
      <trkpt lat="47.18469" lon="-1.61765">
        <ele>2.23</ele>
        <time>2009-03-15T08:23:55Z</time>
      </trkpt>
      <trkpt lat="47.18475" lon="-1.61831">
        <ele>2.397</ele>
        <time>2009-03-15T08:24:03Z</time>
      </trkpt>
      <trkpt lat="47.18478" lon="-1.6189">
        <ele>2.027</ele>
        <time>2009-03-15T08:24:10Z</time>
      </trkpt>
      <trkpt lat="47.18482" lon="-1.61948">
        <ele>1.693</ele>
        <time>2009-03-15T08:24:17Z</time>
      </trkpt>
      <trkpt lat="47.18486" lon="-1.62006">
        <ele>1.513</ele>
        <time>2009-03-15T08:24:26Z</time>
      </trkpt>
      <trkpt lat="47.18486" lon="-1.62019">
        <ele>1.603</ele>
        <time>2009-03-15T08:24:28Z</time>
      </trkpt>
      <trkpt lat="47.18488" lon="-1.62033">
        <ele>1.529</ele>
        <time>2009-03-15T08:24:30Z</time>
      </trkpt>
      <trkpt lat="47.18491" lon="-1.62096">
        <ele>1.591</ele>
        <time>2009-03-15T08:24:39Z</time>
      </trkpt>
      <trkpt lat="47.18492" lon="-1.62151">
        <ele>1.746</ele>
        <time>2009-03-15T08:24:46Z</time>
      </trkpt>
      <trkpt lat="47.18493" lon="-1.62176">
        <ele>1.913</ele>
        <time>2009-03-15T08:24:49Z</time>
      </trkpt>
      <trkpt lat="47.18493" lon="-1.62234">
        <ele>1.62</ele>
        <time>2009-03-15T08:24:56Z</time>
      </trkpt>
      <trkpt lat="47.18493" lon="-1.62265">
        <ele>1.852</ele>
        <time>2009-03-15T08:25:00Z</time>
      </trkpt>
      <trkpt lat="47.18495" lon="-1.62289">
        <ele>1.617</ele>
        <time>2009-03-15T08:25:03Z</time>
      </trkpt>
      <trkpt lat="47.1849" lon="-1.62328">
        <ele>1.254</ele>
        <time>2009-03-15T08:25:09Z</time>
      </trkpt>
      <trkpt lat="47.18489" lon="-1.62334">
        <ele>1.257</ele>
        <time>2009-03-15T08:25:10Z</time>
      </trkpt>
      <trkpt lat="47.18489" lon="-1.62346">
        <ele>1.232</ele>
        <time>2009-03-15T08:25:12Z</time>
      </trkpt>
      <trkpt lat="47.18485" lon="-1.62408">
        <ele>0.908</ele>
        <time>2009-03-15T08:25:21Z</time>
      </trkpt>
      <trkpt lat="47.18483" lon="-1.62461">
        <ele>1.29</ele>
        <time>2009-03-15T08:25:29Z</time>
      </trkpt>
      <trkpt lat="47.1848" lon="-1.62518">
        <ele>1.402</ele>
        <time>2009-03-15T08:25:37Z</time>
      </trkpt>
      <trkpt lat="47.18477" lon="-1.62573">
        <ele>1.113</ele>
        <time>2009-03-15T08:25:45Z</time>
      </trkpt>
      <trkpt lat="47.18474" lon="-1.6262">
        <ele>1.373</ele>
        <time>2009-03-15T08:25:53Z</time>
      </trkpt>
      <trkpt lat="47.18468" lon="-1.62654">
        <ele>1.337</ele>
        <time>2009-03-15T08:25:58Z</time>
      </trkpt>
      <trkpt lat="47.18462" lon="-1.62713">
        <ele>1.353</ele>
        <time>2009-03-15T08:26:07Z</time>
      </trkpt>
      <trkpt lat="47.18459" lon="-1.62766">
        <ele>1.243</ele>
        <time>2009-03-15T08:26:15Z</time>
      </trkpt>
      <trkpt lat="47.18459" lon="-1.62772">
        <ele>1.3</ele>
        <time>2009-03-15T08:26:16Z</time>
      </trkpt>
      <trkpt lat="47.18452" lon="-1.62834">
        <ele>1.349</ele>
        <time>2009-03-15T08:26:27Z</time>
      </trkpt>
      <trkpt lat="47.18451" lon="-1.6289">
        <ele>1.589</ele>
        <time>2009-03-15T08:26:37Z</time>
      </trkpt>
      <trkpt lat="47.18452" lon="-1.6292">
        <ele>1.648</ele>
        <time>2009-03-15T08:26:42Z</time>
      </trkpt>
      <trkpt lat="47.18461" lon="-1.62964">
        <ele>1.736</ele>
        <time>2009-03-15T08:26:48Z</time>
      </trkpt>
      <trkpt lat="47.18472" lon="-1.63">
        <ele>1.789</ele>
        <time>2009-03-15T08:26:53Z</time>
      </trkpt>
      <trkpt lat="47.18498" lon="-1.63046">
        <ele>1.571</ele>
        <time>2009-03-15T08:27:01Z</time>
      </trkpt>
      <trkpt lat="47.18529" lon="-1.63078">
        <ele>1.592</ele>
        <time>2009-03-15T08:27:09Z</time>
      </trkpt>
      <trkpt lat="47.18533" lon="-1.63081">
        <ele>1.442</ele>
        <time>2009-03-15T08:27:10Z</time>
      </trkpt>
      <trkpt lat="47.18535" lon="-1.63128">
        <ele>1.807</ele>
        <time>2009-03-15T08:27:20Z</time>
      </trkpt>
      <trkpt lat="47.18558" lon="-1.6316">
        <ele>1.498</ele>
        <time>2009-03-15T08:27:28Z</time>
      </trkpt>
      <trkpt lat="47.18567" lon="-1.63173">
        <ele>1.196</ele>
        <time>2009-03-15T08:27:31Z</time>
      </trkpt>
      <trkpt lat="47.18563" lon="-1.63227">
        <ele>1.009</ele>
        <time>2009-03-15T08:27:40Z</time>
      </trkpt>
      <trkpt lat="47.1858" lon="-1.63251">
        <ele>1.012</ele>
        <time>2009-03-15T08:27:45Z</time>
      </trkpt>
      <trkpt lat="47.18613" lon="-1.63301">
        <ele>1.339</ele>
        <time>2009-03-15T08:27:55Z</time>
      </trkpt>
      <trkpt lat="47.18636" lon="-1.63349">
        <ele>0.815</ele>
        <time>2009-03-15T08:28:03Z</time>
      </trkpt>
      <trkpt lat="47.18654" lon="-1.6339">
        <ele>0.618</ele>
        <time>2009-03-15T08:28:10Z</time>
      </trkpt>
      <trkpt lat="47.18669" lon="-1.6342">
        <ele>0.784</ele>
        <time>2009-03-15T08:28:16Z</time>
      </trkpt>
      <trkpt lat="47.18699" lon="-1.63464">
        <ele>0.885</ele>
        <time>2009-03-15T08:28:26Z</time>
      </trkpt>
      <trkpt lat="47.18712" lon="-1.63487">
        <ele>1.103</ele>
        <time>2009-03-15T08:28:31Z</time>
      </trkpt>
      <trkpt lat="47.18726" lon="-1.63515">
        <ele>1.098</ele>
        <time>2009-03-15T08:28:37Z</time>
      </trkpt>
      <trkpt lat="47.18745" lon="-1.63556">
        <ele>0.947</ele>
        <time>2009-03-15T08:28:45Z</time>
      </trkpt>
      <trkpt lat="47.18748" lon="-1.63568">
        <ele>0.928</ele>
        <time>2009-03-15T08:28:47Z</time>
      </trkpt>
      <trkpt lat="47.18769" lon="-1.6362">
        <ele>1.422</ele>
        <time>2009-03-15T08:28:56Z</time>
      </trkpt>
      <trkpt lat="47.18787" lon="-1.63667">
        <ele>1.337</ele>
        <time>2009-03-15T08:29:04Z</time>
      </trkpt>
      <trkpt lat="47.18804" lon="-1.63714">
        <ele>0.839</ele>
        <time>2009-03-15T08:29:12Z</time>
      </trkpt>
      <trkpt lat="47.18821" lon="-1.6376">
        <ele>0.653</ele>
        <time>2009-03-15T08:29:20Z</time>
      </trkpt>
      <trkpt lat="47.18839" lon="-1.63806">
        <ele>0.984</ele>
        <time>2009-03-15T08:29:28Z</time>
      </trkpt>
      <trkpt lat="47.1886" lon="-1.6385">
        <ele>0.539</ele>
        <time>2009-03-15T08:29:36Z</time>
      </trkpt>
      <trkpt lat="47.18888" lon="-1.63901">
        <ele>0.541</ele>
        <time>2009-03-15T08:29:45Z</time>
      </trkpt>
      <trkpt lat="47.18916" lon="-1.63945">
        <ele>0.972</ele>
        <time>2009-03-15T08:29:53Z</time>
      </trkpt>
      <trkpt lat="47.18944" lon="-1.63988">
        <ele>1.267</ele>
        <time>2009-03-15T08:30:01Z</time>
      </trkpt>
      <trkpt lat="47.18968" lon="-1.64029">
        <ele>1.173</ele>
        <time>2009-03-15T08:30:08Z</time>
      </trkpt>
      <trkpt lat="47.18994" lon="-1.64075">
        <ele>1.184</ele>
        <time>2009-03-15T08:30:16Z</time>
      </trkpt>
      <trkpt lat="47.1902" lon="-1.64117">
        <ele>1.181</ele>
        <time>2009-03-15T08:30:24Z</time>
      </trkpt>
      <trkpt lat="47.19033" lon="-1.64137">
        <ele>1.168</ele>
        <time>2009-03-15T08:30:28Z</time>
      </trkpt>
      <trkpt lat="47.19057" lon="-1.64185">
        <ele>0.9</ele>
        <time>2009-03-15T08:30:38Z</time>
      </trkpt>
      <trkpt lat="47.19045" lon="-1.64247">
        <ele>0.358</ele>
        <time>2009-03-15T08:30:48Z</time>
      </trkpt>
      <trkpt lat="47.19037" lon="-1.64302">
        <ele>1.46</ele>
        <time>2009-03-15T08:30:58Z</time>
      </trkpt>
      <trkpt lat="47.19037" lon="-1.64306">
        <ele>1.185</ele>
        <time>2009-03-15T08:30:59Z</time>
      </trkpt>
      <trkpt lat="47.19048" lon="-1.64314">
        <ele>1.606</ele>
        <time>2009-03-15T08:31:06Z</time>
      </trkpt>
      <trkpt lat="47.19063" lon="-1.64316">
        <ele>2.086</ele>
        <time>2009-03-15T08:31:10Z</time>
      </trkpt>
      <trkpt lat="47.19069" lon="-1.64334">
        <ele>2.163</ele>
        <time>2009-03-15T08:31:14Z</time>
      </trkpt>
      <trkpt lat="47.19066" lon="-1.64364">
        <ele>2.187</ele>
        <time>2009-03-15T08:31:18Z</time>
      </trkpt>
      <trkpt lat="47.19065" lon="-1.64373">
        <ele>1.838</ele>
        <time>2009-03-15T08:31:19Z</time>
      </trkpt>
      <trkpt lat="47.19063" lon="-1.64389">
        <ele>1.894</ele>
        <time>2009-03-15T08:31:21Z</time>
      </trkpt>
      <trkpt lat="47.19055" lon="-1.64417">
        <ele>2.213</ele>
        <time>2009-03-15T08:31:25Z</time>
      </trkpt>
      <trkpt lat="47.19029" lon="-1.64422">
        <ele>2.101</ele>
        <time>2009-03-15T08:31:31Z</time>
      </trkpt>
      <trkpt lat="47.19009" lon="-1.64443">
        <ele>3.927</ele>
        <time>2009-03-15T08:31:37Z</time>
      </trkpt>
      <trkpt lat="47.19006" lon="-1.64454">
        <ele>3.994</ele>
        <time>2009-03-15T08:31:39Z</time>
      </trkpt>
      <trkpt lat="47.19002" lon="-1.64478">
        <ele>4.113</ele>
        <time>2009-03-15T08:31:43Z</time>
      </trkpt>
      <trkpt lat="47.18998" lon="-1.64517">
        <ele>4.177</ele>
        <time>2009-03-15T08:31:49Z</time>
      </trkpt>
      <trkpt lat="47.19" lon="-1.64544">
        <ele>4.528</ele>
        <time>2009-03-15T08:31:53Z</time>
      </trkpt>
      <trkpt lat="47.19001" lon="-1.64557">
        <ele>4.126</ele>
        <time>2009-03-15T08:31:55Z</time>
      </trkpt>
      <trkpt lat="47.19002" lon="-1.6457">
        <ele>3.835</ele>
        <time>2009-03-15T08:31:57Z</time>
      </trkpt>
      <trkpt lat="47.19005" lon="-1.64605">
        <ele>3.858</ele>
        <time>2009-03-15T08:32:02Z</time>
      </trkpt>
      <trkpt lat="47.19015" lon="-1.64641">
        <ele>3.011</ele>
        <time>2009-03-15T08:32:08Z</time>
      </trkpt>
      <trkpt lat="47.19011" lon="-1.64681">
        <ele>1.436</ele>
        <time>2009-03-15T08:32:14Z</time>
      </trkpt>
      <trkpt lat="47.1902" lon="-1.64751">
        <ele>0.168</ele>
        <time>2009-03-15T08:32:23Z</time>
      </trkpt>
      <trkpt lat="47.19022" lon="-1.64767">
        <ele>0.344</ele>
        <time>2009-03-15T08:32:25Z</time>
      </trkpt>
      <trkpt lat="47.19023" lon="-1.64822">
        <ele>-0.236</ele>
        <time>2009-03-15T08:32:32Z</time>
      </trkpt>
      <trkpt lat="47.19019" lon="-1.64883">
        <ele>0.071</ele>
        <time>2009-03-15T08:32:40Z</time>
      </trkpt>
      <trkpt lat="47.19009" lon="-1.64938">
        <ele>2.575</ele>
        <time>2009-03-15T08:32:49Z</time>
      </trkpt>
      <trkpt lat="47.19006" lon="-1.64958">
        <ele>1.684</ele>
        <time>2009-03-15T08:32:57Z</time>
      </trkpt>
      <trkpt lat="47.19003" lon="-1.64957">
        <ele>2.094</ele>
        <time>2009-03-15T08:36:04Z</time>
      </trkpt>
      <trkpt lat="47.19003" lon="-1.64957">
        <ele>2.083</ele>
        <time>2009-03-15T08:36:05Z</time>
      </trkpt>
      <trkpt lat="47.19002" lon="-1.6497">
        <ele>1.828</ele>
        <time>2009-03-15T08:36:09Z</time>
      </trkpt>
      <trkpt lat="47.19002" lon="-1.64975">
        <ele>1.479</ele>
        <time>2009-03-15T08:36:10Z</time>
      </trkpt>
      <trkpt lat="47.19002" lon="-1.65001">
        <ele>0.7</ele>
        <time>2009-03-15T08:36:14Z</time>
      </trkpt>
      <trkpt lat="47.19007" lon="-1.65027">
        <ele>0.587</ele>
        <time>2009-03-15T08:36:18Z</time>
      </trkpt>
      <trkpt lat="47.19016" lon="-1.65045">
        <ele>0.241</ele>
        <time>2009-03-15T08:36:21Z</time>
      </trkpt>
      <trkpt lat="47.19022" lon="-1.65072">
        <ele>0.211</ele>
        <time>2009-03-15T08:36:25Z</time>
      </trkpt>
      <trkpt lat="47.19018" lon="-1.65116">
        <ele>0.063</ele>
        <time>2009-03-15T08:36:31Z</time>
      </trkpt>
      <trkpt lat="47.19011" lon="-1.65133">
        <ele>0.246</ele>
        <time>2009-03-15T08:36:34Z</time>
      </trkpt>
      <trkpt lat="47.19012" lon="-1.65164">
        <ele>0.21</ele>
        <time>2009-03-15T08:36:39Z</time>
      </trkpt>
      <trkpt lat="47.19013" lon="-1.65193">
        <ele>0.36</ele>
        <time>2009-03-15T08:36:43Z</time>
      </trkpt>
      <trkpt lat="47.19022" lon="-1.65239">
        <ele>0.644</ele>
        <time>2009-03-15T08:36:50Z</time>
      </trkpt>
      <trkpt lat="47.19014" lon="-1.65261">
        <ele>1.785</ele>
        <time>2009-03-15T08:36:55Z</time>
      </trkpt>
      <trkpt lat="47.19008" lon="-1.65265">
        <ele>2.3</ele>
        <time>2009-03-15T08:36:57Z</time>
      </trkpt>
      <trkpt lat="47.18989" lon="-1.65271">
        <ele>2.815</ele>
        <time>2009-03-15T08:37:03Z</time>
      </trkpt>
      <trkpt lat="47.18964" lon="-1.65267">
        <ele>1.401</ele>
        <time>2009-03-15T08:37:07Z</time>
      </trkpt>
      <trkpt lat="47.18932" lon="-1.65254">
        <ele>1.546</ele>
        <time>2009-03-15T08:37:12Z</time>
      </trkpt>
      <trkpt lat="47.18915" lon="-1.65246">
        <ele>1.295</ele>
        <time>2009-03-15T08:37:15Z</time>
      </trkpt>
      <trkpt lat="47.18881" lon="-1.65226">
        <ele>1.352</ele>
        <time>2009-03-15T08:37:21Z</time>
      </trkpt>
      <trkpt lat="47.18844" lon="-1.65202">
        <ele>1.221</ele>
        <time>2009-03-15T08:37:28Z</time>
      </trkpt>
      <trkpt lat="47.18833" lon="-1.65194">
        <ele>1.276</ele>
        <time>2009-03-15T08:37:30Z</time>
      </trkpt>
      <trkpt lat="47.18794" lon="-1.65161">
        <ele>1.313</ele>
        <time>2009-03-15T08:37:38Z</time>
      </trkpt>
      <trkpt lat="47.18789" lon="-1.65157">
        <ele>1.395</ele>
        <time>2009-03-15T08:37:39Z</time>
      </trkpt>
      <trkpt lat="47.18775" lon="-1.65144">
        <ele>1.616</ele>
        <time>2009-03-15T08:37:42Z</time>
      </trkpt>
      <trkpt lat="47.18731" lon="-1.65121">
        <ele>1.093</ele>
        <time>2009-03-15T08:37:50Z</time>
      </trkpt>
      <trkpt lat="47.18692" lon="-1.65104">
        <ele>1.063</ele>
        <time>2009-03-15T08:37:57Z</time>
      </trkpt>
      <trkpt lat="47.18654" lon="-1.65087">
        <ele>0.97</ele>
        <time>2009-03-15T08:38:04Z</time>
      </trkpt>
      <trkpt lat="47.18616" lon="-1.65074">
        <ele>1.158</ele>
        <time>2009-03-15T08:38:11Z</time>
      </trkpt>
      <trkpt lat="47.18595" lon="-1.65066">
        <ele>1.085</ele>
        <time>2009-03-15T08:38:15Z</time>
      </trkpt>
      <trkpt lat="47.18567" lon="-1.65053">
        <ele>1.071</ele>
        <time>2009-03-15T08:38:21Z</time>
      </trkpt>
      <trkpt lat="47.18553" lon="-1.65039">
        <ele>0.916</ele>
        <time>2009-03-15T08:38:24Z</time>
      </trkpt>
      <trkpt lat="47.18524" lon="-1.65016">
        <ele>1.032</ele>
        <time>2009-03-15T08:38:30Z</time>
      </trkpt>
      <trkpt lat="47.18515" lon="-1.65006">
        <ele>1.217</ele>
        <time>2009-03-15T08:38:32Z</time>
      </trkpt>
      <trkpt lat="47.18493" lon="-1.64987">
        <ele>1.235</ele>
        <time>2009-03-15T08:38:37Z</time>
      </trkpt>
      <trkpt lat="47.1847" lon="-1.64965">
        <ele>1.099</ele>
        <time>2009-03-15T08:38:42Z</time>
      </trkpt>
      <trkpt lat="47.18454" lon="-1.64947">
        <ele>1.383</ele>
        <time>2009-03-15T08:38:46Z</time>
      </trkpt>
      <trkpt lat="47.18434" lon="-1.64915">
        <ele>1.792</ele>
        <time>2009-03-15T08:38:53Z</time>
      </trkpt>
      <trkpt lat="47.1843" lon="-1.64893">
        <ele>1.559</ele>
        <time>2009-03-15T08:38:57Z</time>
      </trkpt>
      <trkpt lat="47.18426" lon="-1.64839">
        <ele>0.97</ele>
        <time>2009-03-15T08:39:07Z</time>
      </trkpt>
      <trkpt lat="47.18417" lon="-1.64814">
        <ele>1.166</ele>
        <time>2009-03-15T08:39:12Z</time>
      </trkpt>
      <trkpt lat="47.18394" lon="-1.64766">
        <ele>1.259</ele>
        <time>2009-03-15T08:39:21Z</time>
      </trkpt>
      <trkpt lat="47.18385" lon="-1.64753">
        <ele>1.289</ele>
        <time>2009-03-15T08:39:24Z</time>
      </trkpt>
      <trkpt lat="47.18374" lon="-1.64717">
        <ele>0.966</ele>
        <time>2009-03-15T08:39:32Z</time>
      </trkpt>
      <trkpt lat="47.18366" lon="-1.64707">
        <ele>1.155</ele>
        <time>2009-03-15T08:40:02Z</time>
      </trkpt>
      <trkpt lat="47.18365" lon="-1.64706">
        <ele>1.173</ele>
        <time>2009-03-15T08:40:03Z</time>
      </trkpt>
      <trkpt lat="47.1836" lon="-1.64698">
        <ele>0.898</ele>
        <time>2009-03-15T08:40:16Z</time>
      </trkpt>
      <trkpt lat="47.18359" lon="-1.64693">
        <ele>1.063</ele>
        <time>2009-03-15T08:40:34Z</time>
      </trkpt>
      <trkpt lat="47.18359" lon="-1.64692">
        <ele>1.049</ele>
        <time>2009-03-15T08:40:38Z</time>
      </trkpt>
      <trkpt lat="47.18347" lon="-1.64689">
        <ele>1.524</ele>
        <time>2009-03-15T08:40:43Z</time>
      </trkpt>
      <trkpt lat="47.18325" lon="-1.64687">
        <ele>2.503</ele>
        <time>2009-03-15T08:40:52Z</time>
      </trkpt>
      <trkpt lat="47.18323" lon="-1.64683">
        <ele>3.765</ele>
        <time>2009-03-15T08:40:56Z</time>
      </trkpt>
      <trkpt lat="47.18321" lon="-1.64678">
        <ele>5.161</ele>
        <time>2009-03-15T08:41:01Z</time>
      </trkpt>
      <trkpt lat="47.1832" lon="-1.64677">
        <ele>5.879</ele>
        <time>2009-03-15T08:41:03Z</time>
      </trkpt>
      <trkpt lat="47.18319" lon="-1.64677">
        <ele>6.045</ele>
        <time>2009-03-15T08:41:04Z</time>
      </trkpt>
      <trkpt lat="47.18317" lon="-1.64684">
        <ele>7.063</ele>
        <time>2009-03-15T08:41:10Z</time>
      </trkpt>
      <trkpt lat="47.18318" lon="-1.64692">
        <ele>7.287</ele>
        <time>2009-03-15T08:41:15Z</time>
      </trkpt>
      <trkpt lat="47.18316" lon="-1.64695">
        <ele>8.597</ele>
        <time>2009-03-15T08:41:22Z</time>
      </trkpt>
      <trkpt lat="47.18314" lon="-1.64688">
        <ele>9.697</ele>
        <time>2009-03-15T08:41:27Z</time>
      </trkpt>
      <trkpt lat="47.18306" lon="-1.64679">
        <ele>12.842</ele>
        <time>2009-03-15T08:41:44Z</time>
      </trkpt>
      <trkpt lat="47.18306" lon="-1.64684">
        <ele>14.37</ele>
        <time>2009-03-15T08:41:48Z</time>
      </trkpt>
      <trkpt lat="47.18305" lon="-1.64685">
        <ele>14.645</ele>
        <time>2009-03-15T08:41:49Z</time>
      </trkpt>
      <trkpt lat="47.183" lon="-1.64686">
        <ele>17.554</ele>
        <time>2009-03-15T08:41:59Z</time>
      </trkpt>
      <trkpt lat="47.18284" lon="-1.6468">
        <ele>23.937</ele>
        <time>2009-03-15T08:42:24Z</time>
      </trkpt>
      <trkpt lat="47.1828" lon="-1.64681">
        <ele>25.167</ele>
        <time>2009-03-15T08:42:29Z</time>
      </trkpt>
      <trkpt lat="47.18278" lon="-1.64682">
        <ele>25.851</ele>
        <time>2009-03-15T08:42:31Z</time>
      </trkpt>
      <trkpt lat="47.18276" lon="-1.6468">
        <ele>26.285</ele>
        <time>2009-03-15T08:42:34Z</time>
      </trkpt>
      <trkpt lat="47.18274" lon="-1.64675">
        <ele>26.687</ele>
        <time>2009-03-15T08:42:40Z</time>
      </trkpt>
      <trkpt lat="47.18265" lon="-1.64621">
        <ele>27.463</ele>
        <time>2009-03-15T08:42:57Z</time>
      </trkpt>
      <trkpt lat="47.18258" lon="-1.64565">
        <ele>27.894</ele>
        <time>2009-03-15T08:43:08Z</time>
      </trkpt>
      <trkpt lat="47.18249" lon="-1.64514">
        <ele>27.896</ele>
        <time>2009-03-15T08:43:18Z</time>
      </trkpt>
      <trkpt lat="47.18237" lon="-1.64465">
        <ele>28.935</ele>
        <time>2009-03-15T08:43:29Z</time>
      </trkpt>
      <trkpt lat="47.18226" lon="-1.64411">
        <ele>29.272</ele>
        <time>2009-03-15T08:43:39Z</time>
      </trkpt>
      <trkpt lat="47.18217" lon="-1.64394">
        <ele>29.367</ele>
        <time>2009-03-15T08:43:44Z</time>
      </trkpt>
      <trkpt lat="47.18222" lon="-1.64368">
        <ele>26.447</ele>
        <time>2009-03-15T08:43:53Z</time>
      </trkpt>
      <trkpt lat="47.18211" lon="-1.64345">
        <ele>27.188</ele>
        <time>2009-03-15T08:44:01Z</time>
      </trkpt>
      <trkpt lat="47.18199" lon="-1.64345">
        <ele>29.157</ele>
        <time>2009-03-15T08:44:06Z</time>
      </trkpt>
      <trkpt lat="47.18196" lon="-1.64341">
        <ele>29.153</ele>
        <time>2009-03-15T08:44:12Z</time>
      </trkpt>
      <trkpt lat="47.18191" lon="-1.64328">
        <ele>28.938</ele>
        <time>2009-03-15T08:44:16Z</time>
      </trkpt>
      <trkpt lat="47.18186" lon="-1.6431">
        <ele>28.441</ele>
        <time>2009-03-15T08:44:19Z</time>
      </trkpt>
      <trkpt lat="47.18179" lon="-1.64283">
        <ele>27.671</ele>
        <time>2009-03-15T08:44:23Z</time>
      </trkpt>
      <trkpt lat="47.18161" lon="-1.64223">
        <ele>26.945</ele>
        <time>2009-03-15T08:44:32Z</time>
      </trkpt>
      <trkpt lat="47.18152" lon="-1.64181">
        <ele>25.083</ele>
        <time>2009-03-15T08:44:38Z</time>
      </trkpt>
      <trkpt lat="47.18144" lon="-1.6415">
        <ele>22.483</ele>
        <time>2009-03-15T08:44:43Z</time>
      </trkpt>
      <trkpt lat="47.1814" lon="-1.64136">
        <ele>21.902</ele>
        <time>2009-03-15T08:44:45Z</time>
      </trkpt>
      <trkpt lat="47.18134" lon="-1.64112">
        <ele>19.139</ele>
        <time>2009-03-15T08:44:50Z</time>
      </trkpt>
      <trkpt lat="47.18114" lon="-1.641">
        <ele>19.726</ele>
        <time>2009-03-15T08:44:55Z</time>
      </trkpt>
      <trkpt lat="47.18109" lon="-1.64096">
        <ele>20.354</ele>
        <time>2009-03-15T08:44:57Z</time>
      </trkpt>
      <trkpt lat="47.18099" lon="-1.64043">
        <ele>19.307</ele>
        <time>2009-03-15T08:45:12Z</time>
      </trkpt>
      <trkpt lat="47.18096" lon="-1.64027">
        <ele>18.942</ele>
        <time>2009-03-15T08:45:15Z</time>
      </trkpt>
      <trkpt lat="47.18077" lon="-1.63984">
        <ele>17.816</ele>
        <time>2009-03-15T08:45:23Z</time>
      </trkpt>
      <trkpt lat="47.18062" lon="-1.63936">
        <ele>17.026</ele>
        <time>2009-03-15T08:45:31Z</time>
      </trkpt>
      <trkpt lat="47.1804" lon="-1.63885">
        <ele>16.504</ele>
        <time>2009-03-15T08:45:40Z</time>
      </trkpt>
      <trkpt lat="47.18035" lon="-1.63874">
        <ele>16.24</ele>
        <time>2009-03-15T08:45:42Z</time>
      </trkpt>
      <trkpt lat="47.18029" lon="-1.63863">
        <ele>16.255</ele>
        <time>2009-03-15T08:45:44Z</time>
      </trkpt>
      <trkpt lat="47.18004" lon="-1.6383">
        <ele>15.244</ele>
        <time>2009-03-15T08:45:51Z</time>
      </trkpt>
      <trkpt lat="47.17989" lon="-1.63791">
        <ele>11.644</ele>
        <time>2009-03-15T08:45:56Z</time>
      </trkpt>
      <trkpt lat="47.17985" lon="-1.63773">
        <ele>9.971</ele>
        <time>2009-03-15T08:45:59Z</time>
      </trkpt>
      <trkpt lat="47.17978" lon="-1.63748">
        <ele>6.604</ele>
        <time>2009-03-15T08:46:04Z</time>
      </trkpt>
      <trkpt lat="47.17967" lon="-1.63724">
        <ele>4.469</ele>
        <time>2009-03-15T08:46:07Z</time>
      </trkpt>
      <trkpt lat="47.1795" lon="-1.63692">
        <ele>2.806</ele>
        <time>2009-03-15T08:46:11Z</time>
      </trkpt>
      <trkpt lat="47.17942" lon="-1.63676">
        <ele>2.597</ele>
        <time>2009-03-15T08:46:13Z</time>
      </trkpt>
      <trkpt lat="47.17912" lon="-1.63624">
        <ele>1.824</ele>
        <time>2009-03-15T08:46:20Z</time>
      </trkpt>
      <trkpt lat="47.17889" lon="-1.63582">
        <ele>2.043</ele>
        <time>2009-03-15T08:46:26Z</time>
      </trkpt>
      <trkpt lat="47.17874" lon="-1.63553">
        <ele>1.876</ele>
        <time>2009-03-15T08:46:30Z</time>
      </trkpt>
      <trkpt lat="47.17853" lon="-1.63523">
        <ele>2.533</ele>
        <time>2009-03-15T08:46:36Z</time>
      </trkpt>
      <trkpt lat="47.17854" lon="-1.63501">
        <ele>2.994</ele>
        <time>2009-03-15T08:46:45Z</time>
      </trkpt>
      <trkpt lat="47.17856" lon="-1.63466">
        <ele>3.468</ele>
        <time>2009-03-15T08:46:53Z</time>
      </trkpt>
      <trkpt lat="47.17842" lon="-1.6346">
        <ele>4.768</ele>
        <time>2009-03-15T08:46:58Z</time>
      </trkpt>
      <trkpt lat="47.17824" lon="-1.63457">
        <ele>6.042</ele>
        <time>2009-03-15T08:47:03Z</time>
      </trkpt>
      <trkpt lat="47.17809" lon="-1.63445">
        <ele>6.6</ele>
        <time>2009-03-15T08:47:07Z</time>
      </trkpt>
      <trkpt lat="47.178" lon="-1.63434">
        <ele>6.998</ele>
        <time>2009-03-15T08:47:10Z</time>
      </trkpt>
      <trkpt lat="47.17764" lon="-1.63408">
        <ele>8.633</ele>
        <time>2009-03-15T08:47:20Z</time>
      </trkpt>
      <trkpt lat="47.17753" lon="-1.63424">
        <ele>9.155</ele>
        <time>2009-03-15T08:47:29Z</time>
      </trkpt>
      <trkpt lat="47.17741" lon="-1.63479">
        <ele>10.498</ele>
        <time>2009-03-15T08:47:40Z</time>
      </trkpt>
      <trkpt lat="47.17709" lon="-1.63503">
        <ele>13.183</ele>
        <time>2009-03-15T08:47:50Z</time>
      </trkpt>
      <trkpt lat="47.17679" lon="-1.63536">
        <ele>17.295</ele>
        <time>2009-03-15T08:48:03Z</time>
      </trkpt>
      <trkpt lat="47.17668" lon="-1.6355">
        <ele>18.166</ele>
        <time>2009-03-15T08:48:09Z</time>
      </trkpt>
      <trkpt lat="47.17671" lon="-1.6356">
        <ele>17.904</ele>
        <time>2009-03-15T08:48:14Z</time>
      </trkpt>
      <trkpt lat="47.17673" lon="-1.63566">
        <ele>17.996</ele>
        <time>2009-03-15T08:48:16Z</time>
      </trkpt>
      <trkpt lat="47.17683" lon="-1.63598">
        <ele>15.505</ele>
        <time>2009-03-15T08:48:27Z</time>
      </trkpt>
      <trkpt lat="47.17683" lon="-1.63606">
        <ele>15.177</ele>
        <time>2009-03-15T08:48:29Z</time>
      </trkpt>
      <trkpt lat="47.17678" lon="-1.63623">
        <ele>15.061</ele>
        <time>2009-03-15T08:48:34Z</time>
      </trkpt>
      <trkpt lat="47.17677" lon="-1.63635">
        <ele>13.736</ele>
        <time>2009-03-15T08:48:39Z</time>
      </trkpt>
      <trkpt lat="47.17678" lon="-1.63638">
        <ele>13.313</ele>
        <time>2009-03-15T08:48:41Z</time>
      </trkpt>
      <trkpt lat="47.17685" lon="-1.63644">
        <ele>10.647</ele>
        <time>2009-03-15T08:48:46Z</time>
      </trkpt>
      <trkpt lat="47.17686" lon="-1.63645">
        <ele>10.222</ele>
        <time>2009-03-15T08:48:47Z</time>
      </trkpt>
      <trkpt lat="47.17691" lon="-1.63655">
        <ele>7.242</ele>
        <time>2009-03-15T08:48:50Z</time>
      </trkpt>
      <trkpt lat="47.17692" lon="-1.63663">
        <ele>6.442</ele>
        <time>2009-03-15T08:48:52Z</time>
      </trkpt>
      <trkpt lat="47.17691" lon="-1.63686">
        <ele>6.432</ele>
        <time>2009-03-15T08:48:59Z</time>
      </trkpt>
      <trkpt lat="47.1768" lon="-1.63736">
        <ele>6.467</ele>
        <time>2009-03-15T08:49:13Z</time>
      </trkpt>
      <trkpt lat="47.17661" lon="-1.63767">
        <ele>8.369</ele>
        <time>2009-03-15T08:49:48Z</time>
      </trkpt>
      <trkpt lat="47.17651" lon="-1.63778">
        <ele>9.985</ele>
        <time>2009-03-15T08:49:54Z</time>
      </trkpt>
      <trkpt lat="47.17645" lon="-1.63793">
        <ele>9.702</ele>
        <time>2009-03-15T08:49:59Z</time>
      </trkpt>
      <trkpt lat="47.17639" lon="-1.638">
        <ele>9.76</ele>
        <time>2009-03-15T08:50:02Z</time>
      </trkpt>
      <trkpt lat="47.1763" lon="-1.63805">
        <ele>10.221</ele>
        <time>2009-03-15T08:50:06Z</time>
      </trkpt>
      <trkpt lat="47.17617" lon="-1.63798">
        <ele>13.545</ele>
        <time>2009-03-15T08:50:21Z</time>
      </trkpt>
      <trkpt lat="47.17605" lon="-1.63769">
        <ele>19.09</ele>
        <time>2009-03-15T08:50:43Z</time>
      </trkpt>
      <trkpt lat="47.17578" lon="-1.63731">
        <ele>23.138</ele>
        <time>2009-03-15T08:51:00Z</time>
      </trkpt>
      <trkpt lat="47.17576" lon="-1.6373">
        <ele>23.253</ele>
        <time>2009-03-15T08:51:01Z</time>
      </trkpt>
      <trkpt lat="47.1755" lon="-1.63761">
        <ele>22.452</ele>
        <time>2009-03-15T08:51:12Z</time>
      </trkpt>
      <trkpt lat="47.17541" lon="-1.63771">
        <ele>22.158</ele>
        <time>2009-03-15T08:51:15Z</time>
      </trkpt>
      <trkpt lat="47.17508" lon="-1.63809">
        <ele>22.942</ele>
        <time>2009-03-15T08:51:26Z</time>
      </trkpt>
      <trkpt lat="47.17483" lon="-1.63848">
        <ele>23.063</ele>
        <time>2009-03-15T08:51:36Z</time>
      </trkpt>
      <trkpt lat="47.17463" lon="-1.63894">
        <ele>21.925</ele>
        <time>2009-03-15T08:51:47Z</time>
      </trkpt>
      <trkpt lat="47.1746" lon="-1.63897">
        <ele>21.918</ele>
        <time>2009-03-15T08:52:01Z</time>
      </trkpt>
      <trkpt lat="47.1746" lon="-1.63897">
        <ele>22.142</ele>
        <time>2009-03-15T08:52:12Z</time>
      </trkpt>
      <trkpt lat="47.1746" lon="-1.63897">
        <ele>22.337</ele>
        <time>2009-03-15T08:52:22Z</time>
      </trkpt>
      <trkpt lat="47.1746" lon="-1.63897">
        <ele>22.104</ele>
        <time>2009-03-15T08:52:26Z</time>
      </trkpt>
      <trkpt lat="47.1746" lon="-1.63897">
        <ele>22.235</ele>
        <time>2009-03-15T08:52:36Z</time>
      </trkpt>
      <trkpt lat="47.17461" lon="-1.63897">
        <ele>22.365</ele>
        <time>2009-03-15T08:52:42Z</time>
      </trkpt>
      <trkpt lat="47.17462" lon="-1.63899">
        <ele>22.239</ele>
        <time>2009-03-15T08:52:57Z</time>
      </trkpt>
      <trkpt lat="47.17462" lon="-1.63899">
        <ele>22.324</ele>
        <time>2009-03-15T08:53:03Z</time>
      </trkpt>
      <trkpt lat="47.17462" lon="-1.63901">
        <ele>22.211</ele>
        <time>2009-03-15T08:53:20Z</time>
      </trkpt>
      <trkpt lat="47.17462" lon="-1.63901">
        <ele>22.266</ele>
        <time>2009-03-15T08:53:24Z</time>
      </trkpt>
      <trkpt lat="47.17461" lon="-1.63902">
        <ele>22.927</ele>
        <time>2009-03-15T08:56:50Z</time>
      </trkpt>
      <trkpt lat="47.17461" lon="-1.63902">
        <ele>22.912</ele>
        <time>2009-03-15T08:56:51Z</time>
      </trkpt>
      <trkpt lat="47.17461" lon="-1.63903">
        <ele>22.919</ele>
        <time>2009-03-15T08:56:53Z</time>
      </trkpt>
      <trkpt lat="47.17465" lon="-1.63923">
        <ele>21.96</ele>
        <time>2009-03-15T08:57:00Z</time>
      </trkpt>
      <trkpt lat="47.17465" lon="-1.63965">
        <ele>19.231</ele>
        <time>2009-03-15T08:57:08Z</time>
      </trkpt>
      <trkpt lat="47.17465" lon="-1.63971">
        <ele>18.806</ele>
        <time>2009-03-15T08:57:09Z</time>
      </trkpt>
      <trkpt lat="47.17468" lon="-1.64003">
        <ele>16.971</ele>
        <time>2009-03-15T08:57:13Z</time>
      </trkpt>
      <trkpt lat="47.17483" lon="-1.64058">
        <ele>17.467</ele>
        <time>2009-03-15T08:57:23Z</time>
      </trkpt>
      <trkpt lat="47.17483" lon="-1.64081">
        <ele>17.924</ele>
        <time>2009-03-15T08:57:27Z</time>
      </trkpt>
      <trkpt lat="47.17484" lon="-1.64086">
        <ele>18.086</ele>
        <time>2009-03-15T08:57:28Z</time>
      </trkpt>
      <trkpt lat="47.17494" lon="-1.64101">
        <ele>19.207</ele>
        <time>2009-03-15T08:57:32Z</time>
      </trkpt>
      <trkpt lat="47.17504" lon="-1.64112">
        <ele>20.662</ele>
        <time>2009-03-15T08:57:36Z</time>
      </trkpt>
      <trkpt lat="47.17516" lon="-1.64123">
        <ele>22.396</ele>
        <time>2009-03-15T08:57:41Z</time>
      </trkpt>
      <trkpt lat="47.17526" lon="-1.6413">
        <ele>23.796</ele>
        <time>2009-03-15T08:57:45Z</time>
      </trkpt>
      <trkpt lat="47.17553" lon="-1.64158">
        <ele>27.618</ele>
        <time>2009-03-15T08:57:58Z</time>
      </trkpt>
      <trkpt lat="47.17564" lon="-1.6417">
        <ele>28.382</ele>
        <time>2009-03-15T08:58:03Z</time>
      </trkpt>
      <trkpt lat="47.17592" lon="-1.64207">
        <ele>29.613</ele>
        <time>2009-03-15T08:58:17Z</time>
      </trkpt>
      <trkpt lat="47.17621" lon="-1.64243">
        <ele>31.561</ele>
        <time>2009-03-15T08:58:30Z</time>
      </trkpt>
      <trkpt lat="47.17642" lon="-1.64288">
        <ele>33.049</ele>
        <time>2009-03-15T08:58:43Z</time>
      </trkpt>
      <trkpt lat="47.17652" lon="-1.64338">
        <ele>33.715</ele>
        <time>2009-03-15T08:58:54Z</time>
      </trkpt>
      <trkpt lat="47.17655" lon="-1.64391">
        <ele>33.996</ele>
        <time>2009-03-15T08:59:05Z</time>
      </trkpt>
      <trkpt lat="47.17659" lon="-1.64427">
        <ele>34.08</ele>
        <time>2009-03-15T08:59:12Z</time>
      </trkpt>
      <trkpt lat="47.17668" lon="-1.64443">
        <ele>34.463</ele>
        <time>2009-03-15T08:59:16Z</time>
      </trkpt>
      <trkpt lat="47.17683" lon="-1.64499">
        <ele>35.08</ele>
        <time>2009-03-15T08:59:26Z</time>
      </trkpt>
      <trkpt lat="47.17697" lon="-1.64549">
        <ele>35.56</ele>
        <time>2009-03-15T08:59:34Z</time>
      </trkpt>
      <trkpt lat="47.17706" lon="-1.64569">
        <ele>35.263</ele>
        <time>2009-03-15T08:59:38Z</time>
      </trkpt>
      <trkpt lat="47.1771" lon="-1.64587">
        <ele>35.462</ele>
        <time>2009-03-15T08:59:41Z</time>
      </trkpt>
      <trkpt lat="47.17729" lon="-1.64642">
        <ele>36.382</ele>
        <time>2009-03-15T08:59:51Z</time>
      </trkpt>
      <trkpt lat="47.17733" lon="-1.64654">
        <ele>36.512</ele>
        <time>2009-03-15T08:59:53Z</time>
      </trkpt>
      <trkpt lat="47.17759" lon="-1.64704">
        <ele>37.237</ele>
        <time>2009-03-15T09:00:03Z</time>
      </trkpt>
      <trkpt lat="47.17767" lon="-1.64725">
        <ele>37.071</ele>
        <time>2009-03-15T09:00:07Z</time>
      </trkpt>
      <trkpt lat="47.17786" lon="-1.64773">
        <ele>37.298</ele>
        <time>2009-03-15T09:00:16Z</time>
      </trkpt>
      <trkpt lat="47.17813" lon="-1.6482">
        <ele>36.792</ele>
        <time>2009-03-15T09:00:26Z</time>
      </trkpt>
      <trkpt lat="47.1782" lon="-1.64841">
        <ele>36.618</ele>
        <time>2009-03-15T09:00:30Z</time>
      </trkpt>
      <trkpt lat="47.17795" lon="-1.64889">
        <ele>37.341</ele>
        <time>2009-03-15T09:00:38Z</time>
      </trkpt>
      <trkpt lat="47.17769" lon="-1.64932">
        <ele>38.486</ele>
        <time>2009-03-15T09:00:46Z</time>
      </trkpt>
      <trkpt lat="47.17741" lon="-1.6497">
        <ele>38.748</ele>
        <time>2009-03-15T09:00:54Z</time>
      </trkpt>
      <trkpt lat="47.17711" lon="-1.65008">
        <ele>39.655</ele>
        <time>2009-03-15T09:01:03Z</time>
      </trkpt>
      <trkpt lat="47.17683" lon="-1.65045">
        <ele>39.907</ele>
        <time>2009-03-15T09:01:12Z</time>
      </trkpt>
      <trkpt lat="47.17659" lon="-1.65084">
        <ele>39.809</ele>
        <time>2009-03-15T09:01:20Z</time>
      </trkpt>
      <trkpt lat="47.17636" lon="-1.65126">
        <ele>39.125</ele>
        <time>2009-03-15T09:01:28Z</time>
      </trkpt>
      <trkpt lat="47.17622" lon="-1.65149">
        <ele>38.52</ele>
        <time>2009-03-15T09:01:33Z</time>
      </trkpt>
      <trkpt lat="47.17611" lon="-1.65177">
        <ele>37.757</ele>
        <time>2009-03-15T09:01:45Z</time>
      </trkpt>
      <trkpt lat="47.17605" lon="-1.65188">
        <ele>37.335</ele>
        <time>2009-03-15T09:01:51Z</time>
      </trkpt>
      <trkpt lat="47.17597" lon="-1.65205">
        <ele>36.424</ele>
        <time>2009-03-15T09:01:54Z</time>
      </trkpt>
      <trkpt lat="47.17581" lon="-1.65231">
        <ele>35.322</ele>
        <time>2009-03-15T09:01:58Z</time>
      </trkpt>
      <trkpt lat="47.17568" lon="-1.65255">
        <ele>34.552</ele>
        <time>2009-03-15T09:02:01Z</time>
      </trkpt>
      <trkpt lat="47.17553" lon="-1.65278">
        <ele>33.245</ele>
        <time>2009-03-15T09:02:04Z</time>
      </trkpt>
      <trkpt lat="47.17515" lon="-1.65315">
        <ele>31.196</ele>
        <time>2009-03-15T09:02:10Z</time>
      </trkpt>
      <trkpt lat="47.17505" lon="-1.65325">
        <ele>30.634</ele>
        <time>2009-03-15T09:02:12Z</time>
      </trkpt>
      <trkpt lat="47.17504" lon="-1.65346">
        <ele>30.751</ele>
        <time>2009-03-15T09:02:16Z</time>
      </trkpt>
      <trkpt lat="47.17512" lon="-1.65354">
        <ele>30.767</ele>
        <time>2009-03-15T09:02:18Z</time>
      </trkpt>
      <trkpt lat="47.1752" lon="-1.65364">
        <ele>31.305</ele>
        <time>2009-03-15T09:02:20Z</time>
      </trkpt>
      <trkpt lat="47.17531" lon="-1.65398">
        <ele>31.838</ele>
        <time>2009-03-15T09:02:25Z</time>
      </trkpt>
      <trkpt lat="47.17536" lon="-1.65435">
        <ele>31.851</ele>
        <time>2009-03-15T09:02:30Z</time>
      </trkpt>
      <trkpt lat="47.17533" lon="-1.6548">
        <ele>31.911</ele>
        <time>2009-03-15T09:02:36Z</time>
      </trkpt>
      <trkpt lat="47.17535" lon="-1.65533">
        <ele>32.054</ele>
        <time>2009-03-15T09:02:43Z</time>
      </trkpt>
      <trkpt lat="47.17531" lon="-1.65571">
        <ele>31.924</ele>
        <time>2009-03-15T09:02:49Z</time>
      </trkpt>
      <trkpt lat="47.17491" lon="-1.65613">
        <ele>31.107</ele>
        <time>2009-03-15T09:02:58Z</time>
      </trkpt>
      <trkpt lat="47.1748" lon="-1.65633">
        <ele>31.027</ele>
        <time>2009-03-15T09:03:01Z</time>
      </trkpt>
      <trkpt lat="47.17473" lon="-1.65647">
        <ele>30.848</ele>
        <time>2009-03-15T09:03:03Z</time>
      </trkpt>
      <trkpt lat="47.17456" lon="-1.65679">
        <ele>30.704</ele>
        <time>2009-03-15T09:03:08Z</time>
      </trkpt>
      <trkpt lat="47.17465" lon="-1.65731">
        <ele>30.849</ele>
        <time>2009-03-15T09:03:16Z</time>
      </trkpt>
      <trkpt lat="47.1748" lon="-1.65741">
        <ele>30.745</ele>
        <time>2009-03-15T09:03:19Z</time>
      </trkpt>
      <trkpt lat="47.17506" lon="-1.6575">
        <ele>31.133</ele>
        <time>2009-03-15T09:03:24Z</time>
      </trkpt>
      <trkpt lat="47.17513" lon="-1.65793">
        <ele>31.347</ele>
        <time>2009-03-15T09:03:36Z</time>
      </trkpt>
      <trkpt lat="47.17549" lon="-1.65773">
        <ele>31.446</ele>
        <time>2009-03-15T09:03:48Z</time>
      </trkpt>
      <trkpt lat="47.17551" lon="-1.65771">
        <ele>31.568</ele>
        <time>2009-03-15T09:03:49Z</time>
      </trkpt>
      <trkpt lat="47.17571" lon="-1.65794">
        <ele>32.142</ele>
        <time>2009-03-15T09:03:57Z</time>
      </trkpt>
      <trkpt lat="47.17599" lon="-1.65842">
        <ele>32.206</ele>
        <time>2009-03-15T09:04:07Z</time>
      </trkpt>
      <trkpt lat="47.17619" lon="-1.65894">
        <ele>32.314</ele>
        <time>2009-03-15T09:04:16Z</time>
      </trkpt>
      <trkpt lat="47.17635" lon="-1.65928">
        <ele>32.681</ele>
        <time>2009-03-15T09:04:22Z</time>
      </trkpt>
      <trkpt lat="47.17649" lon="-1.65944">
        <ele>32.695</ele>
        <time>2009-03-15T09:04:26Z</time>
      </trkpt>
      <trkpt lat="47.17655" lon="-1.65953">
        <ele>32.732</ele>
        <time>2009-03-15T09:04:28Z</time>
      </trkpt>
      <trkpt lat="47.17666" lon="-1.65995">
        <ele>32.961</ele>
        <time>2009-03-15T09:04:35Z</time>
      </trkpt>
      <trkpt lat="47.17673" lon="-1.66029">
        <ele>32.964</ele>
        <time>2009-03-15T09:04:40Z</time>
      </trkpt>
      <trkpt lat="47.17677" lon="-1.66069">
        <ele>33.327</ele>
        <time>2009-03-15T09:04:45Z</time>
      </trkpt>
      <trkpt lat="47.17686" lon="-1.6613">
        <ele>33.728</ele>
        <time>2009-03-15T09:04:53Z</time>
      </trkpt>
      <trkpt lat="47.17693" lon="-1.66182">
        <ele>33.409</ele>
        <time>2009-03-15T09:05:00Z</time>
      </trkpt>
      <trkpt lat="47.17698" lon="-1.66213">
        <ele>33.438</ele>
        <time>2009-03-15T09:05:04Z</time>
      </trkpt>
      <trkpt lat="47.17701" lon="-1.66233">
        <ele>33.564</ele>
        <time>2009-03-15T09:05:07Z</time>
      </trkpt>
      <trkpt lat="47.17705" lon="-1.66261">
        <ele>33.494</ele>
        <time>2009-03-15T09:05:11Z</time>
      </trkpt>
      <trkpt lat="47.17714" lon="-1.6633">
        <ele>33.651</ele>
        <time>2009-03-15T09:05:21Z</time>
      </trkpt>
      <trkpt lat="47.17719" lon="-1.66346">
        <ele>33.473</ele>
        <time>2009-03-15T09:05:24Z</time>
      </trkpt>
      <trkpt lat="47.17753" lon="-1.66317">
        <ele>33.763</ele>
        <time>2009-03-15T09:05:35Z</time>
      </trkpt>
      <trkpt lat="47.17782" lon="-1.66278">
        <ele>34.227</ele>
        <time>2009-03-15T09:05:44Z</time>
      </trkpt>
      <trkpt lat="47.17809" lon="-1.66243">
        <ele>34.464</ele>
        <time>2009-03-15T09:05:52Z</time>
      </trkpt>
      <trkpt lat="47.17839" lon="-1.66205">
        <ele>34.841</ele>
        <time>2009-03-15T09:06:01Z</time>
      </trkpt>
      <trkpt lat="47.17869" lon="-1.66168">
        <ele>35.239</ele>
        <time>2009-03-15T09:06:10Z</time>
      </trkpt>
      <trkpt lat="47.17873" lon="-1.66164">
        <ele>35.29</ele>
        <time>2009-03-15T09:06:11Z</time>
      </trkpt>
      <trkpt lat="47.17888" lon="-1.66163">
        <ele>35.523</ele>
        <time>2009-03-15T09:06:15Z</time>
      </trkpt>
      <trkpt lat="47.17896" lon="-1.66168">
        <ele>35.395</ele>
        <time>2009-03-15T09:06:17Z</time>
      </trkpt>
      <trkpt lat="47.1793" lon="-1.66203">
        <ele>36.113</ele>
        <time>2009-03-15T09:06:26Z</time>
      </trkpt>
      <trkpt lat="47.17938" lon="-1.66211">
        <ele>36.136</ele>
        <time>2009-03-15T09:06:28Z</time>
      </trkpt>
      <trkpt lat="47.17961" lon="-1.66205">
        <ele>36.412</ele>
        <time>2009-03-15T09:06:35Z</time>
      </trkpt>
      <trkpt lat="47.17993" lon="-1.66172">
        <ele>37.512</ele>
        <time>2009-03-15T09:06:49Z</time>
      </trkpt>
      <trkpt lat="47.18028" lon="-1.66171">
        <ele>38.608</ele>
        <time>2009-03-15T09:07:02Z</time>
      </trkpt>
      <trkpt lat="47.1805" lon="-1.66213">
        <ele>38.521</ele>
        <time>2009-03-15T09:07:14Z</time>
      </trkpt>
      <trkpt lat="47.1807" lon="-1.6626">
        <ele>38.559</ele>
        <time>2009-03-15T09:07:26Z</time>
      </trkpt>
      <trkpt lat="47.18097" lon="-1.66298">
        <ele>38.513</ele>
        <time>2009-03-15T09:07:38Z</time>
      </trkpt>
      <trkpt lat="47.18119" lon="-1.66327">
        <ele>38.374</ele>
        <time>2009-03-15T09:07:58Z</time>
      </trkpt>
      <trkpt lat="47.18152" lon="-1.66355">
        <ele>37.924</ele>
        <time>2009-03-15T09:08:16Z</time>
      </trkpt>
      <trkpt lat="47.18181" lon="-1.66385">
        <ele>38.137</ele>
        <time>2009-03-15T09:08:33Z</time>
      </trkpt>
      <trkpt lat="47.1821" lon="-1.66356">
        <ele>38.421</ele>
        <time>2009-03-15T09:08:47Z</time>
      </trkpt>
      <trkpt lat="47.18239" lon="-1.66318">
        <ele>38.196</ele>
        <time>2009-03-15T09:08:59Z</time>
      </trkpt>
      <trkpt lat="47.18268" lon="-1.66283">
        <ele>37.568</ele>
        <time>2009-03-15T09:09:10Z</time>
      </trkpt>
      <trkpt lat="47.18287" lon="-1.66263">
        <ele>36.953</ele>
        <time>2009-03-15T09:09:20Z</time>
      </trkpt>
      <trkpt lat="47.18305" lon="-1.66248">
        <ele>36.135</ele>
        <time>2009-03-15T09:09:30Z</time>
      </trkpt>
      <trkpt lat="47.18306" lon="-1.66249">
        <ele>36.167</ele>
        <time>2009-03-15T09:09:51Z</time>
      </trkpt>
      <trkpt lat="47.18306" lon="-1.66248">
        <ele>36.079</ele>
        <time>2009-03-15T09:09:57Z</time>
      </trkpt>
      <trkpt lat="47.18306" lon="-1.66248">
        <ele>36.217</ele>
        <time>2009-03-15T09:10:11Z</time>
      </trkpt>
      <trkpt lat="47.18324" lon="-1.66236">
        <ele>35.8</ele>
        <time>2009-03-15T09:10:33Z</time>
      </trkpt>
      <trkpt lat="47.18334" lon="-1.66226">
        <ele>35.682</ele>
        <time>2009-03-15T09:10:37Z</time>
      </trkpt>
      <trkpt lat="47.18354" lon="-1.66213">
        <ele>35.698</ele>
        <time>2009-03-15T09:10:43Z</time>
      </trkpt>
      <trkpt lat="47.18388" lon="-1.66205">
        <ele>32.959</ele>
        <time>2009-03-15T09:10:50Z</time>
      </trkpt>
      <trkpt lat="47.18396" lon="-1.662">
        <ele>31.935</ele>
        <time>2009-03-15T09:10:52Z</time>
      </trkpt>
      <trkpt lat="47.18404" lon="-1.66188">
        <ele>31.486</ele>
        <time>2009-03-15T09:10:55Z</time>
      </trkpt>
      <trkpt lat="47.18412" lon="-1.66182">
        <ele>30.513</ele>
        <time>2009-03-15T09:10:57Z</time>
      </trkpt>
      <trkpt lat="47.18437" lon="-1.66159">
        <ele>28.331</ele>
        <time>2009-03-15T09:11:02Z</time>
      </trkpt>
      <trkpt lat="47.18471" lon="-1.66114">
        <ele>24.26</ele>
        <time>2009-03-15T09:11:08Z</time>
      </trkpt>
      <trkpt lat="47.18486" lon="-1.66097">
        <ele>22.579</ele>
        <time>2009-03-15T09:11:10Z</time>
      </trkpt>
      <trkpt lat="47.18504" lon="-1.66079">
        <ele>19.679</ele>
        <time>2009-03-15T09:11:13Z</time>
      </trkpt>
      <trkpt lat="47.1852" lon="-1.66048">
        <ele>19.717</ele>
        <time>2009-03-15T09:11:23Z</time>
      </trkpt>
      <trkpt lat="47.18518" lon="-1.6605">
        <ele>19.967</ele>
        <time>2009-03-15T09:11:27Z</time>
      </trkpt>
      <trkpt lat="47.18521" lon="-1.66051">
        <ele>20.25</ele>
        <time>2009-03-15T09:11:31Z</time>
      </trkpt>
      <trkpt lat="47.18524" lon="-1.66048">
        <ele>20.734</ele>
        <time>2009-03-15T09:12:07Z</time>
      </trkpt>
      <trkpt lat="47.18521" lon="-1.66047">
        <ele>20.743</ele>
        <time>2009-03-15T09:12:24Z</time>
      </trkpt>
      <trkpt lat="47.18521" lon="-1.66047">
        <ele>20.774</ele>
        <time>2009-03-15T09:12:28Z</time>
      </trkpt>
      <trkpt lat="47.18521" lon="-1.66048">
        <ele>20.852</ele>
        <time>2009-03-15T09:12:35Z</time>
      </trkpt>
      <trkpt lat="47.18521" lon="-1.66047">
        <ele>20.91</ele>
        <time>2009-03-15T09:12:40Z</time>
      </trkpt>
      <trkpt lat="47.18522" lon="-1.66042">
        <ele>21.251</ele>
        <time>2009-03-15T09:13:08Z</time>
      </trkpt>
      <trkpt lat="47.18526" lon="-1.66038">
        <ele>21.47</ele>
        <time>2009-03-15T09:13:21Z</time>
      </trkpt>
      <trkpt lat="47.18528" lon="-1.66039">
        <ele>21.701</ele>
        <time>2009-03-15T09:13:29Z</time>
      </trkpt>
      <trkpt lat="47.18526" lon="-1.66042">
        <ele>6.176</ele>
        <time>2009-03-15T09:13:34Z</time>
      </trkpt>
      <trkpt lat="47.18526" lon="-1.66042">
        <ele>18.351</ele>
        <time>2009-03-15T09:13:35Z</time>
      </trkpt>
      <trkpt lat="47.18526" lon="-1.66041">
        <ele>19.605</ele>
        <time>2009-03-15T09:13:37Z</time>
      </trkpt>
      <trkpt lat="47.18526" lon="-1.6604">
        <ele>20.728</ele>
        <time>2009-03-15T09:13:46Z</time>
      </trkpt>
      <trkpt lat="47.18526" lon="-1.66041">
        <ele>33.972</ele>
        <time>2009-03-15T09:13:47Z</time>
      </trkpt>
      <trkpt lat="47.18526" lon="-1.66041">
        <ele>21.462</ele>
        <time>2009-03-15T09:13:48Z</time>
      </trkpt>
      <trkpt lat="47.18528" lon="-1.66042">
        <ele>19.997</ele>
        <time>2009-03-15T09:13:50Z</time>
      </trkpt>
      <trkpt lat="47.18528" lon="-1.66043">
        <ele>33.558</ele>
        <time>2009-03-15T09:13:52Z</time>
      </trkpt>
      <trkpt lat="47.18526" lon="-1.66045">
        <ele>21.578</ele>
        <time>2009-03-15T09:13:55Z</time>
      </trkpt>
      <trkpt lat="47.18524" lon="-1.6605">
        <ele>21.856</ele>
        <time>2009-03-15T09:14:02Z</time>
      </trkpt>
      <trkpt lat="47.18525" lon="-1.66046">
        <ele>22.328</ele>
        <time>2009-03-15T09:14:13Z</time>
      </trkpt>
      <trkpt lat="47.18524" lon="-1.66044">
        <ele>22.584</ele>
        <time>2009-03-15T09:14:16Z</time>
      </trkpt>
      <trkpt lat="47.18523" lon="-1.66046">
        <ele>22.649</ele>
        <time>2009-03-15T09:14:18Z</time>
      </trkpt>
      <trkpt lat="47.18523" lon="-1.66046">
        <ele>21.855</ele>
        <time>2009-03-15T09:14:36Z</time>
      </trkpt>
      <trkpt lat="47.18521" lon="-1.66032">
        <ele>24.584</ele>
        <time>2009-03-15T09:14:48Z</time>
      </trkpt>
      <trkpt lat="47.18523" lon="-1.66018">
        <ele>26.094</ele>
        <time>2009-03-15T09:15:03Z</time>
      </trkpt>
      <trkpt lat="47.18525" lon="-1.66009">
        <ele>26.796</ele>
        <time>2009-03-15T09:15:07Z</time>
      </trkpt>
      <trkpt lat="47.18527" lon="-1.65998">
        <ele>27.929</ele>
        <time>2009-03-15T09:15:12Z</time>
      </trkpt>
      <trkpt lat="47.18528" lon="-1.65994">
        <ele>28.295</ele>
        <time>2009-03-15T09:15:14Z</time>
      </trkpt>
      <trkpt lat="47.18536" lon="-1.65991">
        <ele>28.899</ele>
        <time>2009-03-15T09:15:20Z</time>
      </trkpt>
      <trkpt lat="47.18541" lon="-1.65983">
        <ele>30.001</ele>
        <time>2009-03-15T09:15:25Z</time>
      </trkpt>
      <trkpt lat="47.18556" lon="-1.65939">
        <ele>33.495</ele>
        <time>2009-03-15T09:15:46Z</time>
      </trkpt>
      <trkpt lat="47.18544" lon="-1.65912">
        <ele>34.132</ele>
        <time>2009-03-15T09:16:03Z</time>
      </trkpt>
      <trkpt lat="47.18538" lon="-1.65893">
        <ele>34.897</ele>
        <time>2009-03-15T09:16:11Z</time>
      </trkpt>
      <trkpt lat="47.1855" lon="-1.65845">
        <ele>36.917</ele>
        <time>2009-03-15T09:16:30Z</time>
      </trkpt>
      <trkpt lat="47.18571" lon="-1.6586">
        <ele>36.596</ele>
        <time>2009-03-15T09:16:39Z</time>
      </trkpt>
      <trkpt lat="47.1858" lon="-1.65876">
        <ele>36.422</ele>
        <time>2009-03-15T09:16:44Z</time>
      </trkpt>
      <trkpt lat="47.18609" lon="-1.65919">
        <ele>35.478</ele>
        <time>2009-03-15T09:16:58Z</time>
      </trkpt>
      <trkpt lat="47.18617" lon="-1.6593">
        <ele>34.932</ele>
        <time>2009-03-15T09:17:01Z</time>
      </trkpt>
      <trkpt lat="47.18627" lon="-1.65935">
        <ele>34.822</ele>
        <time>2009-03-15T09:17:05Z</time>
      </trkpt>
      <trkpt lat="47.18632" lon="-1.65936">
        <ele>34.303</ele>
        <time>2009-03-15T09:17:09Z</time>
      </trkpt>
      <trkpt lat="47.18644" lon="-1.65949">
        <ele>33.542</ele>
        <time>2009-03-15T09:17:16Z</time>
      </trkpt>
      <trkpt lat="47.18648" lon="-1.65949">
        <ele>33.006</ele>
        <time>2009-03-15T09:17:18Z</time>
      </trkpt>
      <trkpt lat="47.18656" lon="-1.65969">
        <ele>31.944</ele>
        <time>2009-03-15T09:17:25Z</time>
      </trkpt>
      <trkpt lat="47.18658" lon="-1.65975">
        <ele>31.969</ele>
        <time>2009-03-15T09:17:27Z</time>
      </trkpt>
      <trkpt lat="47.18671" lon="-1.65983">
        <ele>30.854</ele>
        <time>2009-03-15T09:17:33Z</time>
      </trkpt>
      <trkpt lat="47.18683" lon="-1.65992">
        <ele>29.23</ele>
        <time>2009-03-15T09:17:38Z</time>
      </trkpt>
      <trkpt lat="47.18696" lon="-1.66005">
        <ele>27.924</ele>
        <time>2009-03-15T09:17:51Z</time>
      </trkpt>
      <trkpt lat="47.18699" lon="-1.66036">
        <ele>27.979</ele>
        <time>2009-03-15T09:18:09Z</time>
      </trkpt>
      <trkpt lat="47.18691" lon="-1.66042">
        <ele>29.214</ele>
        <time>2009-03-15T09:18:13Z</time>
      </trkpt>
      <trkpt lat="47.18688" lon="-1.66046">
        <ele>29.621</ele>
        <time>2009-03-15T09:18:16Z</time>
      </trkpt>
      <trkpt lat="47.1869" lon="-1.66048">
        <ele>29.57</ele>
        <time>2009-03-15T09:18:18Z</time>
      </trkpt>
      <trkpt lat="47.18702" lon="-1.66058">
        <ele>27.04</ele>
        <time>2009-03-15T09:18:24Z</time>
      </trkpt>
      <trkpt lat="47.18721" lon="-1.66072">
        <ele>25.014</ele>
        <time>2009-03-15T09:18:30Z</time>
      </trkpt>
      <trkpt lat="47.1873" lon="-1.66094">
        <ele>24.18</ele>
        <time>2009-03-15T09:18:35Z</time>
      </trkpt>
      <trkpt lat="47.18731" lon="-1.66122">
        <ele>23.367</ele>
        <time>2009-03-15T09:18:40Z</time>
      </trkpt>
      <trkpt lat="47.1872" lon="-1.66106">
        <ele>25.385</ele>
        <time>2009-03-15T09:18:57Z</time>
      </trkpt>
      <trkpt lat="47.18719" lon="-1.66094">
        <ele>24.831</ele>
        <time>2009-03-15T09:19:00Z</time>
      </trkpt>
      <trkpt lat="47.1871" lon="-1.66078">
        <ele>26.464</ele>
        <time>2009-03-15T09:19:05Z</time>
      </trkpt>
      <trkpt lat="47.18707" lon="-1.66075">
        <ele>27.131</ele>
        <time>2009-03-15T09:19:08Z</time>
      </trkpt>
      <trkpt lat="47.18704" lon="-1.66077">
        <ele>27.891</ele>
        <time>2009-03-15T09:19:11Z</time>
      </trkpt>
      <trkpt lat="47.18702" lon="-1.66078">
        <ele>28.069</ele>
        <time>2009-03-15T09:19:13Z</time>
      </trkpt>
      <trkpt lat="47.18695" lon="-1.66066">
        <ele>29.305</ele>
        <time>2009-03-15T09:19:29Z</time>
      </trkpt>
      <trkpt lat="47.18687" lon="-1.66056">
        <ele>29.714</ele>
        <time>2009-03-15T09:19:35Z</time>
      </trkpt>
      <trkpt lat="47.18684" lon="-1.66052">
        <ele>29.966</ele>
        <time>2009-03-15T09:19:37Z</time>
      </trkpt>
      <trkpt lat="47.18676" lon="-1.66053">
        <ele>30.479</ele>
        <time>2009-03-15T09:19:41Z</time>
      </trkpt>
      <trkpt lat="47.18658" lon="-1.66048">
        <ele>30.552</ele>
        <time>2009-03-15T09:19:50Z</time>
      </trkpt>
      <trkpt lat="47.18658" lon="-1.66065">
        <ele>29.427</ele>
        <time>2009-03-15T09:19:54Z</time>
      </trkpt>
      <trkpt lat="47.18662" lon="-1.66091">
        <ele>26.147</ele>
        <time>2009-03-15T09:20:04Z</time>
      </trkpt>
      <trkpt lat="47.18677" lon="-1.66114">
        <ele>22.782</ele>
        <time>2009-03-15T09:20:13Z</time>
      </trkpt>
      <trkpt lat="47.1868" lon="-1.66133">
        <ele>20.763</ele>
        <time>2009-03-15T09:20:39Z</time>
      </trkpt>
      <trkpt lat="47.18679" lon="-1.6614">
        <ele>17.941</ele>
        <time>2009-03-15T09:20:45Z</time>
      </trkpt>
      <trkpt lat="47.18678" lon="-1.6615">
        <ele>15.115</ele>
        <time>2009-03-15T09:20:49Z</time>
      </trkpt>
      <trkpt lat="47.18688" lon="-1.66157">
        <ele>15.02</ele>
        <time>2009-03-15T09:20:53Z</time>
      </trkpt>
      <trkpt lat="47.18692" lon="-1.66167">
        <ele>14.942</ele>
        <time>2009-03-15T09:21:07Z</time>
      </trkpt>
      <trkpt lat="47.18696" lon="-1.66167">
        <ele>15.257</ele>
        <time>2009-03-15T09:21:28Z</time>
      </trkpt>
      <trkpt lat="47.18713" lon="-1.66183">
        <ele>12.333</ele>
        <time>2009-03-15T09:21:45Z</time>
      </trkpt>
      <trkpt lat="47.18725" lon="-1.66192">
        <ele>10.539</ele>
        <time>2009-03-15T09:21:48Z</time>
      </trkpt>
      <trkpt lat="47.18744" lon="-1.66208">
        <ele>8.034</ele>
        <time>2009-03-15T09:21:53Z</time>
      </trkpt>
      <trkpt lat="47.18753" lon="-1.66217">
        <ele>8.108</ele>
        <time>2009-03-15T09:22:01Z</time>
      </trkpt>
      <trkpt lat="47.18755" lon="-1.66226">
        <ele>7.854</ele>
        <time>2009-03-15T09:22:06Z</time>
      </trkpt>
      <trkpt lat="47.18755" lon="-1.66229">
        <ele>8.027</ele>
        <time>2009-03-15T09:22:11Z</time>
      </trkpt>
      <trkpt lat="47.18755" lon="-1.66228">
        <ele>7.744</ele>
        <time>2009-03-15T09:22:17Z</time>
      </trkpt>
      <trkpt lat="47.18755" lon="-1.66228">
        <ele>7.865</ele>
        <time>2009-03-15T09:22:30Z</time>
      </trkpt>
      <trkpt lat="47.1876" lon="-1.66237">
        <ele>9.624</ele>
        <time>2009-03-15T09:22:41Z</time>
      </trkpt>
      <trkpt lat="47.1877" lon="-1.66243">
        <ele>11.167</ele>
        <time>2009-03-15T09:22:55Z</time>
      </trkpt>
      <trkpt lat="47.18778" lon="-1.66251">
        <ele>12.988</ele>
        <time>2009-03-15T09:23:01Z</time>
      </trkpt>
      <trkpt lat="47.18781" lon="-1.66258">
        <ele>14.128</ele>
        <time>2009-03-15T09:23:06Z</time>
      </trkpt>
      <trkpt lat="47.18781" lon="-1.66264">
        <ele>14.395</ele>
        <time>2009-03-15T09:23:10Z</time>
      </trkpt>
      <trkpt lat="47.18773" lon="-1.66303">
        <ele>15.378</ele>
        <time>2009-03-15T09:23:21Z</time>
      </trkpt>
      <trkpt lat="47.18777" lon="-1.66335">
        <ele>12.914</ele>
        <time>2009-03-15T09:23:28Z</time>
      </trkpt>
      <trkpt lat="47.18781" lon="-1.66354">
        <ele>11.403</ele>
        <time>2009-03-15T09:23:31Z</time>
      </trkpt>
      <trkpt lat="47.18779" lon="-1.66375">
        <ele>11.951</ele>
        <time>2009-03-15T09:23:35Z</time>
      </trkpt>
      <trkpt lat="47.18756" lon="-1.66427">
        <ele>10.86</ele>
        <time>2009-03-15T09:23:46Z</time>
      </trkpt>
      <trkpt lat="47.18753" lon="-1.66431">
        <ele>10.652</ele>
        <time>2009-03-15T09:23:47Z</time>
      </trkpt>
      <trkpt lat="47.18756" lon="-1.6646">
        <ele>8.092</ele>
        <time>2009-03-15T09:23:52Z</time>
      </trkpt>
      <trkpt lat="47.18765" lon="-1.6648">
        <ele>7.336</ele>
        <time>2009-03-15T09:23:58Z</time>
      </trkpt>
      <trkpt lat="47.1877" lon="-1.6652">
        <ele>7.1</ele>
        <time>2009-03-15T09:24:05Z</time>
      </trkpt>
      <trkpt lat="47.18775" lon="-1.66557">
        <ele>6.849</ele>
        <time>2009-03-15T09:24:12Z</time>
      </trkpt>
      <trkpt lat="47.18782" lon="-1.6661">
        <ele>6.763</ele>
        <time>2009-03-15T09:24:21Z</time>
      </trkpt>
      <trkpt lat="47.18783" lon="-1.66616">
        <ele>6.853</ele>
        <time>2009-03-15T09:24:22Z</time>
      </trkpt>
      <trkpt lat="47.18791" lon="-1.66667">
        <ele>6.961</ele>
        <time>2009-03-15T09:24:31Z</time>
      </trkpt>
      <trkpt lat="47.18797" lon="-1.66706">
        <ele>8.273</ele>
        <time>2009-03-15T09:24:41Z</time>
      </trkpt>
      <trkpt lat="47.18803" lon="-1.66744">
        <ele>8.609</ele>
        <time>2009-03-15T09:24:51Z</time>
      </trkpt>
      <trkpt lat="47.1881" lon="-1.66786">
        <ele>7.313</ele>
        <time>2009-03-15T09:24:57Z</time>
      </trkpt>
      <trkpt lat="47.18816" lon="-1.66806">
        <ele>7.174</ele>
        <time>2009-03-15T09:25:00Z</time>
      </trkpt>
      <trkpt lat="47.18825" lon="-1.66829">
        <ele>7.437</ele>
        <time>2009-03-15T09:25:04Z</time>
      </trkpt>
      <trkpt lat="47.18836" lon="-1.66893">
        <ele>8.036</ele>
        <time>2009-03-15T09:25:14Z</time>
      </trkpt>
      <trkpt lat="47.18837" lon="-1.66901">
        <ele>8.02</ele>
        <time>2009-03-15T09:25:15Z</time>
      </trkpt>
      <trkpt lat="47.18844" lon="-1.66943">
        <ele>7.917</ele>
        <time>2009-03-15T09:25:21Z</time>
      </trkpt>
      <trkpt lat="47.18851" lon="-1.6698">
        <ele>7.743</ele>
        <time>2009-03-15T09:25:26Z</time>
      </trkpt>
      <trkpt lat="47.18857" lon="-1.67008">
        <ele>7.51</ele>
        <time>2009-03-15T09:25:30Z</time>
      </trkpt>
      <trkpt lat="47.18866" lon="-1.67045">
        <ele>7.309</ele>
        <time>2009-03-15T09:25:35Z</time>
      </trkpt>
      <trkpt lat="47.1887" lon="-1.67074">
        <ele>8.546</ele>
        <time>2009-03-15T09:25:40Z</time>
      </trkpt>
      <trkpt lat="47.1887" lon="-1.67082">
        <ele>9.403</ele>
        <time>2009-03-15T09:25:43Z</time>
      </trkpt>
      <trkpt lat="47.18867" lon="-1.67099">
        <ele>10.515</ele>
        <time>2009-03-15T09:25:51Z</time>
      </trkpt>
      <trkpt lat="47.18866" lon="-1.67104">
        <ele>10.504</ele>
        <time>2009-03-15T09:25:53Z</time>
      </trkpt>
      <trkpt lat="47.18859" lon="-1.67109">
        <ele>11.706</ele>
        <time>2009-03-15T09:25:58Z</time>
      </trkpt>
      <trkpt lat="47.18855" lon="-1.67113">
        <ele>12.114</ele>
        <time>2009-03-15T09:26:01Z</time>
      </trkpt>
      <trkpt lat="47.18853" lon="-1.6713">
        <ele>13.523</ele>
        <time>2009-03-15T09:26:08Z</time>
      </trkpt>
      <trkpt lat="47.18854" lon="-1.67138">
        <ele>13.787</ele>
        <time>2009-03-15T09:26:11Z</time>
      </trkpt>
      <trkpt lat="47.18862" lon="-1.67151">
        <ele>15.298</ele>
        <time>2009-03-15T09:26:19Z</time>
      </trkpt>
      <trkpt lat="47.1887" lon="-1.67175">
        <ele>18.045</ele>
        <time>2009-03-15T09:26:34Z</time>
      </trkpt>
      <trkpt lat="47.18869" lon="-1.67179">
        <ele>17.412</ele>
        <time>2009-03-15T09:26:37Z</time>
      </trkpt>
      <trkpt lat="47.18868" lon="-1.67184">
        <ele>18.712</ele>
        <time>2009-03-15T09:26:40Z</time>
      </trkpt>
      <trkpt lat="47.18857" lon="-1.67212">
        <ele>21.371</ele>
        <time>2009-03-15T09:27:05Z</time>
      </trkpt>
      <trkpt lat="47.18856" lon="-1.67223">
        <ele>22.287</ele>
        <time>2009-03-15T09:27:14Z</time>
      </trkpt>
      <trkpt lat="47.18859" lon="-1.67226">
        <ele>22.373</ele>
        <time>2009-03-15T09:27:18Z</time>
      </trkpt>
      <trkpt lat="47.18866" lon="-1.67261">
        <ele>26.975</ele>
        <time>2009-03-15T09:27:51Z</time>
      </trkpt>
      <trkpt lat="47.18868" lon="-1.67281">
        <ele>28.187</ele>
        <time>2009-03-15T09:28:08Z</time>
      </trkpt>
      <trkpt lat="47.18869" lon="-1.67284">
        <ele>28.35</ele>
        <time>2009-03-15T09:28:10Z</time>
      </trkpt>
      <trkpt lat="47.18869" lon="-1.67289">
        <ele>28.627</ele>
        <time>2009-03-15T09:28:13Z</time>
      </trkpt>
      <trkpt lat="47.18871" lon="-1.67301">
        <ele>29.124</ele>
        <time>2009-03-15T09:28:19Z</time>
      </trkpt>
      <trkpt lat="47.18873" lon="-1.67311">
        <ele>29.141</ele>
        <time>2009-03-15T09:28:23Z</time>
      </trkpt>
      <trkpt lat="47.18875" lon="-1.6732">
        <ele>29.382</ele>
        <time>2009-03-15T09:28:27Z</time>
      </trkpt>
      <trkpt lat="47.18878" lon="-1.67328">
        <ele>29.583</ele>
        <time>2009-03-15T09:28:31Z</time>
      </trkpt>
      <trkpt lat="47.1888" lon="-1.67333">
        <ele>29.677</ele>
        <time>2009-03-15T09:28:33Z</time>
      </trkpt>
      <trkpt lat="47.1888" lon="-1.67341">
        <ele>29.643</ele>
        <time>2009-03-15T09:28:36Z</time>
      </trkpt>
      <trkpt lat="47.18887" lon="-1.6737">
        <ele>29.85</ele>
        <time>2009-03-15T09:28:46Z</time>
      </trkpt>
      <trkpt lat="47.18902" lon="-1.67421">
        <ele>30.399</ele>
        <time>2009-03-15T09:29:00Z</time>
      </trkpt>
      <trkpt lat="47.18909" lon="-1.67432">
        <ele>30.598</ele>
        <time>2009-03-15T09:29:04Z</time>
      </trkpt>
      <trkpt lat="47.18921" lon="-1.67464">
        <ele>31.247</ele>
        <time>2009-03-15T09:29:15Z</time>
      </trkpt>
      <trkpt lat="47.18916" lon="-1.67482">
        <ele>31.339</ele>
        <time>2009-03-15T09:29:20Z</time>
      </trkpt>
      <trkpt lat="47.18916" lon="-1.67494">
        <ele>31.863</ele>
        <time>2009-03-15T09:29:24Z</time>
      </trkpt>
      <trkpt lat="47.18916" lon="-1.6753">
        <ele>33.114</ele>
        <time>2009-03-15T09:29:36Z</time>
      </trkpt>
      <trkpt lat="47.18937" lon="-1.67574">
        <ele>33.263</ele>
        <time>2009-03-15T09:29:53Z</time>
      </trkpt>
      <trkpt lat="47.18928" lon="-1.6761">
        <ele>32.127</ele>
        <time>2009-03-15T09:30:15Z</time>
      </trkpt>
      <trkpt lat="47.18924" lon="-1.67631">
        <ele>28.593</ele>
        <time>2009-03-15T09:31:02Z</time>
      </trkpt>
      <trkpt lat="47.18923" lon="-1.67632">
        <ele>28.498</ele>
        <time>2009-03-15T09:31:07Z</time>
      </trkpt>
      <trkpt lat="47.18923" lon="-1.67633">
        <ele>28.41</ele>
        <time>2009-03-15T09:31:08Z</time>
      </trkpt>
      <trkpt lat="47.18926" lon="-1.67642">
        <ele>26.46</ele>
        <time>2009-03-15T09:31:11Z</time>
      </trkpt>
      <trkpt lat="47.18931" lon="-1.67657">
        <ele>26.097</ele>
        <time>2009-03-15T09:31:13Z</time>
      </trkpt>
      <trkpt lat="47.18939" lon="-1.67694">
        <ele>30.592</ele>
        <time>2009-03-15T09:31:22Z</time>
      </trkpt>
      <trkpt lat="47.18932" lon="-1.67706">
        <ele>32.871</ele>
        <time>2009-03-15T09:31:27Z</time>
      </trkpt>
      <trkpt lat="47.18925" lon="-1.67713">
        <ele>33.78</ele>
        <time>2009-03-15T09:31:30Z</time>
      </trkpt>
      <trkpt lat="47.18906" lon="-1.67725">
        <ele>35.787</ele>
        <time>2009-03-15T09:31:40Z</time>
      </trkpt>
      <trkpt lat="47.18905" lon="-1.67736">
        <ele>35.869</ele>
        <time>2009-03-15T09:31:45Z</time>
      </trkpt>
      <trkpt lat="47.1891" lon="-1.67768">
        <ele>35.168</ele>
        <time>2009-03-15T09:31:54Z</time>
      </trkpt>
      <trkpt lat="47.18915" lon="-1.67794">
        <ele>34.451</ele>
        <time>2009-03-15T09:31:59Z</time>
      </trkpt>
      <trkpt lat="47.18919" lon="-1.67856">
        <ele>32.039</ele>
        <time>2009-03-15T09:32:09Z</time>
      </trkpt>
      <trkpt lat="47.18923" lon="-1.67879">
        <ele>33.086</ele>
        <time>2009-03-15T09:32:17Z</time>
      </trkpt>
      <trkpt lat="47.18923" lon="-1.67879">
        <ele>33.055</ele>
        <time>2009-03-15T09:32:26Z</time>
      </trkpt>
      <trkpt lat="47.18922" lon="-1.6788">
        <ele>33.244</ele>
        <time>2009-03-15T09:32:45Z</time>
      </trkpt>
      <trkpt lat="47.18924" lon="-1.67882">
        <ele>33.012</ele>
        <time>2009-03-15T09:32:58Z</time>
      </trkpt>
      <trkpt lat="47.18935" lon="-1.67878">
        <ele>31.905</ele>
        <time>2009-03-15T09:33:02Z</time>
      </trkpt>
      <trkpt lat="47.18947" lon="-1.67873">
        <ele>30.879</ele>
        <time>2009-03-15T09:33:04Z</time>
      </trkpt>
      <trkpt lat="47.18962" lon="-1.67882">
        <ele>30.676</ele>
        <time>2009-03-15T09:33:07Z</time>
      </trkpt>
      <trkpt lat="47.18988" lon="-1.67931">
        <ele>31.062</ele>
        <time>2009-03-15T09:33:20Z</time>
      </trkpt>
      <trkpt lat="47.18986" lon="-1.67956">
        <ele>32.279</ele>
        <time>2009-03-15T09:33:26Z</time>
      </trkpt>
      <trkpt lat="47.18978" lon="-1.67966">
        <ele>33.806</ele>
        <time>2009-03-15T09:33:31Z</time>
      </trkpt>
      <trkpt lat="47.18979" lon="-1.67972">
        <ele>34.054</ele>
        <time>2009-03-15T09:33:33Z</time>
      </trkpt>
      <trkpt lat="47.18987" lon="-1.6799">
        <ele>33.623</ele>
        <time>2009-03-15T09:33:38Z</time>
      </trkpt>
      <trkpt lat="47.18996" lon="-1.68021">
        <ele>35.35</ele>
        <time>2009-03-15T09:33:45Z</time>
      </trkpt>
      <trkpt lat="47.19016" lon="-1.68017">
        <ele>33.409</ele>
        <time>2009-03-15T09:33:50Z</time>
      </trkpt>
      <trkpt lat="47.19035" lon="-1.68019">
        <ele>31.832</ele>
        <time>2009-03-15T09:33:53Z</time>
      </trkpt>
      <trkpt lat="47.1907" lon="-1.68029">
        <ele>30.345</ele>
        <time>2009-03-15T09:33:58Z</time>
      </trkpt>
      <trkpt lat="47.19099" lon="-1.68079">
        <ele>30.635</ele>
        <time>2009-03-15T09:34:07Z</time>
      </trkpt>
      <trkpt lat="47.19115" lon="-1.68133">
        <ele>31.481</ele>
        <time>2009-03-15T09:34:17Z</time>
      </trkpt>
      <trkpt lat="47.19119" lon="-1.68151">
        <ele>31.551</ele>
        <time>2009-03-15T09:34:20Z</time>
      </trkpt>
      <trkpt lat="47.19122" lon="-1.68165">
        <ele>31.043</ele>
        <time>2009-03-15T09:34:22Z</time>
      </trkpt>
      <trkpt lat="47.19121" lon="-1.68198">
        <ele>31.319</ele>
        <time>2009-03-15T09:34:26Z</time>
      </trkpt>
      <trkpt lat="47.19119" lon="-1.68224">
        <ele>32.933</ele>
        <time>2009-03-15T09:34:30Z</time>
      </trkpt>
      <trkpt lat="47.19127" lon="-1.68251">
        <ele>34.062</ele>
        <time>2009-03-15T09:34:35Z</time>
      </trkpt>
      <trkpt lat="47.19149" lon="-1.68279">
        <ele>35.909</ele>
        <time>2009-03-15T09:34:42Z</time>
      </trkpt>
      <trkpt lat="47.19156" lon="-1.68326">
        <ele>36.037</ele>
        <time>2009-03-15T09:34:51Z</time>
      </trkpt>
      <trkpt lat="47.19156" lon="-1.68364">
        <ele>36.128</ele>
        <time>2009-03-15T09:34:57Z</time>
      </trkpt>
      <trkpt lat="47.19156" lon="-1.68427">
        <ele>35.629</ele>
        <time>2009-03-15T09:35:08Z</time>
      </trkpt>
      <trkpt lat="47.19158" lon="-1.68451">
        <ele>35.178</ele>
        <time>2009-03-15T09:35:18Z</time>
      </trkpt>
      <trkpt lat="47.19157" lon="-1.68452">
        <ele>35.282</ele>
        <time>2009-03-15T09:35:25Z</time>
      </trkpt>
      <trkpt lat="47.19156" lon="-1.68452">
        <ele>35.075</ele>
        <time>2009-03-15T09:35:33Z</time>
      </trkpt>
      <trkpt lat="47.19154" lon="-1.68436">
        <ele>35.457</ele>
        <time>2009-03-15T09:35:39Z</time>
      </trkpt>
      <trkpt lat="47.19153" lon="-1.68426">
        <ele>35.498</ele>
        <time>2009-03-15T09:35:41Z</time>
      </trkpt>
      <trkpt lat="47.19152" lon="-1.68364">
        <ele>35.825</ele>
        <time>2009-03-15T09:35:53Z</time>
      </trkpt>
      <trkpt lat="47.19153" lon="-1.68309">
        <ele>36.115</ele>
        <time>2009-03-15T09:36:03Z</time>
      </trkpt>
      <trkpt lat="47.19137" lon="-1.68259">
        <ele>34.834</ele>
        <time>2009-03-15T09:36:16Z</time>
      </trkpt>
      <trkpt lat="47.19123" lon="-1.68236">
        <ele>31.843</ele>
        <time>2009-03-15T09:36:54Z</time>
      </trkpt>
      <trkpt lat="47.19125" lon="-1.68212">
        <ele>28.081</ele>
        <time>2009-03-15T09:36:58Z</time>
      </trkpt>
      <trkpt lat="47.1913" lon="-1.68186">
        <ele>24.085</ele>
        <time>2009-03-15T09:37:02Z</time>
      </trkpt>
      <trkpt lat="47.19139" lon="-1.68167">
        <ele>19.761</ele>
        <time>2009-03-15T09:37:07Z</time>
      </trkpt>
      <trkpt lat="47.19145" lon="-1.68184">
        <ele>16.767</ele>
        <time>2009-03-15T09:37:12Z</time>
      </trkpt>
      <trkpt lat="47.19146" lon="-1.68196">
        <ele>14.916</ele>
        <time>2009-03-15T09:37:14Z</time>
      </trkpt>
      <trkpt lat="47.19154" lon="-1.68214">
        <ele>11.512</ele>
        <time>2009-03-15T09:37:18Z</time>
      </trkpt>
      <trkpt lat="47.19171" lon="-1.68227">
        <ele>9.447</ele>
        <time>2009-03-15T09:37:21Z</time>
      </trkpt>
      <trkpt lat="47.19188" lon="-1.68266">
        <ele>9.418</ele>
        <time>2009-03-15T09:37:26Z</time>
      </trkpt>
      <trkpt lat="47.19195" lon="-1.68327">
        <ele>11.571</ele>
        <time>2009-03-15T09:37:36Z</time>
      </trkpt>
      <trkpt lat="47.19197" lon="-1.6837">
        <ele>13.776</ele>
        <time>2009-03-15T09:37:45Z</time>
      </trkpt>
      <trkpt lat="47.192" lon="-1.68393">
        <ele>14.635</ele>
        <time>2009-03-15T09:37:50Z</time>
      </trkpt>
      <trkpt lat="47.19203" lon="-1.6844">
        <ele>16.603</ele>
        <time>2009-03-15T09:38:00Z</time>
      </trkpt>
      <trkpt lat="47.192" lon="-1.68493">
        <ele>18.753</ele>
        <time>2009-03-15T09:38:12Z</time>
      </trkpt>
      <trkpt lat="47.1923" lon="-1.68532">
        <ele>21.132</ele>
        <time>2009-03-15T09:38:25Z</time>
      </trkpt>
      <trkpt lat="47.1924" lon="-1.68581">
        <ele>23.094</ele>
        <time>2009-03-15T09:38:37Z</time>
      </trkpt>
      <trkpt lat="47.1924" lon="-1.68585">
        <ele>23.321</ele>
        <time>2009-03-15T09:38:38Z</time>
      </trkpt>
      <trkpt lat="47.19243" lon="-1.68606">
        <ele>24.349</ele>
        <time>2009-03-15T09:38:44Z</time>
      </trkpt>
      <trkpt lat="47.19248" lon="-1.68662">
        <ele>26.975</ele>
        <time>2009-03-15T09:38:58Z</time>
      </trkpt>
      <trkpt lat="47.19248" lon="-1.68667">
        <ele>27.28</ele>
        <time>2009-03-15T09:38:59Z</time>
      </trkpt>
      <trkpt lat="47.19229" lon="-1.68718">
        <ele>30.12</ele>
        <time>2009-03-15T09:39:13Z</time>
      </trkpt>
      <trkpt lat="47.1924" lon="-1.68771">
        <ele>32.377</ele>
        <time>2009-03-15T09:39:27Z</time>
      </trkpt>
      <trkpt lat="47.19239" lon="-1.68823">
        <ele>34.756</ele>
        <time>2009-03-15T09:39:40Z</time>
      </trkpt>
      <trkpt lat="47.19241" lon="-1.68834">
        <ele>34.875</ele>
        <time>2009-03-15T09:39:43Z</time>
      </trkpt>
      <trkpt lat="47.19246" lon="-1.68839">
        <ele>34.918</ele>
        <time>2009-03-15T09:39:46Z</time>
      </trkpt>
      <trkpt lat="47.19271" lon="-1.68887">
        <ele>34.94</ele>
        <time>2009-03-15T09:39:59Z</time>
      </trkpt>
      <trkpt lat="47.19295" lon="-1.68935">
        <ele>34.365</ele>
        <time>2009-03-15T09:40:09Z</time>
      </trkpt>
      <trkpt lat="47.19309" lon="-1.68964">
        <ele>34.246</ele>
        <time>2009-03-15T09:40:15Z</time>
      </trkpt>
      <trkpt lat="47.19319" lon="-1.68983">
        <ele>33.729</ele>
        <time>2009-03-15T09:40:19Z</time>
      </trkpt>
      <trkpt lat="47.19327" lon="-1.68997">
        <ele>33.452</ele>
        <time>2009-03-15T09:40:22Z</time>
      </trkpt>
      <trkpt lat="47.19342" lon="-1.69022">
        <ele>32.857</ele>
        <time>2009-03-15T09:40:27Z</time>
      </trkpt>
      <trkpt lat="47.19351" lon="-1.69043">
        <ele>31.907</ele>
        <time>2009-03-15T09:40:30Z</time>
      </trkpt>
      <trkpt lat="47.19366" lon="-1.69099">
        <ele>29.041</ele>
        <time>2009-03-15T09:40:36Z</time>
      </trkpt>
      <trkpt lat="47.19382" lon="-1.69155">
        <ele>26.015</ele>
        <time>2009-03-15T09:40:41Z</time>
      </trkpt>
      <trkpt lat="47.19385" lon="-1.69165">
        <ele>25.022</ele>
        <time>2009-03-15T09:40:42Z</time>
      </trkpt>
      <trkpt lat="47.19387" lon="-1.69183">
        <ele>24.157</ele>
        <time>2009-03-15T09:40:44Z</time>
      </trkpt>
      <trkpt lat="47.19379" lon="-1.692">
        <ele>24.91</ele>
        <time>2009-03-15T09:40:47Z</time>
      </trkpt>
      <trkpt lat="47.1936" lon="-1.69215">
        <ele>27.337</ele>
        <time>2009-03-15T09:40:53Z</time>
      </trkpt>
      <trkpt lat="47.19351" lon="-1.69222">
        <ele>28.643</ele>
        <time>2009-03-15T09:40:56Z</time>
      </trkpt>
      <trkpt lat="47.19339" lon="-1.69229">
        <ele>29.581</ele>
        <time>2009-03-15T09:41:00Z</time>
      </trkpt>
      <trkpt lat="47.19306" lon="-1.69261">
        <ele>31.042</ele>
        <time>2009-03-15T09:41:12Z</time>
      </trkpt>
      <trkpt lat="47.19274" lon="-1.6929">
        <ele>32</ele>
        <time>2009-03-15T09:41:23Z</time>
      </trkpt>
      <trkpt lat="47.19237" lon="-1.69305">
        <ele>32.197</ele>
        <time>2009-03-15T09:41:32Z</time>
      </trkpt>
      <trkpt lat="47.19199" lon="-1.69317">
        <ele>31.985</ele>
        <time>2009-03-15T09:41:40Z</time>
      </trkpt>
      <trkpt lat="47.19175" lon="-1.69334">
        <ele>31.107</ele>
        <time>2009-03-15T09:41:45Z</time>
      </trkpt>
      <trkpt lat="47.19138" lon="-1.69369">
        <ele>28.72</ele>
        <time>2009-03-15T09:41:53Z</time>
      </trkpt>
      <trkpt lat="47.19131" lon="-1.69378">
        <ele>28.268</ele>
        <time>2009-03-15T09:41:55Z</time>
      </trkpt>
      <trkpt lat="47.19117" lon="-1.69392">
        <ele>26.612</ele>
        <time>2009-03-15T09:41:59Z</time>
      </trkpt>
      <trkpt lat="47.19109" lon="-1.69401">
        <ele>25.647</ele>
        <time>2009-03-15T09:42:03Z</time>
      </trkpt>
      <trkpt lat="47.19091" lon="-1.69418">
        <ele>22.025</ele>
        <time>2009-03-15T09:42:13Z</time>
      </trkpt>
      <trkpt lat="47.19074" lon="-1.69412">
        <ele>21.942</ele>
        <time>2009-03-15T09:42:22Z</time>
      </trkpt>
      <trkpt lat="47.19069" lon="-1.6942">
        <ele>21.401</ele>
        <time>2009-03-15T09:42:26Z</time>
      </trkpt>
      <trkpt lat="47.19074" lon="-1.69446">
        <ele>19.901</ele>
        <time>2009-03-15T09:42:32Z</time>
      </trkpt>
      <trkpt lat="47.19084" lon="-1.69507">
        <ele>16.048</ele>
        <time>2009-03-15T09:42:42Z</time>
      </trkpt>
      <trkpt lat="47.19076" lon="-1.69553">
        <ele>12.023</ele>
        <time>2009-03-15T09:42:55Z</time>
      </trkpt>
      <trkpt lat="47.19065" lon="-1.69569">
        <ele>10.584</ele>
        <time>2009-03-15T09:43:12Z</time>
      </trkpt>
      <trkpt lat="47.19057" lon="-1.6957">
        <ele>10.294</ele>
        <time>2009-03-15T09:43:40Z</time>
      </trkpt>
      <trkpt lat="47.19057" lon="-1.69571">
        <ele>10.607</ele>
        <time>2009-03-15T09:44:08Z</time>
      </trkpt>
      <trkpt lat="47.19057" lon="-1.6957">
        <ele>10.53</ele>
        <time>2009-03-15T09:44:18Z</time>
      </trkpt>
      <trkpt lat="47.19056" lon="-1.6957">
        <ele>10.531</ele>
        <time>2009-03-15T09:44:27Z</time>
      </trkpt>
      <trkpt lat="47.19053" lon="-1.69575">
        <ele>10.379</ele>
        <time>2009-03-15T09:44:37Z</time>
      </trkpt>
      <trkpt lat="47.19054" lon="-1.69577">
        <ele>10.409</ele>
        <time>2009-03-15T09:44:41Z</time>
      </trkpt>
      <trkpt lat="47.19055" lon="-1.69579">
        <ele>10.201</ele>
        <time>2009-03-15T09:44:54Z</time>
      </trkpt>
      <trkpt lat="47.19056" lon="-1.69579">
        <ele>10.213</ele>
        <time>2009-03-15T09:45:14Z</time>
      </trkpt>
      <trkpt lat="47.19056" lon="-1.69578">
        <ele>10.281</ele>
        <time>2009-03-15T09:45:18Z</time>
      </trkpt>
      <trkpt lat="47.19056" lon="-1.69577">
        <ele>10.27</ele>
        <time>2009-03-15T09:45:28Z</time>
      </trkpt>
      <trkpt lat="47.19057" lon="-1.69577">
        <ele>10.415</ele>
        <time>2009-03-15T09:45:36Z</time>
      </trkpt>
      <trkpt lat="47.19056" lon="-1.69575">
        <ele>10.495</ele>
        <time>2009-03-15T09:46:07Z</time>
      </trkpt>
      <trkpt lat="47.1905" lon="-1.69568">
        <ele>12.094</ele>
        <time>2009-03-15T09:46:11Z</time>
      </trkpt>
      <trkpt lat="47.1905" lon="-1.69565">
        <ele>12.423</ele>
        <time>2009-03-15T09:46:14Z</time>
      </trkpt>
      <trkpt lat="47.19049" lon="-1.69562">
        <ele>12.742</ele>
        <time>2009-03-15T09:46:17Z</time>
      </trkpt>
      <trkpt lat="47.1905" lon="-1.69561">
        <ele>13.028</ele>
        <time>2009-03-15T09:46:18Z</time>
      </trkpt>
      <trkpt lat="47.1905" lon="-1.6956">
        <ele>13.119</ele>
        <time>2009-03-15T09:46:19Z</time>
      </trkpt>
      <trkpt lat="47.1905" lon="-1.69559">
        <ele>14.188</ele>
        <time>2009-03-15T09:46:21Z</time>
      </trkpt>
      <trkpt lat="47.19049" lon="-1.69556">
        <ele>13.897</ele>
        <time>2009-03-15T09:46:22Z</time>
      </trkpt>
      <trkpt lat="47.19046" lon="-1.69549">
        <ele>15.256</ele>
        <time>2009-03-15T09:46:25Z</time>
      </trkpt>
      <trkpt lat="47.19041" lon="-1.69538">
        <ele>18.2</ele>
        <time>2009-03-15T09:46:31Z</time>
      </trkpt>
      <trkpt lat="47.19038" lon="-1.69532">
        <ele>18.887</ele>
        <time>2009-03-15T09:46:38Z</time>
      </trkpt>
      <trkpt lat="47.19037" lon="-1.69527">
        <ele>20.097</ele>
        <time>2009-03-15T09:46:44Z</time>
      </trkpt>
      <trkpt lat="47.19022" lon="-1.695">
        <ele>23.817</ele>
        <time>2009-03-15T09:47:06Z</time>
      </trkpt>
      <trkpt lat="47.18998" lon="-1.69477">
        <ele>23.892</ele>
        <time>2009-03-15T09:47:21Z</time>
      </trkpt>
      <trkpt lat="47.18987" lon="-1.6946">
        <ele>25.025</ele>
        <time>2009-03-15T09:47:32Z</time>
      </trkpt>
      <trkpt lat="47.18987" lon="-1.69433">
        <ele>26.6</ele>
        <time>2009-03-15T09:47:45Z</time>
      </trkpt>
      <trkpt lat="47.18985" lon="-1.69425">
        <ele>26.87</ele>
        <time>2009-03-15T09:47:51Z</time>
      </trkpt>
      <trkpt lat="47.1897" lon="-1.69422">
        <ele>25.993</ele>
        <time>2009-03-15T09:47:59Z</time>
      </trkpt>
      <trkpt lat="47.18953" lon="-1.69433">
        <ele>23.791</ele>
        <time>2009-03-15T09:48:06Z</time>
      </trkpt>
      <trkpt lat="47.18951" lon="-1.69433">
        <ele>23.561</ele>
        <time>2009-03-15T09:48:07Z</time>
      </trkpt>
      <trkpt lat="47.18944" lon="-1.69423">
        <ele>23.794</ele>
        <time>2009-03-15T09:48:12Z</time>
      </trkpt>
      <trkpt lat="47.18926" lon="-1.69388">
        <ele>24.189</ele>
        <time>2009-03-15T09:48:23Z</time>
      </trkpt>
      <trkpt lat="47.18926" lon="-1.69372">
        <ele>24.103</ele>
        <time>2009-03-15T09:48:27Z</time>
      </trkpt>
      <trkpt lat="47.18914" lon="-1.69352">
        <ele>23.101</ele>
        <time>2009-03-15T09:48:33Z</time>
      </trkpt>
      <trkpt lat="47.18917" lon="-1.69333">
        <ele>24.076</ele>
        <time>2009-03-15T09:48:38Z</time>
      </trkpt>
      <trkpt lat="47.18948" lon="-1.69296">
        <ele>27.811</ele>
        <time>2009-03-15T09:48:53Z</time>
      </trkpt>
      <trkpt lat="47.18964" lon="-1.69278">
        <ele>28.035</ele>
        <time>2009-03-15T09:49:01Z</time>
      </trkpt>
      <trkpt lat="47.18949" lon="-1.69252">
        <ele>27.652</ele>
        <time>2009-03-15T09:49:10Z</time>
      </trkpt>
      <trkpt lat="47.18915" lon="-1.69265">
        <ele>24.455</ele>
        <time>2009-03-15T09:49:18Z</time>
      </trkpt>
      <trkpt lat="47.18877" lon="-1.69287">
        <ele>19.029</ele>
        <time>2009-03-15T09:49:23Z</time>
      </trkpt>
      <trkpt lat="47.1887" lon="-1.69291">
        <ele>19.046</ele>
        <time>2009-03-15T09:49:24Z</time>
      </trkpt>
      <trkpt lat="47.18847" lon="-1.69303">
        <ele>18.607</ele>
        <time>2009-03-15T09:49:28Z</time>
      </trkpt>
      <trkpt lat="47.18821" lon="-1.69319">
        <ele>19.28</ele>
        <time>2009-03-15T09:49:36Z</time>
      </trkpt>
      <trkpt lat="47.18811" lon="-1.69346">
        <ele>20.434</ele>
        <time>2009-03-15T09:49:48Z</time>
      </trkpt>
      <trkpt lat="47.18803" lon="-1.6937">
        <ele>20.125</ele>
        <time>2009-03-15T09:49:54Z</time>
      </trkpt>
      <trkpt lat="47.18813" lon="-1.69426">
        <ele>17.102</ele>
        <time>2009-03-15T09:50:13Z</time>
      </trkpt>
      <trkpt lat="47.18814" lon="-1.69464">
        <ele>18.304</ele>
        <time>2009-03-15T09:50:25Z</time>
      </trkpt>
      <trkpt lat="47.18814" lon="-1.69464">
        <ele>18.338</ele>
        <time>2009-03-15T09:50:29Z</time>
      </trkpt>
      <trkpt lat="47.1882" lon="-1.69491">
        <ele>18.734</ele>
        <time>2009-03-15T09:50:45Z</time>
      </trkpt>
      <trkpt lat="47.18833" lon="-1.69503">
        <ele>16.877</ele>
        <time>2009-03-15T09:50:50Z</time>
      </trkpt>
      <trkpt lat="47.1884" lon="-1.69513">
        <ele>16.433</ele>
        <time>2009-03-15T09:50:52Z</time>
      </trkpt>
      <trkpt lat="47.18852" lon="-1.69523">
        <ele>16.331</ele>
        <time>2009-03-15T09:50:55Z</time>
      </trkpt>
      <trkpt lat="47.18891" lon="-1.69542">
        <ele>15.41</ele>
        <time>2009-03-15T09:51:05Z</time>
      </trkpt>
      <trkpt lat="47.18905" lon="-1.69562">
        <ele>17.046</ele>
        <time>2009-03-15T09:51:11Z</time>
      </trkpt>
      <trkpt lat="47.18942" lon="-1.69565">
        <ele>16.224</ele>
        <time>2009-03-15T09:51:22Z</time>
      </trkpt>
      <trkpt lat="47.18965" lon="-1.69572">
        <ele>15.319</ele>
        <time>2009-03-15T09:51:27Z</time>
      </trkpt>
      <trkpt lat="47.19011" lon="-1.69592">
        <ele>14.322</ele>
        <time>2009-03-15T09:51:39Z</time>
      </trkpt>
      <trkpt lat="47.19016" lon="-1.69591">
        <ele>13.969</ele>
        <time>2009-03-15T09:51:40Z</time>
      </trkpt>
      <trkpt lat="47.1903" lon="-1.69584">
        <ele>11.271</ele>
        <time>2009-03-15T09:51:43Z</time>
      </trkpt>
      <trkpt lat="47.19037" lon="-1.69586">
        <ele>11.036</ele>
        <time>2009-03-15T09:51:45Z</time>
      </trkpt>
      <trkpt lat="47.19057" lon="-1.69605">
        <ele>11.057</ele>
        <time>2009-03-15T09:51:56Z</time>
      </trkpt>
      <trkpt lat="47.19059" lon="-1.69609">
        <ele>11.955</ele>
        <time>2009-03-15T09:51:58Z</time>
      </trkpt>
      <trkpt lat="47.19061" lon="-1.69612">
        <ele>12.754</ele>
        <time>2009-03-15T09:52:00Z</time>
      </trkpt>
      <trkpt lat="47.19068" lon="-1.69623">
        <ele>14.391</ele>
        <time>2009-03-15T09:52:07Z</time>
      </trkpt>
      <trkpt lat="47.19069" lon="-1.69628">
        <ele>15.143</ele>
        <time>2009-03-15T09:52:09Z</time>
      </trkpt>
      <trkpt lat="47.19069" lon="-1.69638">
        <ele>16.065</ele>
        <time>2009-03-15T09:52:13Z</time>
      </trkpt>
      <trkpt lat="47.19071" lon="-1.69644">
        <ele>16.2</ele>
        <time>2009-03-15T09:52:16Z</time>
      </trkpt>
      <trkpt lat="47.1907" lon="-1.6965">
        <ele>16.274</ele>
        <time>2009-03-15T09:52:19Z</time>
      </trkpt>
      <trkpt lat="47.19059" lon="-1.69669">
        <ele>16.464</ele>
        <time>2009-03-15T09:52:41Z</time>
      </trkpt>
      <trkpt lat="47.19048" lon="-1.69684">
        <ele>18.121</ele>
        <time>2009-03-15T09:53:10Z</time>
      </trkpt>
      <trkpt lat="47.1904" lon="-1.69678">
        <ele>19.355</ele>
        <time>2009-03-15T09:53:24Z</time>
      </trkpt>
      <trkpt lat="47.19028" lon="-1.69687">
        <ele>19.87</ele>
        <time>2009-03-15T09:53:31Z</time>
      </trkpt>
      <trkpt lat="47.18994" lon="-1.6972">
        <ele>21.154</ele>
        <time>2009-03-15T09:53:46Z</time>
      </trkpt>
      <trkpt lat="47.18982" lon="-1.6973">
        <ele>22.02</ele>
        <time>2009-03-15T09:53:52Z</time>
      </trkpt>
      <trkpt lat="47.18949" lon="-1.69762">
        <ele>22.932</ele>
        <time>2009-03-15T09:54:09Z</time>
      </trkpt>
      <trkpt lat="47.1892" lon="-1.69795">
        <ele>24.13</ele>
        <time>2009-03-15T09:54:25Z</time>
      </trkpt>
      <trkpt lat="47.18914" lon="-1.69801">
        <ele>24.349</ele>
        <time>2009-03-15T09:54:28Z</time>
      </trkpt>
      <trkpt lat="47.18883" lon="-1.69838">
        <ele>25.711</ele>
        <time>2009-03-15T09:54:47Z</time>
      </trkpt>
      <trkpt lat="47.18882" lon="-1.69839">
        <ele>25.786</ele>
        <time>2009-03-15T09:54:48Z</time>
      </trkpt>
      <trkpt lat="47.18881" lon="-1.6984">
        <ele>25.811</ele>
        <time>2009-03-15T09:54:49Z</time>
      </trkpt>
      <trkpt lat="47.18872" lon="-1.69859">
        <ele>26.604</ele>
        <time>2009-03-15T10:04:11Z</time>
      </trkpt>
      <trkpt lat="47.18874" lon="-1.69879">
        <ele>25.323</ele>
        <time>2009-03-15T10:05:02Z</time>
      </trkpt>
      <trkpt lat="47.18885" lon="-1.69911">
        <ele>24.067</ele>
        <time>2009-03-15T10:05:08Z</time>
      </trkpt>
      <trkpt lat="47.18902" lon="-1.69971">
        <ele>22.347</ele>
        <time>2009-03-15T10:05:16Z</time>
      </trkpt>
      <trkpt lat="47.18912" lon="-1.7001">
        <ele>20.224</ele>
        <time>2009-03-15T10:05:21Z</time>
      </trkpt>
      <trkpt lat="47.18904" lon="-1.70022">
        <ele>20.527</ele>
        <time>2009-03-15T10:05:26Z</time>
      </trkpt>
      <trkpt lat="47.18889" lon="-1.70011">
        <ele>21.348</ele>
        <time>2009-03-15T10:05:32Z</time>
      </trkpt>
      <trkpt lat="47.18878" lon="-1.70004">
        <ele>21.859</ele>
        <time>2009-03-15T10:05:36Z</time>
      </trkpt>
      <trkpt lat="47.1886" lon="-1.69988">
        <ele>22.73</ele>
        <time>2009-03-15T10:05:43Z</time>
      </trkpt>
      <trkpt lat="47.18833" lon="-1.69959">
        <ele>23.251</ele>
        <time>2009-03-15T10:05:55Z</time>
      </trkpt>
      <trkpt lat="47.18821" lon="-1.69943">
        <ele>23.843</ele>
        <time>2009-03-15T10:06:04Z</time>
      </trkpt>
      <trkpt lat="47.18791" lon="-1.69911">
        <ele>25.148</ele>
        <time>2009-03-15T10:06:20Z</time>
      </trkpt>
      <trkpt lat="47.18778" lon="-1.69893">
        <ele>26.107</ele>
        <time>2009-03-15T10:06:38Z</time>
      </trkpt>
      <trkpt lat="47.18752" lon="-1.69856">
        <ele>28.805</ele>
        <time>2009-03-15T10:07:00Z</time>
      </trkpt>
      <trkpt lat="47.18721" lon="-1.69825">
        <ele>29.567</ele>
        <time>2009-03-15T10:07:12Z</time>
      </trkpt>
      <trkpt lat="47.18689" lon="-1.69796">
        <ele>30.716</ele>
        <time>2009-03-15T10:07:24Z</time>
      </trkpt>
      <trkpt lat="47.1866" lon="-1.69763">
        <ele>31.222</ele>
        <time>2009-03-15T10:07:35Z</time>
      </trkpt>
      <trkpt lat="47.18642" lon="-1.69732">
        <ele>30.829</ele>
        <time>2009-03-15T10:07:42Z</time>
      </trkpt>
      <trkpt lat="47.18628" lon="-1.69706">
        <ele>31.079</ele>
        <time>2009-03-15T10:07:47Z</time>
      </trkpt>
      <trkpt lat="47.1862" lon="-1.69689">
        <ele>30.825</ele>
        <time>2009-03-15T10:07:50Z</time>
      </trkpt>
      <trkpt lat="47.18601" lon="-1.69636">
        <ele>31.26</ele>
        <time>2009-03-15T10:08:00Z</time>
      </trkpt>
      <trkpt lat="47.18576" lon="-1.69596">
        <ele>31.593</ele>
        <time>2009-03-15T10:08:10Z</time>
      </trkpt>
      <trkpt lat="47.18569" lon="-1.69594">
        <ele>31.492</ele>
        <time>2009-03-15T10:08:12Z</time>
      </trkpt>
      <trkpt lat="47.18554" lon="-1.69605">
        <ele>31.622</ele>
        <time>2009-03-15T10:08:16Z</time>
      </trkpt>
      <trkpt lat="47.1852" lon="-1.69643">
        <ele>30.969</ele>
        <time>2009-03-15T10:08:25Z</time>
      </trkpt>
      <trkpt lat="47.18487" lon="-1.6968">
        <ele>30.272</ele>
        <time>2009-03-15T10:08:33Z</time>
      </trkpt>
      <trkpt lat="47.18463" lon="-1.69707">
        <ele>29.61</ele>
        <time>2009-03-15T10:08:39Z</time>
      </trkpt>
      <trkpt lat="47.18456" lon="-1.69716">
        <ele>29.566</ele>
        <time>2009-03-15T10:08:41Z</time>
      </trkpt>
      <trkpt lat="47.18417" lon="-1.69753">
        <ele>28.486</ele>
        <time>2009-03-15T10:08:50Z</time>
      </trkpt>
      <trkpt lat="47.18389" lon="-1.69768">
        <ele>28.635</ele>
        <time>2009-03-15T10:08:56Z</time>
      </trkpt>
      <trkpt lat="47.18379" lon="-1.69771">
        <ele>28.134</ele>
        <time>2009-03-15T10:08:58Z</time>
      </trkpt>
      <trkpt lat="47.18338" lon="-1.69779">
        <ele>28.359</ele>
        <time>2009-03-15T10:09:06Z</time>
      </trkpt>
      <trkpt lat="47.18333" lon="-1.6978">
        <ele>28.609</ele>
        <time>2009-03-15T10:09:07Z</time>
      </trkpt>
      <trkpt lat="47.18293" lon="-1.69809">
        <ele>28.582</ele>
        <time>2009-03-15T10:09:16Z</time>
      </trkpt>
      <trkpt lat="47.18279" lon="-1.69828">
        <ele>28.571</ele>
        <time>2009-03-15T10:09:20Z</time>
      </trkpt>
      <trkpt lat="47.1827" lon="-1.69845">
        <ele>28.567</ele>
        <time>2009-03-15T10:09:23Z</time>
      </trkpt>
      <trkpt lat="47.1826" lon="-1.69905">
        <ele>29.241</ele>
        <time>2009-03-15T10:09:32Z</time>
      </trkpt>
      <trkpt lat="47.18257" lon="-1.69959">
        <ele>29.306</ele>
        <time>2009-03-15T10:09:40Z</time>
      </trkpt>
      <trkpt lat="47.18255" lon="-1.6999">
        <ele>29.251</ele>
        <time>2009-03-15T10:09:44Z</time>
      </trkpt>
      <trkpt lat="47.18245" lon="-1.69993">
        <ele>29.576</ele>
        <time>2009-03-15T10:09:48Z</time>
      </trkpt>
      <trkpt lat="47.18229" lon="-1.69938">
        <ele>29.966</ele>
        <time>2009-03-15T10:09:58Z</time>
      </trkpt>
      <trkpt lat="47.18219" lon="-1.69899">
        <ele>29.891</ele>
        <time>2009-03-15T10:10:07Z</time>
      </trkpt>
      <trkpt lat="47.18213" lon="-1.69884">
        <ele>29.829</ele>
        <time>2009-03-15T10:10:13Z</time>
      </trkpt>
      <trkpt lat="47.18211" lon="-1.6988">
        <ele>30.049</ele>
        <time>2009-03-15T10:10:15Z</time>
      </trkpt>
      <trkpt lat="47.18202" lon="-1.69842">
        <ele>29.887</ele>
        <time>2009-03-15T10:10:30Z</time>
      </trkpt>
      <trkpt lat="47.18196" lon="-1.6982">
        <ele>29.83</ele>
        <time>2009-03-15T10:10:36Z</time>
      </trkpt>
      <trkpt lat="47.1819" lon="-1.69799">
        <ele>29.826</ele>
        <time>2009-03-15T10:10:41Z</time>
      </trkpt>
      <trkpt lat="47.18177" lon="-1.69749">
        <ele>29.513</ele>
        <time>2009-03-15T10:10:55Z</time>
      </trkpt>
      <trkpt lat="47.18176" lon="-1.69743">
        <ele>29.448</ele>
        <time>2009-03-15T10:10:59Z</time>
      </trkpt>
      <trkpt lat="47.18173" lon="-1.69732">
        <ele>29.636</ele>
        <time>2009-03-15T10:11:04Z</time>
      </trkpt>
      <trkpt lat="47.18165" lon="-1.69715">
        <ele>29.845</ele>
        <time>2009-03-15T10:11:12Z</time>
      </trkpt>
      <trkpt lat="47.18163" lon="-1.69705">
        <ele>30.038</ele>
        <time>2009-03-15T10:11:17Z</time>
      </trkpt>
      <trkpt lat="47.18158" lon="-1.69689">
        <ele>29.987</ele>
        <time>2009-03-15T10:11:24Z</time>
      </trkpt>
      <trkpt lat="47.18144" lon="-1.69637">
        <ele>31.058</ele>
        <time>2009-03-15T10:11:44Z</time>
      </trkpt>
      <trkpt lat="47.18129" lon="-1.69586">
        <ele>31.971</ele>
        <time>2009-03-15T10:12:00Z</time>
      </trkpt>
      <trkpt lat="47.18113" lon="-1.69538">
        <ele>32.451</ele>
        <time>2009-03-15T10:12:12Z</time>
      </trkpt>
      <trkpt lat="47.18098" lon="-1.69487">
        <ele>33.297</ele>
        <time>2009-03-15T10:12:26Z</time>
      </trkpt>
      <trkpt lat="47.18091" lon="-1.69452">
        <ele>33.607</ele>
        <time>2009-03-15T10:12:37Z</time>
      </trkpt>
      <trkpt lat="47.18078" lon="-1.694">
        <ele>33.03</ele>
        <time>2009-03-15T10:12:48Z</time>
      </trkpt>
      <trkpt lat="47.18066" lon="-1.69345">
        <ele>32.128</ele>
        <time>2009-03-15T10:12:57Z</time>
      </trkpt>
      <trkpt lat="47.18057" lon="-1.69287">
        <ele>31.571</ele>
        <time>2009-03-15T10:13:07Z</time>
      </trkpt>
      <trkpt lat="47.18052" lon="-1.69252">
        <ele>31.289</ele>
        <time>2009-03-15T10:13:14Z</time>
      </trkpt>
      <trkpt lat="47.18066" lon="-1.69243">
        <ele>31.496</ele>
        <time>2009-03-15T10:13:19Z</time>
      </trkpt>
      <trkpt lat="47.18109" lon="-1.69246">
        <ele>31.46</ele>
        <time>2009-03-15T10:13:29Z</time>
      </trkpt>
      <trkpt lat="47.18132" lon="-1.69246">
        <ele>31.125</ele>
        <time>2009-03-15T10:13:34Z</time>
      </trkpt>
      <trkpt lat="47.1815" lon="-1.69246">
        <ele>31.18</ele>
        <time>2009-03-15T10:13:38Z</time>
      </trkpt>
      <trkpt lat="47.18193" lon="-1.6925">
        <ele>32.129</ele>
        <time>2009-03-15T10:13:48Z</time>
      </trkpt>
      <trkpt lat="47.18233" lon="-1.69256">
        <ele>32.741</ele>
        <time>2009-03-15T10:13:57Z</time>
      </trkpt>
      <trkpt lat="47.18256" lon="-1.6926">
        <ele>32.369</ele>
        <time>2009-03-15T10:14:03Z</time>
      </trkpt>
      <trkpt lat="47.18264" lon="-1.69241">
        <ele>31.994</ele>
        <time>2009-03-15T10:14:10Z</time>
      </trkpt>
      <trkpt lat="47.18266" lon="-1.69233">
        <ele>32.369</ele>
        <time>2009-03-15T10:14:12Z</time>
      </trkpt>
      <trkpt lat="47.18253" lon="-1.69213">
        <ele>32.458</ele>
        <time>2009-03-15T10:14:17Z</time>
      </trkpt>
      <trkpt lat="47.18246" lon="-1.69205">
        <ele>32.108</ele>
        <time>2009-03-15T10:14:19Z</time>
      </trkpt>
      <trkpt lat="47.18211" lon="-1.69169">
        <ele>31.064</ele>
        <time>2009-03-15T10:14:28Z</time>
      </trkpt>
      <trkpt lat="47.18181" lon="-1.69135">
        <ele>30.505</ele>
        <time>2009-03-15T10:14:35Z</time>
      </trkpt>
      <trkpt lat="47.18152" lon="-1.69094">
        <ele>29.597</ele>
        <time>2009-03-15T10:14:42Z</time>
      </trkpt>
      <trkpt lat="47.18148" lon="-1.69087">
        <ele>29.33</ele>
        <time>2009-03-15T10:14:43Z</time>
      </trkpt>
      <trkpt lat="47.18135" lon="-1.69028">
        <ele>28.715</ele>
        <time>2009-03-15T10:14:50Z</time>
      </trkpt>
      <trkpt lat="47.18126" lon="-1.68978">
        <ele>28.902</ele>
        <time>2009-03-15T10:14:57Z</time>
      </trkpt>
      <trkpt lat="47.18111" lon="-1.68918">
        <ele>30.351</ele>
        <time>2009-03-15T10:15:07Z</time>
      </trkpt>
      <trkpt lat="47.18097" lon="-1.68868">
        <ele>31.231</ele>
        <time>2009-03-15T10:15:17Z</time>
      </trkpt>
      <trkpt lat="47.18081" lon="-1.68821">
        <ele>32.065</ele>
        <time>2009-03-15T10:15:27Z</time>
      </trkpt>
      <trkpt lat="47.18063" lon="-1.68772">
        <ele>33.158</ele>
        <time>2009-03-15T10:15:38Z</time>
      </trkpt>
      <trkpt lat="47.18047" lon="-1.68733">
        <ele>33.793</ele>
        <time>2009-03-15T10:15:45Z</time>
      </trkpt>
      <trkpt lat="47.1803" lon="-1.68693">
        <ele>34.232</ele>
        <time>2009-03-15T10:15:53Z</time>
      </trkpt>
      <trkpt lat="47.18009" lon="-1.68647">
        <ele>34.899</ele>
        <time>2009-03-15T10:16:03Z</time>
      </trkpt>
      <trkpt lat="47.17986" lon="-1.68605">
        <ele>34.903</ele>
        <time>2009-03-15T10:16:13Z</time>
      </trkpt>
      <trkpt lat="47.17963" lon="-1.68561">
        <ele>34.978</ele>
        <time>2009-03-15T10:16:23Z</time>
      </trkpt>
      <trkpt lat="47.17938" lon="-1.68518">
        <ele>35.232</ele>
        <time>2009-03-15T10:16:34Z</time>
      </trkpt>
      <trkpt lat="47.17916" lon="-1.6847">
        <ele>35.526</ele>
        <time>2009-03-15T10:16:46Z</time>
      </trkpt>
      <trkpt lat="47.17899" lon="-1.68419">
        <ele>35.317</ele>
        <time>2009-03-15T10:16:58Z</time>
      </trkpt>
      <trkpt lat="47.17877" lon="-1.68373">
        <ele>35.058</ele>
        <time>2009-03-15T10:17:13Z</time>
      </trkpt>
      <trkpt lat="47.17869" lon="-1.6835">
        <ele>34.751</ele>
        <time>2009-03-15T10:17:20Z</time>
      </trkpt>
      <trkpt lat="47.17858" lon="-1.68341">
        <ele>34.525</ele>
        <time>2009-03-15T10:17:27Z</time>
      </trkpt>
      <trkpt lat="47.17853" lon="-1.6834">
        <ele>34.774</ele>
        <time>2009-03-15T10:17:30Z</time>
      </trkpt>
      <trkpt lat="47.17846" lon="-1.68336">
        <ele>34.526</ele>
        <time>2009-03-15T10:17:44Z</time>
      </trkpt>
      <trkpt lat="47.17845" lon="-1.68335">
        <ele>34.397</ele>
        <time>2009-03-15T10:17:58Z</time>
      </trkpt>
      <trkpt lat="47.17845" lon="-1.68335">
        <ele>34.441</ele>
        <time>2009-03-15T10:18:03Z</time>
      </trkpt>
      <trkpt lat="47.17847" lon="-1.68334">
        <ele>34.498</ele>
        <time>2009-03-15T10:18:16Z</time>
      </trkpt>
      <trkpt lat="47.17829" lon="-1.68327">
        <ele>34.553</ele>
        <time>2009-03-15T10:18:30Z</time>
      </trkpt>
      <trkpt lat="47.17826" lon="-1.68339">
        <ele>34.366</ele>
        <time>2009-03-15T10:19:02Z</time>
      </trkpt>
      <trkpt lat="47.17825" lon="-1.68337">
        <ele>34.417</ele>
        <time>2009-03-15T10:19:06Z</time>
      </trkpt>
      <trkpt lat="47.17825" lon="-1.68335">
        <ele>34.215</ele>
        <time>2009-03-15T10:19:10Z</time>
      </trkpt>
      <trkpt lat="47.17823" lon="-1.68331">
        <ele>34.308</ele>
        <time>2009-03-15T10:19:21Z</time>
      </trkpt>
      <trkpt lat="47.17823" lon="-1.68329">
        <ele>34.284</ele>
        <time>2009-03-15T10:19:29Z</time>
      </trkpt>
      <trkpt lat="47.17824" lon="-1.68325">
        <ele>34.508</ele>
        <time>2009-03-15T10:19:52Z</time>
      </trkpt>
      <trkpt lat="47.17824" lon="-1.68322">
        <ele>34.513</ele>
        <time>2009-03-15T10:20:06Z</time>
      </trkpt>
      <trkpt lat="47.1781" lon="-1.68319">
        <ele>34.364</ele>
        <time>2009-03-15T10:20:13Z</time>
      </trkpt>
      <trkpt lat="47.17797" lon="-1.68326">
        <ele>35.053</ele>
        <time>2009-03-15T10:20:19Z</time>
      </trkpt>
      <trkpt lat="47.17775" lon="-1.68326">
        <ele>35.508</ele>
        <time>2009-03-15T10:20:27Z</time>
      </trkpt>
      <trkpt lat="47.17755" lon="-1.6832">
        <ele>35.347</ele>
        <time>2009-03-15T10:20:34Z</time>
      </trkpt>
      <trkpt lat="47.17738" lon="-1.68311">
        <ele>35.405</ele>
        <time>2009-03-15T10:20:41Z</time>
      </trkpt>
      <trkpt lat="47.1774" lon="-1.68257">
        <ele>35.608</ele>
        <time>2009-03-15T10:20:53Z</time>
      </trkpt>
      <trkpt lat="47.17745" lon="-1.68226">
        <ele>35.235</ele>
        <time>2009-03-15T10:21:00Z</time>
      </trkpt>
      <trkpt lat="47.17751" lon="-1.68202">
        <ele>35.626</ele>
        <time>2009-03-15T10:21:07Z</time>
      </trkpt>
      <trkpt lat="47.17756" lon="-1.68189">
        <ele>35.556</ele>
        <time>2009-03-15T10:21:13Z</time>
      </trkpt>
      <trkpt lat="47.1776" lon="-1.68175">
        <ele>35.441</ele>
        <time>2009-03-15T10:21:20Z</time>
      </trkpt>
      <trkpt lat="47.17766" lon="-1.68163">
        <ele>35.586</ele>
        <time>2009-03-15T10:21:27Z</time>
      </trkpt>
      <trkpt lat="47.17778" lon="-1.68136">
        <ele>35.469</ele>
        <time>2009-03-15T10:21:38Z</time>
      </trkpt>
      <trkpt lat="47.17782" lon="-1.68126">
        <ele>35.729</ele>
        <time>2009-03-15T10:21:42Z</time>
      </trkpt>
      <trkpt lat="47.17781" lon="-1.68122">
        <ele>35.529</ele>
        <time>2009-03-15T10:21:58Z</time>
      </trkpt>
      <trkpt lat="47.17781" lon="-1.68116">
        <ele>35.345</ele>
        <time>2009-03-15T10:22:15Z</time>
      </trkpt>
      <trkpt lat="47.1778" lon="-1.68114">
        <ele>35.524</ele>
        <time>2009-03-15T10:22:24Z</time>
      </trkpt>
      <trkpt lat="47.17771" lon="-1.68105">
        <ele>35.349</ele>
        <time>2009-03-15T10:22:30Z</time>
      </trkpt>
      <trkpt lat="47.1774" lon="-1.68103">
        <ele>33.672</ele>
        <time>2009-03-15T10:22:38Z</time>
      </trkpt>
      <trkpt lat="47.17728" lon="-1.68096">
        <ele>35.788</ele>
        <time>2009-03-15T10:22:41Z</time>
      </trkpt>
      <trkpt lat="47.17725" lon="-1.68092">
        <ele>35.793</ele>
        <time>2009-03-15T10:22:42Z</time>
      </trkpt>
      <trkpt lat="47.17713" lon="-1.68076">
        <ele>35.435</ele>
        <time>2009-03-15T10:22:46Z</time>
      </trkpt>
      <trkpt lat="47.17703" lon="-1.68057">
        <ele>35.442</ele>
        <time>2009-03-15T10:22:50Z</time>
      </trkpt>
      <trkpt lat="47.17675" lon="-1.68004">
        <ele>35.815</ele>
        <time>2009-03-15T10:23:01Z</time>
      </trkpt>
      <trkpt lat="47.17672" lon="-1.68">
        <ele>35.452</ele>
        <time>2009-03-15T10:23:02Z</time>
      </trkpt>
      <trkpt lat="47.1764" lon="-1.67978">
        <ele>35.133</ele>
        <time>2009-03-15T10:23:11Z</time>
      </trkpt>
      <trkpt lat="47.17623" lon="-1.67959">
        <ele>35.281</ele>
        <time>2009-03-15T10:23:16Z</time>
      </trkpt>
      <trkpt lat="47.17608" lon="-1.67937">
        <ele>34.785</ele>
        <time>2009-03-15T10:23:21Z</time>
      </trkpt>
      <trkpt lat="47.17576" lon="-1.6794">
        <ele>34.811</ele>
        <time>2009-03-15T10:23:29Z</time>
      </trkpt>
      <trkpt lat="47.17542" lon="-1.67982">
        <ele>34.285</ele>
        <time>2009-03-15T10:23:39Z</time>
      </trkpt>
      <trkpt lat="47.1753" lon="-1.67995">
        <ele>34.081</ele>
        <time>2009-03-15T10:23:42Z</time>
      </trkpt>
      <trkpt lat="47.1749" lon="-1.67997">
        <ele>34.219</ele>
        <time>2009-03-15T10:23:50Z</time>
      </trkpt>
      <trkpt lat="47.1747" lon="-1.67959">
        <ele>35.098</ele>
        <time>2009-03-15T10:23:57Z</time>
      </trkpt>
      <trkpt lat="47.17454" lon="-1.67898">
        <ele>35.206</ele>
        <time>2009-03-15T10:24:06Z</time>
      </trkpt>
      <trkpt lat="47.17439" lon="-1.67846">
        <ele>35.396</ele>
        <time>2009-03-15T10:24:14Z</time>
      </trkpt>
      <trkpt lat="47.17429" lon="-1.67808">
        <ele>35.779</ele>
        <time>2009-03-15T10:24:20Z</time>
      </trkpt>
      <trkpt lat="47.17439" lon="-1.67777">
        <ele>36.151</ele>
        <time>2009-03-15T10:24:26Z</time>
      </trkpt>
      <trkpt lat="47.17463" lon="-1.67759">
        <ele>36.409</ele>
        <time>2009-03-15T10:24:32Z</time>
      </trkpt>
      <trkpt lat="47.17463" lon="-1.67738">
        <ele>36.467</ele>
        <time>2009-03-15T10:24:37Z</time>
      </trkpt>
      <trkpt lat="47.17425" lon="-1.67717">
        <ele>36.519</ele>
        <time>2009-03-15T10:24:47Z</time>
      </trkpt>
      <trkpt lat="47.17414" lon="-1.67704">
        <ele>36.134</ele>
        <time>2009-03-15T10:24:50Z</time>
      </trkpt>
      <trkpt lat="47.17405" lon="-1.67696">
        <ele>35.925</ele>
        <time>2009-03-15T10:24:52Z</time>
      </trkpt>
      <trkpt lat="47.17388" lon="-1.67641">
        <ele>35.581</ele>
        <time>2009-03-15T10:25:02Z</time>
      </trkpt>
      <trkpt lat="47.17393" lon="-1.67619">
        <ele>35.196</ele>
        <time>2009-03-15T10:25:06Z</time>
      </trkpt>
      <trkpt lat="47.17401" lon="-1.67573">
        <ele>35.052</ele>
        <time>2009-03-15T10:25:14Z</time>
      </trkpt>
      <trkpt lat="47.17407" lon="-1.67552">
        <ele>34.934</ele>
        <time>2009-03-15T10:25:21Z</time>
      </trkpt>
      <trkpt lat="47.17401" lon="-1.67533">
        <ele>35.024</ele>
        <time>2009-03-15T10:25:31Z</time>
      </trkpt>
      <trkpt lat="47.17391" lon="-1.67499">
        <ele>35.243</ele>
        <time>2009-03-15T10:25:43Z</time>
      </trkpt>
      <trkpt lat="47.17381" lon="-1.67441">
        <ele>34.598</ele>
        <time>2009-03-15T10:25:56Z</time>
      </trkpt>
      <trkpt lat="47.1738" lon="-1.67421">
        <ele>34.557</ele>
        <time>2009-03-15T10:26:00Z</time>
      </trkpt>
      <trkpt lat="47.17374" lon="-1.67387">
        <ele>34.746</ele>
        <time>2009-03-15T10:26:07Z</time>
      </trkpt>
      <trkpt lat="47.17376" lon="-1.67369">
        <ele>34.465</ele>
        <time>2009-03-15T10:26:16Z</time>
      </trkpt>
      <trkpt lat="47.17379" lon="-1.67361">
        <ele>34.471</ele>
        <time>2009-03-15T10:26:21Z</time>
      </trkpt>
      <trkpt lat="47.17383" lon="-1.67359">
        <ele>34.79</ele>
        <time>2009-03-15T10:26:26Z</time>
      </trkpt>
      <trkpt lat="47.17393" lon="-1.67335">
        <ele>34.969</ele>
        <time>2009-03-15T10:26:36Z</time>
      </trkpt>
      <trkpt lat="47.17388" lon="-1.67293">
        <ele>35.041</ele>
        <time>2009-03-15T10:26:44Z</time>
      </trkpt>
      <trkpt lat="47.17393" lon="-1.67259">
        <ele>35.281</ele>
        <time>2009-03-15T10:26:49Z</time>
      </trkpt>
      <trkpt lat="47.17419" lon="-1.67218">
        <ele>35.073</ele>
        <time>2009-03-15T10:27:01Z</time>
      </trkpt>
      <trkpt lat="47.17447" lon="-1.67211">
        <ele>34.716</ele>
        <time>2009-03-15T10:27:11Z</time>
      </trkpt>
      <trkpt lat="47.17481" lon="-1.67228">
        <ele>34.704</ele>
        <time>2009-03-15T10:27:23Z</time>
      </trkpt>
      <trkpt lat="47.175" lon="-1.67275">
        <ele>34.656</ele>
        <time>2009-03-15T10:27:38Z</time>
      </trkpt>
      <trkpt lat="47.17507" lon="-1.67289">
        <ele>34.859</ele>
        <time>2009-03-15T10:27:42Z</time>
      </trkpt>
      <trkpt lat="47.17514" lon="-1.6729">
        <ele>34.587</ele>
        <time>2009-03-15T10:27:46Z</time>
      </trkpt>
      <trkpt lat="47.17545" lon="-1.67279">
        <ele>34.621</ele>
        <time>2009-03-15T10:27:58Z</time>
      </trkpt>
      <trkpt lat="47.17569" lon="-1.67283">
        <ele>34.715</ele>
        <time>2009-03-15T10:28:08Z</time>
      </trkpt>
      <trkpt lat="47.1758" lon="-1.67269">
        <ele>34.932</ele>
        <time>2009-03-15T10:28:13Z</time>
      </trkpt>
      <trkpt lat="47.17609" lon="-1.67268">
        <ele>34.884</ele>
        <time>2009-03-15T10:28:24Z</time>
      </trkpt>
      <trkpt lat="47.17622" lon="-1.67254">
        <ele>34.687</ele>
        <time>2009-03-15T10:28:30Z</time>
      </trkpt>
      <trkpt lat="47.17657" lon="-1.67242">
        <ele>34.408</ele>
        <time>2009-03-15T10:28:41Z</time>
      </trkpt>
      <trkpt lat="47.17683" lon="-1.67253">
        <ele>34.986</ele>
        <time>2009-03-15T10:28:51Z</time>
      </trkpt>
      <trkpt lat="47.1772" lon="-1.67268">
        <ele>34.969</ele>
        <time>2009-03-15T10:29:03Z</time>
      </trkpt>
      <trkpt lat="47.17725" lon="-1.67267">
        <ele>35.101</ele>
        <time>2009-03-15T10:29:05Z</time>
      </trkpt>
      <trkpt lat="47.17738" lon="-1.67253">
        <ele>35.093</ele>
        <time>2009-03-15T10:29:11Z</time>
      </trkpt>
      <trkpt lat="47.17756" lon="-1.67204">
        <ele>35.295</ele>
        <time>2009-03-15T10:29:23Z</time>
      </trkpt>
      <trkpt lat="47.17764" lon="-1.6715">
        <ele>34.874</ele>
        <time>2009-03-15T10:29:37Z</time>
      </trkpt>
      <trkpt lat="47.17761" lon="-1.6714">
        <ele>35.049</ele>
        <time>2009-03-15T10:29:49Z</time>
      </trkpt>
      <trkpt lat="47.1776" lon="-1.67141">
        <ele>34.878</ele>
        <time>2009-03-15T10:29:51Z</time>
      </trkpt>
      <trkpt lat="47.17765" lon="-1.67147">
        <ele>35.098</ele>
        <time>2009-03-15T10:29:56Z</time>
      </trkpt>
      <trkpt lat="47.17767" lon="-1.67154">
        <ele>35.033</ele>
        <time>2009-03-15T10:30:01Z</time>
      </trkpt>
      <trkpt lat="47.17767" lon="-1.67154">
        <ele>34.831</ele>
        <time>2009-03-15T10:30:04Z</time>
      </trkpt>
      <trkpt lat="47.17769" lon="-1.67156">
        <ele>35.028</ele>
        <time>2009-03-15T10:30:17Z</time>
      </trkpt>
      <trkpt lat="47.17769" lon="-1.67156">
        <ele>35.028</ele>
        <time>2009-03-15T10:30:18Z</time>
      </trkpt>
      <trkpt lat="47.17749" lon="-1.67118">
        <ele>35.27</ele>
        <time>2009-03-15T10:30:29Z</time>
      </trkpt>
      <trkpt lat="47.17726" lon="-1.67075">
        <ele>34.812</ele>
        <time>2009-03-15T10:30:39Z</time>
      </trkpt>
      <trkpt lat="47.17703" lon="-1.6703">
        <ele>34.767</ele>
        <time>2009-03-15T10:30:52Z</time>
      </trkpt>
      <trkpt lat="47.17681" lon="-1.66987">
        <ele>34.595</ele>
        <time>2009-03-15T10:31:04Z</time>
      </trkpt>
      <trkpt lat="47.17657" lon="-1.66947">
        <ele>34.482</ele>
        <time>2009-03-15T10:31:15Z</time>
      </trkpt>
      <trkpt lat="47.17634" lon="-1.66905">
        <ele>34.754</ele>
        <time>2009-03-15T10:31:25Z</time>
      </trkpt>
      <trkpt lat="47.17612" lon="-1.66862">
        <ele>34.497</ele>
        <time>2009-03-15T10:31:35Z</time>
      </trkpt>
      <trkpt lat="47.17589" lon="-1.66818">
        <ele>34.504</ele>
        <time>2009-03-15T10:31:45Z</time>
      </trkpt>
      <trkpt lat="47.17565" lon="-1.66774">
        <ele>34.319</ele>
        <time>2009-03-15T10:31:56Z</time>
      </trkpt>
      <trkpt lat="47.17541" lon="-1.66728">
        <ele>34.499</ele>
        <time>2009-03-15T10:32:06Z</time>
      </trkpt>
      <trkpt lat="47.17526" lon="-1.667">
        <ele>33.834</ele>
        <time>2009-03-15T10:32:13Z</time>
      </trkpt>
      <trkpt lat="47.17503" lon="-1.66657">
        <ele>34.293</ele>
        <time>2009-03-15T10:32:25Z</time>
      </trkpt>
      <trkpt lat="47.17481" lon="-1.66615">
        <ele>34.046</ele>
        <time>2009-03-15T10:32:35Z</time>
      </trkpt>
      <trkpt lat="47.17457" lon="-1.66571">
        <ele>33.951</ele>
        <time>2009-03-15T10:32:45Z</time>
      </trkpt>
      <trkpt lat="47.17434" lon="-1.66526">
        <ele>33.85</ele>
        <time>2009-03-15T10:32:55Z</time>
      </trkpt>
      <trkpt lat="47.1741" lon="-1.66483">
        <ele>34.033</ele>
        <time>2009-03-15T10:33:04Z</time>
      </trkpt>
      <trkpt lat="47.17387" lon="-1.66442">
        <ele>34.448</ele>
        <time>2009-03-15T10:33:13Z</time>
      </trkpt>
      <trkpt lat="47.17384" lon="-1.66437">
        <ele>34.586</ele>
        <time>2009-03-15T10:33:14Z</time>
      </trkpt>
      <trkpt lat="47.17357" lon="-1.66391">
        <ele>34.147</ele>
        <time>2009-03-15T10:33:24Z</time>
      </trkpt>
      <trkpt lat="47.17336" lon="-1.66347">
        <ele>33.699</ele>
        <time>2009-03-15T10:33:33Z</time>
      </trkpt>
      <trkpt lat="47.17312" lon="-1.66301">
        <ele>33.285</ele>
        <time>2009-03-15T10:33:43Z</time>
      </trkpt>
      <trkpt lat="47.17287" lon="-1.66259">
        <ele>32.903</ele>
        <time>2009-03-15T10:33:52Z</time>
      </trkpt>
      <trkpt lat="47.17278" lon="-1.66239">
        <ele>32.465</ele>
        <time>2009-03-15T10:33:56Z</time>
      </trkpt>
      <trkpt lat="47.17273" lon="-1.6623">
        <ele>32.459</ele>
        <time>2009-03-15T10:33:58Z</time>
      </trkpt>
      <trkpt lat="47.17246" lon="-1.66178">
        <ele>32.056</ele>
        <time>2009-03-15T10:34:08Z</time>
      </trkpt>
      <trkpt lat="47.1724" lon="-1.66167">
        <ele>31.815</ele>
        <time>2009-03-15T10:34:10Z</time>
      </trkpt>
      <trkpt lat="47.17232" lon="-1.66139">
        <ele>31.991</ele>
        <time>2009-03-15T10:34:14Z</time>
      </trkpt>
      <trkpt lat="47.17226" lon="-1.66119">
        <ele>32.023</ele>
        <time>2009-03-15T10:34:17Z</time>
      </trkpt>
      <trkpt lat="47.1722" lon="-1.661">
        <ele>31.92</ele>
        <time>2009-03-15T10:34:20Z</time>
      </trkpt>
      <trkpt lat="47.17214" lon="-1.66073">
        <ele>31.893</ele>
        <time>2009-03-15T10:34:24Z</time>
      </trkpt>
      <trkpt lat="47.172" lon="-1.66015">
        <ele>31.906</ele>
        <time>2009-03-15T10:34:33Z</time>
      </trkpt>
      <trkpt lat="47.1719" lon="-1.65961">
        <ele>31.493</ele>
        <time>2009-03-15T10:34:41Z</time>
      </trkpt>
      <trkpt lat="47.17181" lon="-1.65904">
        <ele>31.857</ele>
        <time>2009-03-15T10:34:49Z</time>
      </trkpt>
      <trkpt lat="47.1717" lon="-1.65847">
        <ele>32.198</ele>
        <time>2009-03-15T10:34:57Z</time>
      </trkpt>
      <trkpt lat="47.17162" lon="-1.6579">
        <ele>32.361</ele>
        <time>2009-03-15T10:35:05Z</time>
      </trkpt>
      <trkpt lat="47.17156" lon="-1.65734">
        <ele>32.145</ele>
        <time>2009-03-15T10:35:13Z</time>
      </trkpt>
      <trkpt lat="47.17152" lon="-1.6568">
        <ele>32.431</ele>
        <time>2009-03-15T10:35:21Z</time>
      </trkpt>
      <trkpt lat="47.17152" lon="-1.65632">
        <ele>32.48</ele>
        <time>2009-03-15T10:35:29Z</time>
      </trkpt>
      <trkpt lat="47.17153" lon="-1.65576">
        <ele>32.402</ele>
        <time>2009-03-15T10:35:39Z</time>
      </trkpt>
      <trkpt lat="47.17158" lon="-1.6552">
        <ele>32.055</ele>
        <time>2009-03-15T10:35:49Z</time>
      </trkpt>
      <trkpt lat="47.17163" lon="-1.65462">
        <ele>31.59</ele>
        <time>2009-03-15T10:35:58Z</time>
      </trkpt>
      <trkpt lat="47.1717" lon="-1.6541">
        <ele>31.469</ele>
        <time>2009-03-15T10:36:06Z</time>
      </trkpt>
      <trkpt lat="47.17177" lon="-1.65352">
        <ele>31.133</ele>
        <time>2009-03-15T10:36:15Z</time>
      </trkpt>
      <trkpt lat="47.17178" lon="-1.65345">
        <ele>31.665</ele>
        <time>2009-03-15T10:36:16Z</time>
      </trkpt>
      <trkpt lat="47.17167" lon="-1.65303">
        <ele>32</ele>
        <time>2009-03-15T10:36:23Z</time>
      </trkpt>
      <trkpt lat="47.17144" lon="-1.65305">
        <ele>32.64</ele>
        <time>2009-03-15T10:36:30Z</time>
      </trkpt>
      <trkpt lat="47.17127" lon="-1.65331">
        <ele>33.052</ele>
        <time>2009-03-15T10:36:36Z</time>
      </trkpt>
      <trkpt lat="47.1712" lon="-1.65358">
        <ele>33.164</ele>
        <time>2009-03-15T10:36:41Z</time>
      </trkpt>
      <trkpt lat="47.17121" lon="-1.6542">
        <ele>34.253</ele>
        <time>2009-03-15T10:36:51Z</time>
      </trkpt>
      <trkpt lat="47.17118" lon="-1.65475">
        <ele>36.381</ele>
        <time>2009-03-15T10:37:01Z</time>
      </trkpt>
      <trkpt lat="47.17111" lon="-1.65507">
        <ele>37.48</ele>
        <time>2009-03-15T10:37:07Z</time>
      </trkpt>
      <trkpt lat="47.17093" lon="-1.65552">
        <ele>38.588</ele>
        <time>2009-03-15T10:37:16Z</time>
      </trkpt>
      <trkpt lat="47.17069" lon="-1.65594">
        <ele>38.973</ele>
        <time>2009-03-15T10:37:25Z</time>
      </trkpt>
      <trkpt lat="47.17045" lon="-1.65636">
        <ele>37.697</ele>
        <time>2009-03-15T10:37:33Z</time>
      </trkpt>
      <trkpt lat="47.17021" lon="-1.65684">
        <ele>36.078</ele>
        <time>2009-03-15T10:37:40Z</time>
      </trkpt>
      <trkpt lat="47.17009" lon="-1.65714">
        <ele>35.708</ele>
        <time>2009-03-15T10:37:44Z</time>
      </trkpt>
      <trkpt lat="47.17006" lon="-1.65738">
        <ele>35.663</ele>
        <time>2009-03-15T10:37:47Z</time>
      </trkpt>
      <trkpt lat="47.16987" lon="-1.65771">
        <ele>35.159</ele>
        <time>2009-03-15T10:37:53Z</time>
      </trkpt>
      <trkpt lat="47.16977" lon="-1.65776">
        <ele>34.757</ele>
        <time>2009-03-15T10:37:55Z</time>
      </trkpt>
      <trkpt lat="47.16956" lon="-1.658">
        <ele>34.395</ele>
        <time>2009-03-15T10:38:00Z</time>
      </trkpt>
      <trkpt lat="47.16931" lon="-1.6585">
        <ele>33.549</ele>
        <time>2009-03-15T10:38:07Z</time>
      </trkpt>
      <trkpt lat="47.1691" lon="-1.65893">
        <ele>33.049</ele>
        <time>2009-03-15T10:38:13Z</time>
      </trkpt>
      <trkpt lat="47.16885" lon="-1.65941">
        <ele>31.869</ele>
        <time>2009-03-15T10:38:20Z</time>
      </trkpt>
      <trkpt lat="47.16844" lon="-1.65951">
        <ele>30.589</ele>
        <time>2009-03-15T10:38:27Z</time>
      </trkpt>
      <trkpt lat="47.16834" lon="-1.65925">
        <ele>30.129</ele>
        <time>2009-03-15T10:38:32Z</time>
      </trkpt>
      <trkpt lat="47.1683" lon="-1.65905">
        <ele>29.925</ele>
        <time>2009-03-15T10:38:36Z</time>
      </trkpt>
      <trkpt lat="47.16824" lon="-1.65895">
        <ele>30.018</ele>
        <time>2009-03-15T10:38:38Z</time>
      </trkpt>
      <trkpt lat="47.16816" lon="-1.6588">
        <ele>29.833</ele>
        <time>2009-03-15T10:38:41Z</time>
      </trkpt>
      <trkpt lat="47.16801" lon="-1.65833">
        <ele>30.012</ele>
        <time>2009-03-15T10:38:48Z</time>
      </trkpt>
      <trkpt lat="47.16784" lon="-1.65798">
        <ele>29.454</ele>
        <time>2009-03-15T10:38:54Z</time>
      </trkpt>
      <trkpt lat="47.16762" lon="-1.65766">
        <ele>29.947</ele>
        <time>2009-03-15T10:38:59Z</time>
      </trkpt>
      <trkpt lat="47.16751" lon="-1.65754">
        <ele>29.575</ele>
        <time>2009-03-15T10:39:01Z</time>
      </trkpt>
      <trkpt lat="47.16705" lon="-1.65734">
        <ele>28.6</ele>
        <time>2009-03-15T10:39:08Z</time>
      </trkpt>
      <trkpt lat="47.1667" lon="-1.65723">
        <ele>29.075</ele>
        <time>2009-03-15T10:39:13Z</time>
      </trkpt>
      <trkpt lat="47.16631" lon="-1.65709">
        <ele>28.938</ele>
        <time>2009-03-15T10:39:19Z</time>
      </trkpt>
      <trkpt lat="47.1659" lon="-1.65696">
        <ele>28.138</ele>
        <time>2009-03-15T10:39:26Z</time>
      </trkpt>
      <trkpt lat="47.16568" lon="-1.6569">
        <ele>28.161</ele>
        <time>2009-03-15T10:39:30Z</time>
      </trkpt>
      <trkpt lat="47.16527" lon="-1.65682">
        <ele>28.014</ele>
        <time>2009-03-15T10:39:38Z</time>
      </trkpt>
      <trkpt lat="47.16522" lon="-1.65681">
        <ele>28.087</ele>
        <time>2009-03-15T10:39:39Z</time>
      </trkpt>
      <trkpt lat="47.16487" lon="-1.65644">
        <ele>28.512</ele>
        <time>2009-03-15T10:39:48Z</time>
      </trkpt>
      <trkpt lat="47.1648" lon="-1.65636">
        <ele>28.712</ele>
        <time>2009-03-15T10:39:50Z</time>
      </trkpt>
      <trkpt lat="47.16443" lon="-1.65605">
        <ele>27.99</ele>
        <time>2009-03-15T10:39:59Z</time>
      </trkpt>
      <trkpt lat="47.16411" lon="-1.65578">
        <ele>26.93</ele>
        <time>2009-03-15T10:40:07Z</time>
      </trkpt>
      <trkpt lat="47.16394" lon="-1.65535">
        <ele>27.085</ele>
        <time>2009-03-15T10:40:21Z</time>
      </trkpt>
      <trkpt lat="47.16373" lon="-1.65488">
        <ele>27.695</ele>
        <time>2009-03-15T10:40:33Z</time>
      </trkpt>
      <trkpt lat="47.16348" lon="-1.65448">
        <ele>28.482</ele>
        <time>2009-03-15T10:40:42Z</time>
      </trkpt>
      <trkpt lat="47.16326" lon="-1.65405">
        <ele>28.816</ele>
        <time>2009-03-15T10:40:51Z</time>
      </trkpt>
      <trkpt lat="47.163" lon="-1.65366">
        <ele>29.247</ele>
        <time>2009-03-15T10:41:01Z</time>
      </trkpt>
      <trkpt lat="47.16297" lon="-1.65355">
        <ele>29.458</ele>
        <time>2009-03-15T10:41:03Z</time>
      </trkpt>
      <trkpt lat="47.16292" lon="-1.65294">
        <ele>29.188</ele>
        <time>2009-03-15T10:41:12Z</time>
      </trkpt>
      <trkpt lat="47.16292" lon="-1.65244">
        <ele>29.486</ele>
        <time>2009-03-15T10:41:20Z</time>
      </trkpt>
      <trkpt lat="47.16292" lon="-1.65237">
        <ele>29.722</ele>
        <time>2009-03-15T10:41:21Z</time>
      </trkpt>
      <trkpt lat="47.16292" lon="-1.65213">
        <ele>29.221</ele>
        <time>2009-03-15T10:41:24Z</time>
      </trkpt>
      <trkpt lat="47.16291" lon="-1.65182">
        <ele>29.239</ele>
        <time>2009-03-15T10:41:28Z</time>
      </trkpt>
      <trkpt lat="47.16288" lon="-1.65122">
        <ele>28.352</ele>
        <time>2009-03-15T10:41:37Z</time>
      </trkpt>
      <trkpt lat="47.16286" lon="-1.65083">
        <ele>27.917</ele>
        <time>2009-03-15T10:41:43Z</time>
      </trkpt>
      <trkpt lat="47.16284" lon="-1.65019">
        <ele>27.876</ele>
        <time>2009-03-15T10:41:53Z</time>
      </trkpt>
      <trkpt lat="47.16283" lon="-1.65002">
        <ele>27.96</ele>
        <time>2009-03-15T10:41:56Z</time>
      </trkpt>
      <trkpt lat="47.16266" lon="-1.64988">
        <ele>27.334</ele>
        <time>2009-03-15T10:42:01Z</time>
      </trkpt>
      <trkpt lat="47.16222" lon="-1.65005">
        <ele>27.302</ele>
        <time>2009-03-15T10:42:10Z</time>
      </trkpt>
      <trkpt lat="47.16185" lon="-1.65016">
        <ele>26.834</ele>
        <time>2009-03-15T10:42:17Z</time>
      </trkpt>
      <trkpt lat="47.1616" lon="-1.65025">
        <ele>26.718</ele>
        <time>2009-03-15T10:42:22Z</time>
      </trkpt>
      <trkpt lat="47.16125" lon="-1.65015">
        <ele>26.326</ele>
        <time>2009-03-15T10:42:29Z</time>
      </trkpt>
      <trkpt lat="47.16094" lon="-1.64987">
        <ele>25.639</ele>
        <time>2009-03-15T10:42:38Z</time>
      </trkpt>
      <trkpt lat="47.16057" lon="-1.64965">
        <ele>24.868</ele>
        <time>2009-03-15T10:42:45Z</time>
      </trkpt>
      <trkpt lat="47.16051" lon="-1.64961">
        <ele>24.997</ele>
        <time>2009-03-15T10:42:46Z</time>
      </trkpt>
      <trkpt lat="47.16028" lon="-1.64929">
        <ele>24.408</ele>
        <time>2009-03-15T10:42:51Z</time>
      </trkpt>
      <trkpt lat="47.16022" lon="-1.64901">
        <ele>23.951</ele>
        <time>2009-03-15T10:42:54Z</time>
      </trkpt>
      <trkpt lat="47.1602" lon="-1.64856">
        <ele>23.555</ele>
        <time>2009-03-15T10:42:59Z</time>
      </trkpt>
      <trkpt lat="47.16021" lon="-1.64832">
        <ele>23.323</ele>
        <time>2009-03-15T10:43:02Z</time>
      </trkpt>
      <trkpt lat="47.16029" lon="-1.64796">
        <ele>22.986</ele>
        <time>2009-03-15T10:43:07Z</time>
      </trkpt>
      <trkpt lat="47.16033" lon="-1.64765">
        <ele>22.706</ele>
        <time>2009-03-15T10:43:11Z</time>
      </trkpt>
      <trkpt lat="47.16031" lon="-1.64725">
        <ele>22.342</ele>
        <time>2009-03-15T10:43:17Z</time>
      </trkpt>
      <trkpt lat="47.16029" lon="-1.64719">
        <ele>22.246</ele>
        <time>2009-03-15T10:43:18Z</time>
      </trkpt>
      <trkpt lat="47.16011" lon="-1.64658">
        <ele>21.602</ele>
        <time>2009-03-15T10:43:27Z</time>
      </trkpt>
      <trkpt lat="47.15995" lon="-1.64608">
        <ele>21.483</ele>
        <time>2009-03-15T10:43:34Z</time>
      </trkpt>
      <trkpt lat="47.15978" lon="-1.64558">
        <ele>20.978</ele>
        <time>2009-03-15T10:43:41Z</time>
      </trkpt>
      <trkpt lat="47.15973" lon="-1.64545">
        <ele>21.054</ele>
        <time>2009-03-15T10:43:43Z</time>
      </trkpt>
      <trkpt lat="47.15943" lon="-1.64511">
        <ele>21.517</ele>
        <time>2009-03-15T10:43:51Z</time>
      </trkpt>
      <trkpt lat="47.15906" lon="-1.64515">
        <ele>22.005</ele>
        <time>2009-03-15T10:44:03Z</time>
      </trkpt>
      <trkpt lat="47.159" lon="-1.64496">
        <ele>22.886</ele>
        <time>2009-03-15T10:44:11Z</time>
      </trkpt>
      <trkpt lat="47.15926" lon="-1.64472">
        <ele>21.751</ele>
        <time>2009-03-15T10:44:18Z</time>
      </trkpt>
      <trkpt lat="47.1594" lon="-1.64456">
        <ele>21.19</ele>
        <time>2009-03-15T10:44:22Z</time>
      </trkpt>
      <trkpt lat="47.15951" lon="-1.64444">
        <ele>20.416</ele>
        <time>2009-03-15T10:44:26Z</time>
      </trkpt>
      <trkpt lat="47.15958" lon="-1.6446">
        <ele>20.47</ele>
        <time>2009-03-15T10:44:32Z</time>
      </trkpt>
      <trkpt lat="47.1597" lon="-1.64501">
        <ele>20.149</ele>
        <time>2009-03-15T10:44:52Z</time>
      </trkpt>
      <trkpt lat="47.1597" lon="-1.64501">
        <ele>20.268</ele>
        <time>2009-03-15T10:44:54Z</time>
      </trkpt>
      <trkpt lat="47.15964" lon="-1.64484">
        <ele>20.567</ele>
        <time>2009-03-15T10:45:00Z</time>
      </trkpt>
      <trkpt lat="47.15956" lon="-1.64455">
        <ele>20.752</ele>
        <time>2009-03-15T10:45:05Z</time>
      </trkpt>
      <trkpt lat="47.1597" lon="-1.64415">
        <ele>20.363</ele>
        <time>2009-03-15T10:45:12Z</time>
      </trkpt>
      <trkpt lat="47.15975" lon="-1.64411">
        <ele>20.263</ele>
        <time>2009-03-15T10:45:13Z</time>
      </trkpt>
      <trkpt lat="47.15987" lon="-1.64396">
        <ele>20.416</ele>
        <time>2009-03-15T10:45:16Z</time>
      </trkpt>
      <trkpt lat="47.16018" lon="-1.64355">
        <ele>19.809</ele>
        <time>2009-03-15T10:45:25Z</time>
      </trkpt>
      <trkpt lat="47.16052" lon="-1.64317">
        <ele>19.59</ele>
        <time>2009-03-15T10:45:36Z</time>
      </trkpt>
      <trkpt lat="47.16087" lon="-1.64291">
        <ele>20.155</ele>
        <time>2009-03-15T10:45:47Z</time>
      </trkpt>
      <trkpt lat="47.16114" lon="-1.64254">
        <ele>20.868</ele>
        <time>2009-03-15T10:45:57Z</time>
      </trkpt>
      <trkpt lat="47.16126" lon="-1.64222">
        <ele>21.99</ele>
        <time>2009-03-15T10:46:04Z</time>
      </trkpt>
      <trkpt lat="47.16134" lon="-1.64192">
        <ele>22.649</ele>
        <time>2009-03-15T10:46:10Z</time>
      </trkpt>
      <trkpt lat="47.16144" lon="-1.64152">
        <ele>23.559</ele>
        <time>2009-03-15T10:46:18Z</time>
      </trkpt>
      <trkpt lat="47.16155" lon="-1.64117">
        <ele>24.32</ele>
        <time>2009-03-15T10:46:26Z</time>
      </trkpt>
      <trkpt lat="47.16181" lon="-1.6408">
        <ele>25.891</ele>
        <time>2009-03-15T10:46:38Z</time>
      </trkpt>
      <trkpt lat="47.16212" lon="-1.64049">
        <ele>26.517</ele>
        <time>2009-03-15T10:46:52Z</time>
      </trkpt>
      <trkpt lat="47.16241" lon="-1.64019">
        <ele>26.794</ele>
        <time>2009-03-15T10:47:04Z</time>
      </trkpt>
      <trkpt lat="47.16269" lon="-1.63999">
        <ele>26.739</ele>
        <time>2009-03-15T10:47:14Z</time>
      </trkpt>
      <trkpt lat="47.16304" lon="-1.63975">
        <ele>27.29</ele>
        <time>2009-03-15T10:47:25Z</time>
      </trkpt>
      <trkpt lat="47.16338" lon="-1.63953">
        <ele>27.298</ele>
        <time>2009-03-15T10:47:35Z</time>
      </trkpt>
      <trkpt lat="47.16371" lon="-1.63932">
        <ele>27.6</ele>
        <time>2009-03-15T10:47:45Z</time>
      </trkpt>
      <trkpt lat="47.16405" lon="-1.63906">
        <ele>27.912</ele>
        <time>2009-03-15T10:47:56Z</time>
      </trkpt>
      <trkpt lat="47.16438" lon="-1.63885">
        <ele>27.723</ele>
        <time>2009-03-15T10:48:08Z</time>
      </trkpt>
      <trkpt lat="47.16441" lon="-1.63882">
        <ele>27.768</ele>
        <time>2009-03-15T10:48:10Z</time>
      </trkpt>
      <trkpt lat="47.16449" lon="-1.63877">
        <ele>27.742</ele>
        <time>2009-03-15T10:48:14Z</time>
      </trkpt>
      <trkpt lat="47.16485" lon="-1.63855">
        <ele>28.062</ele>
        <time>2009-03-15T10:48:31Z</time>
      </trkpt>
      <trkpt lat="47.16489" lon="-1.63852">
        <ele>28.065</ele>
        <time>2009-03-15T10:48:33Z</time>
      </trkpt>
      <trkpt lat="47.16489" lon="-1.6383">
        <ele>27.969</ele>
        <time>2009-03-15T10:48:40Z</time>
      </trkpt>
      <trkpt lat="47.16478" lon="-1.63791">
        <ele>28.033</ele>
        <time>2009-03-15T10:48:51Z</time>
      </trkpt>
      <trkpt lat="47.16465" lon="-1.63738">
        <ele>27.749</ele>
        <time>2009-03-15T10:49:05Z</time>
      </trkpt>
      <trkpt lat="47.16451" lon="-1.63689">
        <ele>28.032</ele>
        <time>2009-03-15T10:49:16Z</time>
      </trkpt>
      <trkpt lat="47.16448" lon="-1.63678">
        <ele>27.982</ele>
        <time>2009-03-15T10:49:18Z</time>
      </trkpt>
      <trkpt lat="47.16424" lon="-1.63627">
        <ele>27.8</ele>
        <time>2009-03-15T10:49:27Z</time>
      </trkpt>
      <trkpt lat="47.16411" lon="-1.6359">
        <ele>27.684</ele>
        <time>2009-03-15T10:49:33Z</time>
      </trkpt>
      <trkpt lat="47.16381" lon="-1.63564">
        <ele>27.602</ele>
        <time>2009-03-15T10:49:41Z</time>
      </trkpt>
      <trkpt lat="47.16358" lon="-1.63567">
        <ele>27.716</ele>
        <time>2009-03-15T10:49:46Z</time>
      </trkpt>
      <trkpt lat="47.16338" lon="-1.63552">
        <ele>27.634</ele>
        <time>2009-03-15T10:49:51Z</time>
      </trkpt>
      <trkpt lat="47.16328" lon="-1.63537">
        <ele>27.44</ele>
        <time>2009-03-15T10:49:54Z</time>
      </trkpt>
      <trkpt lat="47.16295" lon="-1.63491">
        <ele>27.282</ele>
        <time>2009-03-15T10:50:03Z</time>
      </trkpt>
      <trkpt lat="47.16265" lon="-1.63453">
        <ele>27.055</ele>
        <time>2009-03-15T10:50:10Z</time>
      </trkpt>
      <trkpt lat="47.16259" lon="-1.63439">
        <ele>26.763</ele>
        <time>2009-03-15T10:50:12Z</time>
      </trkpt>
      <trkpt lat="47.16247" lon="-1.63412">
        <ele>26.629</ele>
        <time>2009-03-15T10:50:16Z</time>
      </trkpt>
      <trkpt lat="47.16237" lon="-1.63382">
        <ele>26.784</ele>
        <time>2009-03-15T10:50:20Z</time>
      </trkpt>
      <trkpt lat="47.16231" lon="-1.63368">
        <ele>26.57</ele>
        <time>2009-03-15T10:50:22Z</time>
      </trkpt>
      <trkpt lat="47.16212" lon="-1.63307">
        <ele>25.821</ele>
        <time>2009-03-15T10:50:30Z</time>
      </trkpt>
      <trkpt lat="47.16209" lon="-1.63298">
        <ele>25.693</ele>
        <time>2009-03-15T10:50:31Z</time>
      </trkpt>
      <trkpt lat="47.16195" lon="-1.63234">
        <ele>24.535</ele>
        <time>2009-03-15T10:50:38Z</time>
      </trkpt>
      <trkpt lat="47.16189" lon="-1.63216">
        <ele>24.224</ele>
        <time>2009-03-15T10:50:40Z</time>
      </trkpt>
      <trkpt lat="47.16169" lon="-1.63156">
        <ele>23.51</ele>
        <time>2009-03-15T10:50:47Z</time>
      </trkpt>
      <trkpt lat="47.16163" lon="-1.63139">
        <ele>23.115</ele>
        <time>2009-03-15T10:50:49Z</time>
      </trkpt>
      <trkpt lat="47.16143" lon="-1.63075">
        <ele>21.632</ele>
        <time>2009-03-15T10:50:57Z</time>
      </trkpt>
      <trkpt lat="47.16157" lon="-1.63023">
        <ele>21.692</ele>
        <time>2009-03-15T10:51:04Z</time>
      </trkpt>
      <trkpt lat="47.16163" lon="-1.63009">
        <ele>21.504</ele>
        <time>2009-03-15T10:51:06Z</time>
      </trkpt>
      <trkpt lat="47.16175" lon="-1.62984">
        <ele>21.718</ele>
        <time>2009-03-15T10:51:10Z</time>
      </trkpt>
      <trkpt lat="47.16196" lon="-1.62937">
        <ele>22.212</ele>
        <time>2009-03-15T10:51:18Z</time>
      </trkpt>
      <trkpt lat="47.16221" lon="-1.62885">
        <ele>22.704</ele>
        <time>2009-03-15T10:51:27Z</time>
      </trkpt>
      <trkpt lat="47.16226" lon="-1.62875">
        <ele>22.747</ele>
        <time>2009-03-15T10:51:29Z</time>
      </trkpt>
      <trkpt lat="47.16243" lon="-1.62851">
        <ele>22.843</ele>
        <time>2009-03-15T10:51:34Z</time>
      </trkpt>
      <trkpt lat="47.16258" lon="-1.62834">
        <ele>23.239</ele>
        <time>2009-03-15T10:51:38Z</time>
      </trkpt>
      <trkpt lat="47.16282" lon="-1.62815">
        <ele>23.924</ele>
        <time>2009-03-15T10:51:44Z</time>
      </trkpt>
      <trkpt lat="47.16298" lon="-1.62787">
        <ele>24.903</ele>
        <time>2009-03-15T10:51:50Z</time>
      </trkpt>
      <trkpt lat="47.16304" lon="-1.62751">
        <ele>26.554</ele>
        <time>2009-03-15T10:51:56Z</time>
      </trkpt>
      <trkpt lat="47.16299" lon="-1.62692">
        <ele>26.889</ele>
        <time>2009-03-15T10:52:06Z</time>
      </trkpt>
      <trkpt lat="47.16307" lon="-1.62653">
        <ele>26.468</ele>
        <time>2009-03-15T10:52:13Z</time>
      </trkpt>
      <trkpt lat="47.16311" lon="-1.62636">
        <ele>26.564</ele>
        <time>2009-03-15T10:52:16Z</time>
      </trkpt>
      <trkpt lat="47.16316" lon="-1.6262">
        <ele>26.261</ele>
        <time>2009-03-15T10:52:19Z</time>
      </trkpt>
      <trkpt lat="47.1632" lon="-1.6259">
        <ele>25.777</ele>
        <time>2009-03-15T10:52:24Z</time>
      </trkpt>
      <trkpt lat="47.16337" lon="-1.62568">
        <ele>25.654</ele>
        <time>2009-03-15T10:52:31Z</time>
      </trkpt>
      <trkpt lat="47.16363" lon="-1.62579">
        <ele>25.423</ele>
        <time>2009-03-15T10:52:41Z</time>
      </trkpt>
      <trkpt lat="47.16373" lon="-1.62571">
        <ele>25.09</ele>
        <time>2009-03-15T10:52:46Z</time>
      </trkpt>
      <trkpt lat="47.16391" lon="-1.6256">
        <ele>25.019</ele>
        <time>2009-03-15T10:52:51Z</time>
      </trkpt>
      <trkpt lat="47.16426" lon="-1.62524">
        <ele>23.796</ele>
        <time>2009-03-15T10:53:01Z</time>
      </trkpt>
      <trkpt lat="47.16441" lon="-1.62509">
        <ele>23.731</ele>
        <time>2009-03-15T10:53:05Z</time>
      </trkpt>
      <trkpt lat="47.16477" lon="-1.62476">
        <ele>22.475</ele>
        <time>2009-03-15T10:53:14Z</time>
      </trkpt>
      <trkpt lat="47.16495" lon="-1.62461">
        <ele>22.045</ele>
        <time>2009-03-15T10:53:18Z</time>
      </trkpt>
      <trkpt lat="47.16528" lon="-1.62411">
        <ele>20.628</ele>
        <time>2009-03-15T10:53:26Z</time>
      </trkpt>
      <trkpt lat="47.16555" lon="-1.6237">
        <ele>18.794</ele>
        <time>2009-03-15T10:53:33Z</time>
      </trkpt>
      <trkpt lat="47.16563" lon="-1.62359">
        <ele>18.828</ele>
        <time>2009-03-15T10:53:35Z</time>
      </trkpt>
      <trkpt lat="47.16591" lon="-1.62331">
        <ele>18.748</ele>
        <time>2009-03-15T10:53:41Z</time>
      </trkpt>
      <trkpt lat="47.16622" lon="-1.62284">
        <ele>18.689</ele>
        <time>2009-03-15T10:53:49Z</time>
      </trkpt>
      <trkpt lat="47.16647" lon="-1.62248">
        <ele>18.883</ele>
        <time>2009-03-15T10:53:56Z</time>
      </trkpt>
      <trkpt lat="47.16674" lon="-1.62202">
        <ele>18.268</ele>
        <time>2009-03-15T10:54:05Z</time>
      </trkpt>
      <trkpt lat="47.167" lon="-1.6216">
        <ele>18.459</ele>
        <time>2009-03-15T10:54:13Z</time>
      </trkpt>
      <trkpt lat="47.16729" lon="-1.62118">
        <ele>18.564</ele>
        <time>2009-03-15T10:54:21Z</time>
      </trkpt>
      <trkpt lat="47.16755" lon="-1.62079">
        <ele>18.874</ele>
        <time>2009-03-15T10:54:28Z</time>
      </trkpt>
      <trkpt lat="47.16763" lon="-1.62066">
        <ele>19.191</ele>
        <time>2009-03-15T10:54:30Z</time>
      </trkpt>
      <trkpt lat="47.16771" lon="-1.62007">
        <ele>19.212</ele>
        <time>2009-03-15T10:54:37Z</time>
      </trkpt>
      <trkpt lat="47.16757" lon="-1.61959">
        <ele>18.668</ele>
        <time>2009-03-15T10:54:45Z</time>
      </trkpt>
      <trkpt lat="47.16759" lon="-1.61952">
        <ele>18.143</ele>
        <time>2009-03-15T10:54:49Z</time>
      </trkpt>
      <trkpt lat="47.16791" lon="-1.61916">
        <ele>17.98</ele>
        <time>2009-03-15T10:55:00Z</time>
      </trkpt>
      <trkpt lat="47.16822" lon="-1.61884">
        <ele>18.309</ele>
        <time>2009-03-15T10:55:06Z</time>
      </trkpt>
      <trkpt lat="47.16855" lon="-1.61854">
        <ele>18.368</ele>
        <time>2009-03-15T10:55:12Z</time>
      </trkpt>
      <trkpt lat="47.16887" lon="-1.61825">
        <ele>17.73</ele>
        <time>2009-03-15T10:55:18Z</time>
      </trkpt>
      <trkpt lat="47.16892" lon="-1.6182">
        <ele>17.502</ele>
        <time>2009-03-15T10:55:19Z</time>
      </trkpt>
      <trkpt lat="47.16913" lon="-1.61802">
        <ele>17.439</ele>
        <time>2009-03-15T10:55:23Z</time>
      </trkpt>
      <trkpt lat="47.1694" lon="-1.61776">
        <ele>16.3</ele>
        <time>2009-03-15T10:55:28Z</time>
      </trkpt>
      <trkpt lat="47.1697" lon="-1.61727">
        <ele>16.382</ele>
        <time>2009-03-15T10:55:35Z</time>
      </trkpt>
      <trkpt lat="47.1699" lon="-1.61694">
        <ele>15.714</ele>
        <time>2009-03-15T10:55:40Z</time>
      </trkpt>
      <trkpt lat="47.16999" lon="-1.6166">
        <ele>14.204</ele>
        <time>2009-03-15T10:55:44Z</time>
      </trkpt>
      <trkpt lat="47.17005" lon="-1.61607">
        <ele>13.931</ele>
        <time>2009-03-15T10:55:50Z</time>
      </trkpt>
      <trkpt lat="47.17016" lon="-1.6157">
        <ele>12.389</ele>
        <time>2009-03-15T10:55:56Z</time>
      </trkpt>
      <trkpt lat="47.17001" lon="-1.6151">
        <ele>10.824</ele>
        <time>2009-03-15T10:56:04Z</time>
      </trkpt>
      <trkpt lat="47.16998" lon="-1.61496">
        <ele>10.706</ele>
        <time>2009-03-15T10:56:06Z</time>
      </trkpt>
      <trkpt lat="47.1698" lon="-1.61484">
        <ele>9.811</ele>
        <time>2009-03-15T10:56:11Z</time>
      </trkpt>
      <trkpt lat="47.16953" lon="-1.61489">
        <ele>8.672</ele>
        <time>2009-03-15T10:56:16Z</time>
      </trkpt>
      <trkpt lat="47.1693" lon="-1.61493">
        <ele>8.111</ele>
        <time>2009-03-15T10:56:20Z</time>
      </trkpt>
      <trkpt lat="47.16888" lon="-1.61494">
        <ele>5.97</ele>
        <time>2009-03-15T10:56:26Z</time>
      </trkpt>
      <trkpt lat="47.16851" lon="-1.61466">
        <ele>4.577</ele>
        <time>2009-03-15T10:56:32Z</time>
      </trkpt>
      <trkpt lat="47.16819" lon="-1.61418">
        <ele>3.646</ele>
        <time>2009-03-15T10:56:40Z</time>
      </trkpt>
      <trkpt lat="47.16814" lon="-1.61406">
        <ele>3.616</ele>
        <time>2009-03-15T10:56:42Z</time>
      </trkpt>
      <trkpt lat="47.16809" lon="-1.6139">
        <ele>3.856</ele>
        <time>2009-03-15T10:56:45Z</time>
      </trkpt>
      <trkpt lat="47.16808" lon="-1.61367">
        <ele>4.139</ele>
        <time>2009-03-15T10:56:49Z</time>
      </trkpt>
      <trkpt lat="47.16814" lon="-1.61341">
        <ele>4.184</ele>
        <time>2009-03-15T10:56:53Z</time>
      </trkpt>
      <trkpt lat="47.16825" lon="-1.61303">
        <ele>3.674</ele>
        <time>2009-03-15T10:56:59Z</time>
      </trkpt>
      <trkpt lat="47.1683" lon="-1.6127">
        <ele>4.203</ele>
        <time>2009-03-15T10:57:05Z</time>
      </trkpt>
      <trkpt lat="47.16819" lon="-1.61256">
        <ele>3.753</ele>
        <time>2009-03-15T10:57:09Z</time>
      </trkpt>
      <trkpt lat="47.16779" lon="-1.61232">
        <ele>3.853</ele>
        <time>2009-03-15T10:57:19Z</time>
      </trkpt>
      <trkpt lat="47.16744" lon="-1.61209">
        <ele>5.817</ele>
        <time>2009-03-15T10:57:30Z</time>
      </trkpt>
      <trkpt lat="47.16728" lon="-1.61197">
        <ele>7.11</ele>
        <time>2009-03-15T10:57:36Z</time>
      </trkpt>
      <trkpt lat="47.16702" lon="-1.61179">
        <ele>9.325</ele>
        <time>2009-03-15T10:57:48Z</time>
      </trkpt>
      <trkpt lat="47.1668" lon="-1.61165">
        <ele>11.293</ele>
        <time>2009-03-15T10:57:58Z</time>
      </trkpt>
      <trkpt lat="47.16664" lon="-1.61146">
        <ele>12.819</ele>
        <time>2009-03-15T10:58:08Z</time>
      </trkpt>
      <trkpt lat="47.1663" lon="-1.61127">
        <ele>14.545</ele>
        <time>2009-03-15T10:58:24Z</time>
      </trkpt>
      <trkpt lat="47.16601" lon="-1.61092">
        <ele>16.846</ele>
        <time>2009-03-15T10:58:40Z</time>
      </trkpt>
      <trkpt lat="47.1659" lon="-1.61074">
        <ele>18.548</ele>
        <time>2009-03-15T10:58:47Z</time>
      </trkpt>
      <trkpt lat="47.16584" lon="-1.61081">
        <ele>18.926</ele>
        <time>2009-03-15T10:58:52Z</time>
      </trkpt>
      <trkpt lat="47.16568" lon="-1.61118">
        <ele>17.462</ele>
        <time>2009-03-15T10:59:06Z</time>
      </trkpt>
      <trkpt lat="47.16558" lon="-1.61141">
        <ele>16.878</ele>
        <time>2009-03-15T10:59:14Z</time>
      </trkpt>
      <trkpt lat="47.16554" lon="-1.61167">
        <ele>15.647</ele>
        <time>2009-03-15T10:59:21Z</time>
      </trkpt>
      <trkpt lat="47.16536" lon="-1.6118">
        <ele>14.85</ele>
        <time>2009-03-15T10:59:29Z</time>
      </trkpt>
      <trkpt lat="47.16524" lon="-1.6118">
        <ele>14.775</ele>
        <time>2009-03-15T10:59:33Z</time>
      </trkpt>
      <trkpt lat="47.16515" lon="-1.61195">
        <ele>13.144</ele>
        <time>2009-03-15T10:59:38Z</time>
      </trkpt>
      <trkpt lat="47.16501" lon="-1.61196">
        <ele>11.297</ele>
        <time>2009-03-15T10:59:43Z</time>
      </trkpt>
      <trkpt lat="47.16478" lon="-1.61216">
        <ele>4.963</ele>
        <time>2009-03-15T10:59:51Z</time>
      </trkpt>
      <trkpt lat="47.16472" lon="-1.6122">
        <ele>3.714</ele>
        <time>2009-03-15T10:59:54Z</time>
      </trkpt>
      <trkpt lat="47.1647" lon="-1.6122">
        <ele>3.353</ele>
        <time>2009-03-15T10:59:58Z</time>
      </trkpt>
      <trkpt lat="47.16465" lon="-1.61211">
        <ele>3.57</ele>
        <time>2009-03-15T11:00:02Z</time>
      </trkpt>
      <trkpt lat="47.16458" lon="-1.61199">
        <ele>4.405</ele>
        <time>2009-03-15T11:00:06Z</time>
      </trkpt>
      <trkpt lat="47.16457" lon="-1.61173">
        <ele>6.131</ele>
        <time>2009-03-15T11:00:13Z</time>
      </trkpt>
      <trkpt lat="47.16453" lon="-1.61148">
        <ele>8.696</ele>
        <time>2009-03-15T11:00:20Z</time>
      </trkpt>
      <trkpt lat="47.16453" lon="-1.61126">
        <ele>9.489</ele>
        <time>2009-03-15T11:00:27Z</time>
      </trkpt>
      <trkpt lat="47.1646" lon="-1.61072">
        <ele>11.602</ele>
        <time>2009-03-15T11:00:46Z</time>
      </trkpt>
      <trkpt lat="47.16469" lon="-1.61018">
        <ele>13.057</ele>
        <time>2009-03-15T11:01:03Z</time>
      </trkpt>
      <trkpt lat="47.1649" lon="-1.60973">
        <ele>14.946</ele>
        <time>2009-03-15T11:01:19Z</time>
      </trkpt>
      <trkpt lat="47.16513" lon="-1.6093">
        <ele>16.968</ele>
        <time>2009-03-15T11:01:37Z</time>
      </trkpt>
      <trkpt lat="47.16526" lon="-1.60878">
        <ele>18.438</ele>
        <time>2009-03-15T11:01:52Z</time>
      </trkpt>
      <trkpt lat="47.16541" lon="-1.60829">
        <ele>20.706</ele>
        <time>2009-03-15T11:02:07Z</time>
      </trkpt>
      <trkpt lat="47.16548" lon="-1.60821">
        <ele>20.951</ele>
        <time>2009-03-15T11:02:12Z</time>
      </trkpt>
      <trkpt lat="47.16553" lon="-1.60825">
        <ele>20.995</ele>
        <time>2009-03-15T11:02:16Z</time>
      </trkpt>
      <trkpt lat="47.1657" lon="-1.60857">
        <ele>21.292</ele>
        <time>2009-03-15T11:02:30Z</time>
      </trkpt>
      <trkpt lat="47.16589" lon="-1.60895">
        <ele>21.323</ele>
        <time>2009-03-15T11:02:40Z</time>
      </trkpt>
      <trkpt lat="47.16601" lon="-1.60922">
        <ele>21.28</ele>
        <time>2009-03-15T11:02:46Z</time>
      </trkpt>
      <trkpt lat="47.16614" lon="-1.60956">
        <ele>20.768</ele>
        <time>2009-03-15T11:02:53Z</time>
      </trkpt>
      <trkpt lat="47.16626" lon="-1.60983">
        <ele>20.529</ele>
        <time>2009-03-15T11:02:59Z</time>
      </trkpt>
      <trkpt lat="47.16643" lon="-1.60976">
        <ele>20.85</ele>
        <time>2009-03-15T11:03:05Z</time>
      </trkpt>
      <trkpt lat="47.16675" lon="-1.60932">
        <ele>21.263</ele>
        <time>2009-03-15T11:03:16Z</time>
      </trkpt>
      <trkpt lat="47.16711" lon="-1.60915">
        <ele>21.437</ele>
        <time>2009-03-15T11:03:26Z</time>
      </trkpt>
      <trkpt lat="47.16747" lon="-1.60894">
        <ele>21.511</ele>
        <time>2009-03-15T11:03:37Z</time>
      </trkpt>
      <trkpt lat="47.16765" lon="-1.60875">
        <ele>21.361</ele>
        <time>2009-03-15T11:03:43Z</time>
      </trkpt>
      <trkpt lat="47.16795" lon="-1.60844">
        <ele>21.59</ele>
        <time>2009-03-15T11:03:53Z</time>
      </trkpt>
      <trkpt lat="47.16832" lon="-1.60843">
        <ele>20.278</ele>
        <time>2009-03-15T11:04:04Z</time>
      </trkpt>
      <trkpt lat="47.16865" lon="-1.60865">
        <ele>20.549</ele>
        <time>2009-03-15T11:04:15Z</time>
      </trkpt>
      <trkpt lat="47.16901" lon="-1.60875">
        <ele>19.435</ele>
        <time>2009-03-15T11:04:25Z</time>
      </trkpt>
      <trkpt lat="47.16933" lon="-1.60847">
        <ele>19.326</ele>
        <time>2009-03-15T11:04:35Z</time>
      </trkpt>
      <trkpt lat="47.16964" lon="-1.60814">
        <ele>18.951</ele>
        <time>2009-03-15T11:04:45Z</time>
      </trkpt>
      <trkpt lat="47.1698" lon="-1.60795">
        <ele>17.882</ele>
        <time>2009-03-15T11:04:50Z</time>
      </trkpt>
      <trkpt lat="47.16986" lon="-1.60786">
        <ele>17.782</ele>
        <time>2009-03-15T11:04:52Z</time>
      </trkpt>
      <trkpt lat="47.16998" lon="-1.60769">
        <ele>17.674</ele>
        <time>2009-03-15T11:04:56Z</time>
      </trkpt>
      <trkpt lat="47.17035" lon="-1.60743">
        <ele>17.436</ele>
        <time>2009-03-15T11:05:07Z</time>
      </trkpt>
      <trkpt lat="47.17068" lon="-1.60721">
        <ele>18.587</ele>
        <time>2009-03-15T11:05:19Z</time>
      </trkpt>
      <trkpt lat="47.17103" lon="-1.60698">
        <ele>19.079</ele>
        <time>2009-03-15T11:05:30Z</time>
      </trkpt>
      <trkpt lat="47.17138" lon="-1.60676">
        <ele>19.047</ele>
        <time>2009-03-15T11:05:43Z</time>
      </trkpt>
      <trkpt lat="47.17174" lon="-1.60657">
        <ele>18.847</ele>
        <time>2009-03-15T11:05:58Z</time>
      </trkpt>
      <trkpt lat="47.1721" lon="-1.60639">
        <ele>18.629</ele>
        <time>2009-03-15T11:06:08Z</time>
      </trkpt>
      <trkpt lat="47.17245" lon="-1.60626">
        <ele>18.778</ele>
        <time>2009-03-15T11:06:17Z</time>
      </trkpt>
      <trkpt lat="47.17249" lon="-1.60624">
        <ele>18.607</ele>
        <time>2009-03-15T11:06:18Z</time>
      </trkpt>
      <trkpt lat="47.17289" lon="-1.60605">
        <ele>18.811</ele>
        <time>2009-03-15T11:06:28Z</time>
      </trkpt>
      <trkpt lat="47.17292" lon="-1.60604">
        <ele>18.452</ele>
        <time>2009-03-15T11:06:29Z</time>
      </trkpt>
      <trkpt lat="47.17298" lon="-1.60604">
        <ele>18.314</ele>
        <time>2009-03-15T11:06:32Z</time>
      </trkpt>
    </trkseg>
  </trk>
</gpx>